<?xml version="1.0" encoding="UTF-8" standalone="no" ?>
<gpx xmlns="http://www.topografix.com/GPX/1/1" creator="www.cicloide.com" version="1.1" xmlns:xsi="http://www.w3.org/2001/XMLSchema-instance" xsi:schemaLocation="http://www.topografix.com/GPX/1/1 http://www.topografix.com/GPX/1/1/gpx.xsd">
  <trk>
    <name>www.cicloide.com 13569</name>
    <desc>www.cicloide.com 13569</desc>
    <trkseg>
      <trkpt lat="41.543945000" lon="1.886812000">
        <ele>99.50</ele>
        <time>2013-05-09T09:49:41Z</time>
      </trkpt>
      <trkpt lat="41.543928000" lon="1.886562000">
        <ele>99.70</ele>
        <time>2013-05-09T09:49:50Z</time>
      </trkpt>
      <trkpt lat="41.544033000" lon="1.886364000">
        <ele>99.80</ele>
        <time>2013-05-09T09:49:56Z</time>
      </trkpt>
      <trkpt lat="41.544150000" lon="1.886159000">
        <ele>99.20</ele>
        <time>2013-05-09T09:50:01Z</time>
      </trkpt>
      <trkpt lat="41.544295000" lon="1.885949000">
        <ele>98.80</ele>
        <time>2013-05-09T09:50:06Z</time>
      </trkpt>
      <trkpt lat="41.544440000" lon="1.885785000">
        <ele>98.20</ele>
        <time>2013-05-09T09:50:10Z</time>
      </trkpt>
      <trkpt lat="41.544592000" lon="1.885612000">
        <ele>97.70</ele>
        <time>2013-05-09T09:50:14Z</time>
      </trkpt>
      <trkpt lat="41.544755000" lon="1.885445000">
        <ele>97.10</ele>
        <time>2013-05-09T09:50:18Z</time>
      </trkpt>
      <trkpt lat="41.544924000" lon="1.885235000">
        <ele>95.90</ele>
        <time>2013-05-09T09:50:22Z</time>
      </trkpt>
      <trkpt lat="41.545078000" lon="1.885064000">
        <ele>94.60</ele>
        <time>2013-05-09T09:50:25Z</time>
      </trkpt>
      <trkpt lat="41.545239000" lon="1.884869000">
        <ele>93.40</ele>
        <time>2013-05-09T09:50:28Z</time>
      </trkpt>
      <trkpt lat="41.545405000" lon="1.884666000">
        <ele>92.60</ele>
        <time>2013-05-09T09:50:31Z</time>
      </trkpt>
      <trkpt lat="41.545568000" lon="1.884462000">
        <ele>92.30</ele>
        <time>2013-05-09T09:50:34Z</time>
      </trkpt>
      <trkpt lat="41.545715000" lon="1.884267000">
        <ele>92.10</ele>
        <time>2013-05-09T09:50:37Z</time>
      </trkpt>
      <trkpt lat="41.545720000" lon="1.884033000">
        <ele>92.10</ele>
        <time>2013-05-09T09:50:40Z</time>
      </trkpt>
      <trkpt lat="41.545570000" lon="1.883888000">
        <ele>91.00</ele>
        <time>2013-05-09T09:50:43Z</time>
      </trkpt>
      <trkpt lat="41.545378000" lon="1.883796000">
        <ele>90.10</ele>
        <time>2013-05-09T09:50:46Z</time>
      </trkpt>
      <trkpt lat="41.545179000" lon="1.883705000">
        <ele>89.50</ele>
        <time>2013-05-09T09:50:49Z</time>
      </trkpt>
      <trkpt lat="41.544987000" lon="1.883616000">
        <ele>89.30</ele>
        <time>2013-05-09T09:50:52Z</time>
      </trkpt>
      <trkpt lat="41.544816000" lon="1.883492000">
        <ele>90.00</ele>
        <time>2013-05-09T09:50:55Z</time>
      </trkpt>
      <trkpt lat="41.544679000" lon="1.883263000">
        <ele>91.70</ele>
        <time>2013-05-09T09:50:59Z</time>
      </trkpt>
      <trkpt lat="41.544651000" lon="1.883028000">
        <ele>92.70</ele>
        <time>2013-05-09T09:51:03Z</time>
      </trkpt>
      <trkpt lat="41.544751000" lon="1.882798000">
        <ele>92.50</ele>
        <time>2013-05-09T09:51:07Z</time>
      </trkpt>
      <trkpt lat="41.544805000" lon="1.882520000">
        <ele>91.90</ele>
        <time>2013-05-09T09:51:11Z</time>
      </trkpt>
      <trkpt lat="41.544775000" lon="1.882264000">
        <ele>90.80</ele>
        <time>2013-05-09T09:51:14Z</time>
      </trkpt>
      <trkpt lat="41.544684000" lon="1.882046000">
        <ele>89.80</ele>
        <time>2013-05-09T09:51:17Z</time>
      </trkpt>
      <trkpt lat="41.544522000" lon="1.881895000">
        <ele>89.30</ele>
        <time>2013-05-09T09:51:20Z</time>
      </trkpt>
      <trkpt lat="41.544323000" lon="1.881834000">
        <ele>88.70</ele>
        <time>2013-05-09T09:51:23Z</time>
      </trkpt>
      <trkpt lat="41.544114000" lon="1.881866000">
        <ele>88.10</ele>
        <time>2013-05-09T09:51:26Z</time>
      </trkpt>
      <trkpt lat="41.543933000" lon="1.881997000">
        <ele>87.50</ele>
        <time>2013-05-09T09:51:29Z</time>
      </trkpt>
      <trkpt lat="41.543750000" lon="1.882081000">
        <ele>87.40</ele>
        <time>2013-05-09T09:51:32Z</time>
      </trkpt>
      <trkpt lat="41.543576000" lon="1.881986000">
        <ele>86.20</ele>
        <time>2013-05-09T09:51:35Z</time>
      </trkpt>
      <trkpt lat="41.543384000" lon="1.881856000">
        <ele>84.20</ele>
        <time>2013-05-09T09:51:38Z</time>
      </trkpt>
      <trkpt lat="41.543169000" lon="1.881697000">
        <ele>81.40</ele>
        <time>2013-05-09T09:51:41Z</time>
      </trkpt>
      <trkpt lat="41.542923000" lon="1.881548000">
        <ele>79.70</ele>
        <time>2013-05-09T09:51:44Z</time>
      </trkpt>
      <trkpt lat="41.542758000" lon="1.881445000">
        <ele>78.70</ele>
        <time>2013-05-09T09:51:46Z</time>
      </trkpt>
      <trkpt lat="41.542594000" lon="1.881339000">
        <ele>77.80</ele>
        <time>2013-05-09T09:51:48Z</time>
      </trkpt>
      <trkpt lat="41.542365000" lon="1.881189000">
        <ele>78.30</ele>
        <time>2013-05-09T09:51:51Z</time>
      </trkpt>
      <trkpt lat="41.542160000" lon="1.881052000">
        <ele>78.70</ele>
        <time>2013-05-09T09:51:54Z</time>
      </trkpt>
      <trkpt lat="41.541961000" lon="1.880926000">
        <ele>78.60</ele>
        <time>2013-05-09T09:51:57Z</time>
      </trkpt>
      <trkpt lat="41.541764000" lon="1.880808000">
        <ele>78.70</ele>
        <time>2013-05-09T09:52:00Z</time>
      </trkpt>
      <trkpt lat="41.541571000" lon="1.880686000">
        <ele>78.60</ele>
        <time>2013-05-09T09:52:03Z</time>
      </trkpt>
      <trkpt lat="41.541383000" lon="1.880568000">
        <ele>78.70</ele>
        <time>2013-05-09T09:52:06Z</time>
      </trkpt>
      <trkpt lat="41.541202000" lon="1.880474000">
        <ele>78.70</ele>
        <time>2013-05-09T09:52:09Z</time>
      </trkpt>
      <trkpt lat="41.541093000" lon="1.880300000">
        <ele>78.50</ele>
        <time>2013-05-09T09:52:12Z</time>
      </trkpt>
      <trkpt lat="41.541137000" lon="1.880069000">
        <ele>78.70</ele>
        <time>2013-05-09T09:52:15Z</time>
      </trkpt>
      <trkpt lat="41.541197000" lon="1.879757000">
        <ele>78.90</ele>
        <time>2013-05-09T09:52:19Z</time>
      </trkpt>
      <trkpt lat="41.541260000" lon="1.879448000">
        <ele>78.70</ele>
        <time>2013-05-09T09:52:23Z</time>
      </trkpt>
      <trkpt lat="41.541343000" lon="1.879158000">
        <ele>79.10</ele>
        <time>2013-05-09T09:52:27Z</time>
      </trkpt>
      <trkpt lat="41.541442000" lon="1.878882000">
        <ele>79.00</ele>
        <time>2013-05-09T09:52:31Z</time>
      </trkpt>
      <trkpt lat="41.541556000" lon="1.878615000">
        <ele>78.80</ele>
        <time>2013-05-09T09:52:35Z</time>
      </trkpt>
      <trkpt lat="41.541702000" lon="1.878366000">
        <ele>78.90</ele>
        <time>2013-05-09T09:52:39Z</time>
      </trkpt>
      <trkpt lat="41.541864000" lon="1.878136000">
        <ele>79.10</ele>
        <time>2013-05-09T09:52:43Z</time>
      </trkpt>
      <trkpt lat="41.542017000" lon="1.877897000">
        <ele>79.30</ele>
        <time>2013-05-09T09:52:47Z</time>
      </trkpt>
      <trkpt lat="41.542093000" lon="1.877613000">
        <ele>80.00</ele>
        <time>2013-05-09T09:52:51Z</time>
      </trkpt>
      <trkpt lat="41.542133000" lon="1.877340000">
        <ele>80.90</ele>
        <time>2013-05-09T09:52:55Z</time>
      </trkpt>
      <trkpt lat="41.542171000" lon="1.877081000">
        <ele>81.10</ele>
        <time>2013-05-09T09:52:59Z</time>
      </trkpt>
      <trkpt lat="41.542254000" lon="1.876588000">
        <ele>82.30</ele>
        <time>2013-05-09T09:53:07Z</time>
      </trkpt>
      <trkpt lat="41.542300000" lon="1.876265000">
        <ele>83.60</ele>
        <time>2013-05-09T09:53:12Z</time>
      </trkpt>
      <trkpt lat="41.542338000" lon="1.876009000">
        <ele>84.10</ele>
        <time>2013-05-09T09:53:16Z</time>
      </trkpt>
      <trkpt lat="41.542381000" lon="1.875755000">
        <ele>84.50</ele>
        <time>2013-05-09T09:53:20Z</time>
      </trkpt>
      <trkpt lat="41.542415000" lon="1.875504000">
        <ele>85.00</ele>
        <time>2013-05-09T09:53:24Z</time>
      </trkpt>
      <trkpt lat="41.542440000" lon="1.875256000">
        <ele>85.60</ele>
        <time>2013-05-09T09:53:28Z</time>
      </trkpt>
      <trkpt lat="41.542466000" lon="1.875007000">
        <ele>86.00</ele>
        <time>2013-05-09T09:53:32Z</time>
      </trkpt>
      <trkpt lat="41.542511000" lon="1.874759000">
        <ele>86.30</ele>
        <time>2013-05-09T09:53:36Z</time>
      </trkpt>
      <trkpt lat="41.542573000" lon="1.874515000">
        <ele>86.60</ele>
        <time>2013-05-09T09:53:40Z</time>
      </trkpt>
      <trkpt lat="41.542634000" lon="1.874276000">
        <ele>86.60</ele>
        <time>2013-05-09T09:53:44Z</time>
      </trkpt>
      <trkpt lat="41.542704000" lon="1.874041000">
        <ele>86.40</ele>
        <time>2013-05-09T09:53:48Z</time>
      </trkpt>
      <trkpt lat="41.542767000" lon="1.873791000">
        <ele>86.30</ele>
        <time>2013-05-09T09:53:52Z</time>
      </trkpt>
      <trkpt lat="41.542827000" lon="1.873553000">
        <ele>86.60</ele>
        <time>2013-05-09T09:53:56Z</time>
      </trkpt>
      <trkpt lat="41.542904000" lon="1.873310000">
        <ele>86.10</ele>
        <time>2013-05-09T09:54:00Z</time>
      </trkpt>
      <trkpt lat="41.543031000" lon="1.873081000">
        <ele>85.60</ele>
        <time>2013-05-09T09:54:04Z</time>
      </trkpt>
      <trkpt lat="41.543208000" lon="1.872895000">
        <ele>84.90</ele>
        <time>2013-05-09T09:54:08Z</time>
      </trkpt>
      <trkpt lat="41.543341000" lon="1.872730000">
        <ele>84.50</ele>
        <time>2013-05-09T09:54:11Z</time>
      </trkpt>
      <trkpt lat="41.543484000" lon="1.872558000">
        <ele>83.50</ele>
        <time>2013-05-09T09:54:14Z</time>
      </trkpt>
      <trkpt lat="41.543645000" lon="1.872387000">
        <ele>82.60</ele>
        <time>2013-05-09T09:54:17Z</time>
      </trkpt>
      <trkpt lat="41.543843000" lon="1.872266000">
        <ele>81.60</ele>
        <time>2013-05-09T09:54:20Z</time>
      </trkpt>
      <trkpt lat="41.544053000" lon="1.872208000">
        <ele>81.00</ele>
        <time>2013-05-09T09:54:23Z</time>
      </trkpt>
      <trkpt lat="41.544257000" lon="1.872165000">
        <ele>80.90</ele>
        <time>2013-05-09T09:54:26Z</time>
      </trkpt>
      <trkpt lat="41.544457000" lon="1.872114000">
        <ele>80.30</ele>
        <time>2013-05-09T09:54:29Z</time>
      </trkpt>
      <trkpt lat="41.544662000" lon="1.872105000">
        <ele>79.80</ele>
        <time>2013-05-09T09:54:32Z</time>
      </trkpt>
      <trkpt lat="41.544855000" lon="1.872197000">
        <ele>79.70</ele>
        <time>2013-05-09T09:54:35Z</time>
      </trkpt>
      <trkpt lat="41.545045000" lon="1.872280000">
        <ele>79.80</ele>
        <time>2013-05-09T09:54:38Z</time>
      </trkpt>
      <trkpt lat="41.545241000" lon="1.872301000">
        <ele>79.90</ele>
        <time>2013-05-09T09:54:41Z</time>
      </trkpt>
      <trkpt lat="41.545428000" lon="1.872252000">
        <ele>80.10</ele>
        <time>2013-05-09T09:54:44Z</time>
      </trkpt>
      <trkpt lat="41.545594000" lon="1.872157000">
        <ele>80.30</ele>
        <time>2013-05-09T09:54:47Z</time>
      </trkpt>
      <trkpt lat="41.545754000" lon="1.872045000">
        <ele>80.40</ele>
        <time>2013-05-09T09:54:50Z</time>
      </trkpt>
      <trkpt lat="41.545919000" lon="1.871936000">
        <ele>80.60</ele>
        <time>2013-05-09T09:54:53Z</time>
      </trkpt>
      <trkpt lat="41.546088000" lon="1.871858000">
        <ele>80.40</ele>
        <time>2013-05-09T09:54:56Z</time>
      </trkpt>
      <trkpt lat="41.546269000" lon="1.871854000">
        <ele>80.20</ele>
        <time>2013-05-09T09:54:59Z</time>
      </trkpt>
      <trkpt lat="41.546504000" lon="1.871903000">
        <ele>80.30</ele>
        <time>2013-05-09T09:55:03Z</time>
      </trkpt>
      <trkpt lat="41.546686000" lon="1.871947000">
        <ele>80.10</ele>
        <time>2013-05-09T09:55:06Z</time>
      </trkpt>
      <trkpt lat="41.546871000" lon="1.871984000">
        <ele>79.80</ele>
        <time>2013-05-09T09:55:09Z</time>
      </trkpt>
      <trkpt lat="41.547062000" lon="1.872024000">
        <ele>79.60</ele>
        <time>2013-05-09T09:55:12Z</time>
      </trkpt>
      <trkpt lat="41.547247000" lon="1.872005000">
        <ele>79.70</ele>
        <time>2013-05-09T09:55:15Z</time>
      </trkpt>
      <trkpt lat="41.547437000" lon="1.871944000">
        <ele>79.10</ele>
        <time>2013-05-09T09:55:18Z</time>
      </trkpt>
      <trkpt lat="41.547607000" lon="1.871813000">
        <ele>79.00</ele>
        <time>2013-05-09T09:55:21Z</time>
      </trkpt>
      <trkpt lat="41.547738000" lon="1.871638000">
        <ele>79.50</ele>
        <time>2013-05-09T09:55:24Z</time>
      </trkpt>
      <trkpt lat="41.547896000" lon="1.871429000">
        <ele>80.50</ele>
        <time>2013-05-09T09:55:28Z</time>
      </trkpt>
      <trkpt lat="41.548035000" lon="1.871247000">
        <ele>81.80</ele>
        <time>2013-05-09T09:55:32Z</time>
      </trkpt>
      <trkpt lat="41.548167000" lon="1.871091000">
        <ele>82.90</ele>
        <time>2013-05-09T09:55:36Z</time>
      </trkpt>
      <trkpt lat="41.548344000" lon="1.870920000">
        <ele>83.80</ele>
        <time>2013-05-09T09:55:41Z</time>
      </trkpt>
      <trkpt lat="41.548506000" lon="1.870728000">
        <ele>84.50</ele>
        <time>2013-05-09T09:55:46Z</time>
      </trkpt>
      <trkpt lat="41.548653000" lon="1.870532000">
        <ele>85.70</ele>
        <time>2013-05-09T09:55:51Z</time>
      </trkpt>
      <trkpt lat="41.548780000" lon="1.870363000">
        <ele>87.00</ele>
        <time>2013-05-09T09:55:56Z</time>
      </trkpt>
      <trkpt lat="41.548935000" lon="1.870426000">
        <ele>87.80</ele>
        <time>2013-05-09T09:56:02Z</time>
      </trkpt>
      <trkpt lat="41.549044000" lon="1.870629000">
        <ele>87.70</ele>
        <time>2013-05-09T09:56:08Z</time>
      </trkpt>
      <trkpt lat="41.549150000" lon="1.870811000">
        <ele>87.90</ele>
        <time>2013-05-09T09:56:13Z</time>
      </trkpt>
      <trkpt lat="41.549278000" lon="1.871009000">
        <ele>88.20</ele>
        <time>2013-05-09T09:56:19Z</time>
      </trkpt>
      <trkpt lat="41.549460000" lon="1.871141000">
        <ele>88.30</ele>
        <time>2013-05-09T09:56:25Z</time>
      </trkpt>
      <trkpt lat="41.549650000" lon="1.871280000">
        <ele>88.80</ele>
        <time>2013-05-09T09:56:31Z</time>
      </trkpt>
      <trkpt lat="41.549799000" lon="1.871412000">
        <ele>89.10</ele>
        <time>2013-05-09T09:56:36Z</time>
      </trkpt>
      <trkpt lat="41.549955000" lon="1.871537000">
        <ele>89.40</ele>
        <time>2013-05-09T09:56:41Z</time>
      </trkpt>
      <trkpt lat="41.550111000" lon="1.871638000">
        <ele>89.90</ele>
        <time>2013-05-09T09:56:46Z</time>
      </trkpt>
      <trkpt lat="41.550309000" lon="1.871763000">
        <ele>90.70</ele>
        <time>2013-05-09T09:56:52Z</time>
      </trkpt>
      <trkpt lat="41.550501000" lon="1.871833000">
        <ele>91.80</ele>
        <time>2013-05-09T09:56:58Z</time>
      </trkpt>
      <trkpt lat="41.550683000" lon="1.871865000">
        <ele>92.90</ele>
        <time>2013-05-09T09:57:04Z</time>
      </trkpt>
      <trkpt lat="41.550873000" lon="1.871921000">
        <ele>94.90</ele>
        <time>2013-05-09T09:57:11Z</time>
      </trkpt>
      <trkpt lat="41.551072000" lon="1.871980000">
        <ele>95.90</ele>
        <time>2013-05-09T09:57:18Z</time>
      </trkpt>
      <trkpt lat="41.551274000" lon="1.871970000">
        <ele>97.20</ele>
        <time>2013-05-09T09:57:25Z</time>
      </trkpt>
      <trkpt lat="41.551473000" lon="1.871894000">
        <ele>98.50</ele>
        <time>2013-05-09T09:57:32Z</time>
      </trkpt>
      <trkpt lat="41.551565000" lon="1.871685000">
        <ele>100.80</ele>
        <time>2013-05-09T09:57:39Z</time>
      </trkpt>
      <trkpt lat="41.551629000" lon="1.871444000">
        <ele>102.90</ele>
        <time>2013-05-09T09:57:47Z</time>
      </trkpt>
      <trkpt lat="41.551704000" lon="1.871208000">
        <ele>104.10</ele>
        <time>2013-05-09T09:57:55Z</time>
      </trkpt>
      <trkpt lat="41.551875000" lon="1.871061000">
        <ele>105.70</ele>
        <time>2013-05-09T09:58:03Z</time>
      </trkpt>
      <trkpt lat="41.552049000" lon="1.870937000">
        <ele>107.20</ele>
        <time>2013-05-09T09:58:11Z</time>
      </trkpt>
      <trkpt lat="41.552173000" lon="1.870727000">
        <ele>108.80</ele>
        <time>2013-05-09T09:58:19Z</time>
      </trkpt>
      <trkpt lat="41.552188000" lon="1.870461000">
        <ele>110.30</ele>
        <time>2013-05-09T09:58:27Z</time>
      </trkpt>
      <trkpt lat="41.552163000" lon="1.870214000">
        <ele>111.30</ele>
        <time>2013-05-09T09:58:34Z</time>
      </trkpt>
      <trkpt lat="41.552142000" lon="1.869960000">
        <ele>112.10</ele>
        <time>2013-05-09T09:58:41Z</time>
      </trkpt>
      <trkpt lat="41.552216000" lon="1.869690000">
        <ele>112.80</ele>
        <time>2013-05-09T09:58:48Z</time>
      </trkpt>
      <trkpt lat="41.552184000" lon="1.869404000">
        <ele>114.30</ele>
        <time>2013-05-09T09:58:55Z</time>
      </trkpt>
      <trkpt lat="41.552148000" lon="1.869135000">
        <ele>115.40</ele>
        <time>2013-05-09T09:59:02Z</time>
      </trkpt>
      <trkpt lat="41.552147000" lon="1.868891000">
        <ele>117.10</ele>
        <time>2013-05-09T09:59:09Z</time>
      </trkpt>
      <trkpt lat="41.552212000" lon="1.868671000">
        <ele>118.20</ele>
        <time>2013-05-09T09:59:16Z</time>
      </trkpt>
      <trkpt lat="41.552346000" lon="1.868499000">
        <ele>119.40</ele>
        <time>2013-05-09T09:59:23Z</time>
      </trkpt>
      <trkpt lat="41.552525000" lon="1.868385000">
        <ele>120.00</ele>
        <time>2013-05-09T09:59:30Z</time>
      </trkpt>
      <trkpt lat="41.552708000" lon="1.868327000">
        <ele>120.10</ele>
        <time>2013-05-09T09:59:36Z</time>
      </trkpt>
      <trkpt lat="41.552901000" lon="1.868239000">
        <ele>119.50</ele>
        <time>2013-05-09T09:59:42Z</time>
      </trkpt>
      <trkpt lat="41.552888000" lon="1.867995000">
        <ele>119.30</ele>
        <time>2013-05-09T09:59:47Z</time>
      </trkpt>
      <trkpt lat="41.552871000" lon="1.867726000">
        <ele>119.60</ele>
        <time>2013-05-09T09:59:53Z</time>
      </trkpt>
      <trkpt lat="41.552841000" lon="1.867450000">
        <ele>119.90</ele>
        <time>2013-05-09T09:59:59Z</time>
      </trkpt>
      <trkpt lat="41.552799000" lon="1.867213000">
        <ele>119.60</ele>
        <time>2013-05-09T10:00:04Z</time>
      </trkpt>
      <trkpt lat="41.552907000" lon="1.866986000">
        <ele>118.70</ele>
        <time>2013-05-09T10:00:09Z</time>
      </trkpt>
      <trkpt lat="41.553067000" lon="1.866864000">
        <ele>118.60</ele>
        <time>2013-05-09T10:00:13Z</time>
      </trkpt>
      <trkpt lat="41.553246000" lon="1.866739000">
        <ele>119.50</ele>
        <time>2013-05-09T10:00:18Z</time>
      </trkpt>
      <trkpt lat="41.553329000" lon="1.866916000">
        <ele>120.20</ele>
        <time>2013-05-09T10:00:24Z</time>
      </trkpt>
      <trkpt lat="41.553332000" lon="1.867192000">
        <ele>121.10</ele>
        <time>2013-05-09T10:00:30Z</time>
      </trkpt>
      <trkpt lat="41.553450000" lon="1.867404000">
        <ele>122.50</ele>
        <time>2013-05-09T10:00:36Z</time>
      </trkpt>
      <trkpt lat="41.553510000" lon="1.867648000">
        <ele>121.80</ele>
        <time>2013-05-09T10:00:42Z</time>
      </trkpt>
      <trkpt lat="41.553442000" lon="1.867883000">
        <ele>122.00</ele>
        <time>2013-05-09T10:00:47Z</time>
      </trkpt>
      <trkpt lat="41.553455000" lon="1.868159000">
        <ele>123.10</ele>
        <time>2013-05-09T10:00:53Z</time>
      </trkpt>
      <trkpt lat="41.553440000" lon="1.868424000">
        <ele>121.40</ele>
        <time>2013-05-09T10:00:58Z</time>
      </trkpt>
      <trkpt lat="41.553373000" lon="1.868686000">
        <ele>120.90</ele>
        <time>2013-05-09T10:01:02Z</time>
      </trkpt>
      <trkpt lat="41.553309000" lon="1.868917000">
        <ele>121.70</ele>
        <time>2013-05-09T10:01:06Z</time>
      </trkpt>
      <trkpt lat="41.553180000" lon="1.869106000">
        <ele>123.00</ele>
        <time>2013-05-09T10:01:11Z</time>
      </trkpt>
      <trkpt lat="41.553030000" lon="1.869269000">
        <ele>124.30</ele>
        <time>2013-05-09T10:01:17Z</time>
      </trkpt>
      <trkpt lat="41.553093000" lon="1.869517000">
        <ele>125.60</ele>
        <time>2013-05-09T10:01:23Z</time>
      </trkpt>
      <trkpt lat="41.553186000" lon="1.869736000">
        <ele>127.70</ele>
        <time>2013-05-09T10:01:29Z</time>
      </trkpt>
      <trkpt lat="41.553235000" lon="1.869613000">
        <ele>130.70</ele>
        <time>2013-05-09T10:01:36Z</time>
      </trkpt>
      <trkpt lat="41.553189000" lon="1.869359000">
        <ele>132.10</ele>
        <time>2013-05-09T10:01:43Z</time>
      </trkpt>
      <trkpt lat="41.553309000" lon="1.869198000">
        <ele>134.20</ele>
        <time>2013-05-09T10:01:50Z</time>
      </trkpt>
      <trkpt lat="41.553488000" lon="1.869130000">
        <ele>136.00</ele>
        <time>2013-05-09T10:01:57Z</time>
      </trkpt>
      <trkpt lat="41.553653000" lon="1.868982000">
        <ele>137.40</ele>
        <time>2013-05-09T10:02:05Z</time>
      </trkpt>
      <trkpt lat="41.553725000" lon="1.868728000">
        <ele>138.80</ele>
        <time>2013-05-09T10:02:13Z</time>
      </trkpt>
      <trkpt lat="41.553816000" lon="1.868501000">
        <ele>140.00</ele>
        <time>2013-05-09T10:02:21Z</time>
      </trkpt>
      <trkpt lat="41.553840000" lon="1.868613000">
        <ele>141.80</ele>
        <time>2013-05-09T10:02:30Z</time>
      </trkpt>
      <trkpt lat="41.553833000" lon="1.868867000">
        <ele>143.20</ele>
        <time>2013-05-09T10:02:38Z</time>
      </trkpt>
      <trkpt lat="41.553852000" lon="1.869003000">
        <ele>144.00</ele>
        <time>2013-05-09T10:02:49Z</time>
      </trkpt>
      <trkpt lat="41.553738000" lon="1.869195000">
        <ele>145.30</ele>
        <time>2013-05-09T10:02:56Z</time>
      </trkpt>
      <trkpt lat="41.553902000" lon="1.869179000">
        <ele>148.00</ele>
        <time>2013-05-09T10:03:05Z</time>
      </trkpt>
      <trkpt lat="41.554060000" lon="1.869040000">
        <ele>152.10</ele>
        <time>2013-05-09T10:03:16Z</time>
      </trkpt>
      <trkpt lat="41.554146000" lon="1.868813000">
        <ele>153.40</ele>
        <time>2013-05-09T10:03:25Z</time>
      </trkpt>
      <trkpt lat="41.554248000" lon="1.868587000">
        <ele>154.50</ele>
        <time>2013-05-09T10:03:35Z</time>
      </trkpt>
      <trkpt lat="41.554345000" lon="1.868350000">
        <ele>156.90</ele>
        <time>2013-05-09T10:03:45Z</time>
      </trkpt>
      <trkpt lat="41.554317000" lon="1.868115000">
        <ele>158.80</ele>
        <time>2013-05-09T10:03:55Z</time>
      </trkpt>
      <trkpt lat="41.554263000" lon="1.867873000">
        <ele>160.50</ele>
        <time>2013-05-09T10:04:04Z</time>
      </trkpt>
      <trkpt lat="41.554271000" lon="1.867622000">
        <ele>162.50</ele>
        <time>2013-05-09T10:04:13Z</time>
      </trkpt>
      <trkpt lat="41.554378000" lon="1.867383000">
        <ele>164.60</ele>
        <time>2013-05-09T10:04:22Z</time>
      </trkpt>
      <trkpt lat="41.554430000" lon="1.867141000">
        <ele>166.40</ele>
        <time>2013-05-09T10:04:31Z</time>
      </trkpt>
      <trkpt lat="41.554470000" lon="1.866979000">
        <ele>168.90</ele>
        <time>2013-05-09T10:04:41Z</time>
      </trkpt>
      <trkpt lat="41.554507000" lon="1.867224000">
        <ele>169.90</ele>
        <time>2013-05-09T10:04:50Z</time>
      </trkpt>
      <trkpt lat="41.554485000" lon="1.867500000">
        <ele>170.50</ele>
        <time>2013-05-09T10:04:58Z</time>
      </trkpt>
      <trkpt lat="41.554520000" lon="1.867717000">
        <ele>171.50</ele>
        <time>2013-05-09T10:05:05Z</time>
      </trkpt>
      <trkpt lat="41.554564000" lon="1.867476000">
        <ele>173.50</ele>
        <time>2013-05-09T10:05:13Z</time>
      </trkpt>
      <trkpt lat="41.554618000" lon="1.867233000">
        <ele>174.60</ele>
        <time>2013-05-09T10:05:21Z</time>
      </trkpt>
      <trkpt lat="41.554613000" lon="1.866989000">
        <ele>175.90</ele>
        <time>2013-05-09T10:05:29Z</time>
      </trkpt>
      <trkpt lat="41.554586000" lon="1.866749000">
        <ele>177.30</ele>
        <time>2013-05-09T10:05:37Z</time>
      </trkpt>
      <trkpt lat="41.554596000" lon="1.866462000">
        <ele>178.00</ele>
        <time>2013-05-09T10:05:45Z</time>
      </trkpt>
      <trkpt lat="41.554647000" lon="1.866232000">
        <ele>178.90</ele>
        <time>2013-05-09T10:05:52Z</time>
      </trkpt>
      <trkpt lat="41.554657000" lon="1.865971000">
        <ele>179.60</ele>
        <time>2013-05-09T10:06:00Z</time>
      </trkpt>
      <trkpt lat="41.554707000" lon="1.865697000">
        <ele>181.00</ele>
        <time>2013-05-09T10:06:08Z</time>
      </trkpt>
      <trkpt lat="41.554821000" lon="1.865501000">
        <ele>182.60</ele>
        <time>2013-05-09T10:06:16Z</time>
      </trkpt>
      <trkpt lat="41.554960000" lon="1.865326000">
        <ele>185.20</ele>
        <time>2013-05-09T10:06:24Z</time>
      </trkpt>
      <trkpt lat="41.555089000" lon="1.865120000">
        <ele>186.20</ele>
        <time>2013-05-09T10:06:32Z</time>
      </trkpt>
      <trkpt lat="41.555229000" lon="1.864937000">
        <ele>186.20</ele>
        <time>2013-05-09T10:06:38Z</time>
      </trkpt>
      <trkpt lat="41.555397000" lon="1.864848000">
        <ele>186.40</ele>
        <time>2013-05-09T10:06:43Z</time>
      </trkpt>
      <trkpt lat="41.555592000" lon="1.864829000">
        <ele>187.40</ele>
        <time>2013-05-09T10:06:49Z</time>
      </trkpt>
      <trkpt lat="41.555664000" lon="1.864571000">
        <ele>187.20</ele>
        <time>2013-05-09T10:06:55Z</time>
      </trkpt>
      <trkpt lat="41.555778000" lon="1.864316000">
        <ele>187.50</ele>
        <time>2013-05-09T10:07:01Z</time>
      </trkpt>
      <trkpt lat="41.555927000" lon="1.864131000">
        <ele>188.40</ele>
        <time>2013-05-09T10:07:07Z</time>
      </trkpt>
      <trkpt lat="41.556084000" lon="1.863959000">
        <ele>189.00</ele>
        <time>2013-05-09T10:07:13Z</time>
      </trkpt>
      <trkpt lat="41.556220000" lon="1.863765000">
        <ele>189.90</ele>
        <time>2013-05-09T10:07:19Z</time>
      </trkpt>
      <trkpt lat="41.556378000" lon="1.863596000">
        <ele>191.30</ele>
        <time>2013-05-09T10:07:26Z</time>
      </trkpt>
      <trkpt lat="41.556545000" lon="1.863503000">
        <ele>192.60</ele>
        <time>2013-05-09T10:07:33Z</time>
      </trkpt>
      <trkpt lat="41.556691000" lon="1.863311000">
        <ele>193.70</ele>
        <time>2013-05-09T10:07:40Z</time>
      </trkpt>
      <trkpt lat="41.556893000" lon="1.863246000">
        <ele>195.10</ele>
        <time>2013-05-09T10:07:47Z</time>
      </trkpt>
      <trkpt lat="41.557096000" lon="1.863227000">
        <ele>196.70</ele>
        <time>2013-05-09T10:07:54Z</time>
      </trkpt>
      <trkpt lat="41.557299000" lon="1.863261000">
        <ele>198.50</ele>
        <time>2013-05-09T10:08:01Z</time>
      </trkpt>
      <trkpt lat="41.557501000" lon="1.863378000">
        <ele>199.90</ele>
        <time>2013-05-09T10:08:08Z</time>
      </trkpt>
      <trkpt lat="41.557686000" lon="1.863416000">
        <ele>200.50</ele>
        <time>2013-05-09T10:08:15Z</time>
      </trkpt>
      <trkpt lat="41.557859000" lon="1.863356000">
        <ele>201.10</ele>
        <time>2013-05-09T10:08:21Z</time>
      </trkpt>
      <trkpt lat="41.558033000" lon="1.863334000">
        <ele>202.30</ele>
        <time>2013-05-09T10:08:27Z</time>
      </trkpt>
      <trkpt lat="41.558221000" lon="1.863237000">
        <ele>203.20</ele>
        <time>2013-05-09T10:08:34Z</time>
      </trkpt>
      <trkpt lat="41.558401000" lon="1.863178000">
        <ele>203.70</ele>
        <time>2013-05-09T10:08:40Z</time>
      </trkpt>
      <trkpt lat="41.558589000" lon="1.863116000">
        <ele>203.40</ele>
        <time>2013-05-09T10:08:46Z</time>
      </trkpt>
      <trkpt lat="41.558783000" lon="1.863098000">
        <ele>203.70</ele>
        <time>2013-05-09T10:08:51Z</time>
      </trkpt>
      <trkpt lat="41.558973000" lon="1.863089000">
        <ele>204.50</ele>
        <time>2013-05-09T10:08:57Z</time>
      </trkpt>
      <trkpt lat="41.559180000" lon="1.863061000">
        <ele>204.00</ele>
        <time>2013-05-09T10:09:04Z</time>
      </trkpt>
      <trkpt lat="41.559298000" lon="1.862931000">
        <ele>204.20</ele>
        <time>2013-05-09T10:09:11Z</time>
      </trkpt>
      <trkpt lat="41.559469000" lon="1.862825000">
        <ele>206.00</ele>
        <time>2013-05-09T10:09:18Z</time>
      </trkpt>
      <trkpt lat="41.559643000" lon="1.862769000">
        <ele>206.80</ele>
        <time>2013-05-09T10:09:25Z</time>
      </trkpt>
      <trkpt lat="41.559739000" lon="1.862569000">
        <ele>208.50</ele>
        <time>2013-05-09T10:09:33Z</time>
      </trkpt>
      <trkpt lat="41.559759000" lon="1.862307000">
        <ele>212.30</ele>
        <time>2013-05-09T10:09:44Z</time>
      </trkpt>
      <trkpt lat="41.559746000" lon="1.862050000">
        <ele>214.40</ele>
        <time>2013-05-09T10:09:54Z</time>
      </trkpt>
      <trkpt lat="41.559800000" lon="1.861800000">
        <ele>216.70</ele>
        <time>2013-05-09T10:10:04Z</time>
      </trkpt>
      <trkpt lat="41.559839000" lon="1.861573000">
        <ele>218.00</ele>
        <time>2013-05-09T10:10:14Z</time>
      </trkpt>
      <trkpt lat="41.559844000" lon="1.861340000">
        <ele>220.40</ele>
        <time>2013-05-09T10:10:27Z</time>
      </trkpt>
      <trkpt lat="41.559848000" lon="1.861072000">
        <ele>222.50</ele>
        <time>2013-05-09T10:10:39Z</time>
      </trkpt>
      <trkpt lat="41.559799000" lon="1.860831000">
        <ele>225.30</ele>
        <time>2013-05-09T10:10:49Z</time>
      </trkpt>
      <trkpt lat="41.559740000" lon="1.860589000">
        <ele>228.20</ele>
        <time>2013-05-09T10:11:00Z</time>
      </trkpt>
      <trkpt lat="41.559681000" lon="1.860344000">
        <ele>230.60</ele>
        <time>2013-05-09T10:11:11Z</time>
      </trkpt>
      <trkpt lat="41.559698000" lon="1.860104000">
        <ele>233.20</ele>
        <time>2013-05-09T10:11:22Z</time>
      </trkpt>
      <trkpt lat="41.559734000" lon="1.859863000">
        <ele>235.20</ele>
        <time>2013-05-09T10:11:33Z</time>
      </trkpt>
      <trkpt lat="41.559743000" lon="1.859603000">
        <ele>238.10</ele>
        <time>2013-05-09T10:11:45Z</time>
      </trkpt>
      <trkpt lat="41.559697000" lon="1.859360000">
        <ele>242.90</ele>
        <time>2013-05-09T10:11:58Z</time>
      </trkpt>
      <trkpt lat="41.559611000" lon="1.859159000">
        <ele>246.50</ele>
        <time>2013-05-09T10:12:11Z</time>
      </trkpt>
      <trkpt lat="41.559494000" lon="1.858951000">
        <ele>250.70</ele>
        <time>2013-05-09T10:12:25Z</time>
      </trkpt>
      <trkpt lat="41.559474000" lon="1.858712000">
        <ele>253.50</ele>
        <time>2013-05-09T10:12:38Z</time>
      </trkpt>
      <trkpt lat="41.559506000" lon="1.858471000">
        <ele>257.40</ele>
        <time>2013-05-09T10:12:52Z</time>
      </trkpt>
      <trkpt lat="41.559444000" lon="1.858235000">
        <ele>263.40</ele>
        <time>2013-05-09T10:13:08Z</time>
      </trkpt>
      <trkpt lat="41.559441000" lon="1.857997000">
        <ele>267.50</ele>
        <time>2013-05-09T10:13:24Z</time>
      </trkpt>
      <trkpt lat="41.559400000" lon="1.857775000">
        <ele>272.90</ele>
        <time>2013-05-09T10:13:41Z</time>
      </trkpt>
      <trkpt lat="41.559252000" lon="1.857822000">
        <ele>273.20</ele>
        <time>2013-05-09T10:13:57Z</time>
      </trkpt>
      <trkpt lat="41.559335000" lon="1.857752000">
        <ele>273.70</ele>
        <time>2013-05-09T10:14:12Z</time>
      </trkpt>
      <trkpt lat="41.559304000" lon="1.857815000">
        <ele>273.80</ele>
        <time>2013-05-09T10:14:27Z</time>
      </trkpt>
      <trkpt lat="41.559296000" lon="1.857845000">
        <ele>273.70</ele>
        <time>2013-05-09T10:14:43Z</time>
      </trkpt>
      <trkpt lat="41.559254000" lon="1.857810000">
        <ele>273.70</ele>
        <time>2013-05-09T10:14:59Z</time>
      </trkpt>
      <trkpt lat="41.559214000" lon="1.857840000">
        <ele>273.70</ele>
        <time>2013-05-09T10:15:23Z</time>
      </trkpt>
      <trkpt lat="41.559377000" lon="1.857719000">
        <ele>274.50</ele>
        <time>2013-05-09T10:16:07Z</time>
      </trkpt>
      <trkpt lat="41.559558000" lon="1.857712000">
        <ele>277.60</ele>
        <time>2013-05-09T10:16:18Z</time>
      </trkpt>
      <trkpt lat="41.559713000" lon="1.857586000">
        <ele>281.20</ele>
        <time>2013-05-09T10:16:30Z</time>
      </trkpt>
      <trkpt lat="41.559802000" lon="1.857365000">
        <ele>285.00</ele>
        <time>2013-05-09T10:16:44Z</time>
      </trkpt>
      <trkpt lat="41.559904000" lon="1.857170000">
        <ele>286.70</ele>
        <time>2013-05-09T10:16:55Z</time>
      </trkpt>
      <trkpt lat="41.559999000" lon="1.856960000">
        <ele>288.70</ele>
        <time>2013-05-09T10:17:06Z</time>
      </trkpt>
      <trkpt lat="41.560077000" lon="1.856716000">
        <ele>291.60</ele>
        <time>2013-05-09T10:17:18Z</time>
      </trkpt>
      <trkpt lat="41.560126000" lon="1.856482000">
        <ele>293.50</ele>
        <time>2013-05-09T10:17:30Z</time>
      </trkpt>
      <trkpt lat="41.560178000" lon="1.856231000">
        <ele>296.10</ele>
        <time>2013-05-09T10:17:42Z</time>
      </trkpt>
      <trkpt lat="41.560187000" lon="1.855991000">
        <ele>297.50</ele>
        <time>2013-05-09T10:17:52Z</time>
      </trkpt>
      <trkpt lat="41.560245000" lon="1.855753000">
        <ele>299.20</ele>
        <time>2013-05-09T10:18:02Z</time>
      </trkpt>
      <trkpt lat="41.560337000" lon="1.855539000">
        <ele>300.20</ele>
        <time>2013-05-09T10:18:12Z</time>
      </trkpt>
      <trkpt lat="41.560410000" lon="1.855306000">
        <ele>299.80</ele>
        <time>2013-05-09T10:18:19Z</time>
      </trkpt>
      <trkpt lat="41.560498000" lon="1.855076000">
        <ele>301.00</ele>
        <time>2013-05-09T10:18:25Z</time>
      </trkpt>
      <trkpt lat="41.560603000" lon="1.854861000">
        <ele>303.40</ele>
        <time>2013-05-09T10:18:34Z</time>
      </trkpt>
      <trkpt lat="41.560720000" lon="1.854634000">
        <ele>302.90</ele>
        <time>2013-05-09T10:18:42Z</time>
      </trkpt>
      <trkpt lat="41.560832000" lon="1.854429000">
        <ele>304.30</ele>
        <time>2013-05-09T10:18:49Z</time>
      </trkpt>
      <trkpt lat="41.560898000" lon="1.854201000">
        <ele>306.00</ele>
        <time>2013-05-09T10:18:57Z</time>
      </trkpt>
      <trkpt lat="41.560844000" lon="1.853971000">
        <ele>308.50</ele>
        <time>2013-05-09T10:19:08Z</time>
      </trkpt>
      <trkpt lat="41.560645000" lon="1.853924000">
        <ele>310.60</ele>
        <time>2013-05-09T10:19:18Z</time>
      </trkpt>
      <trkpt lat="41.560467000" lon="1.853831000">
        <ele>311.70</ele>
        <time>2013-05-09T10:19:27Z</time>
      </trkpt>
      <trkpt lat="41.560275000" lon="1.853764000">
        <ele>312.90</ele>
        <time>2013-05-09T10:19:36Z</time>
      </trkpt>
      <trkpt lat="41.560084000" lon="1.853697000">
        <ele>313.00</ele>
        <time>2013-05-09T10:19:45Z</time>
      </trkpt>
      <trkpt lat="41.559900000" lon="1.853600000">
        <ele>312.90</ele>
        <time>2013-05-09T10:19:52Z</time>
      </trkpt>
      <trkpt lat="41.559763000" lon="1.853442000">
        <ele>313.10</ele>
        <time>2013-05-09T10:19:58Z</time>
      </trkpt>
      <trkpt lat="41.559662000" lon="1.853236000">
        <ele>313.50</ele>
        <time>2013-05-09T10:20:04Z</time>
      </trkpt>
      <trkpt lat="41.559556000" lon="1.853028000">
        <ele>314.10</ele>
        <time>2013-05-09T10:20:10Z</time>
      </trkpt>
      <trkpt lat="41.559436000" lon="1.852830000">
        <ele>314.70</ele>
        <time>2013-05-09T10:20:17Z</time>
      </trkpt>
      <trkpt lat="41.559272000" lon="1.852641000">
        <ele>313.20</ele>
        <time>2013-05-09T10:20:23Z</time>
      </trkpt>
      <trkpt lat="41.559174000" lon="1.852443000">
        <ele>311.80</ele>
        <time>2013-05-09T10:20:27Z</time>
      </trkpt>
      <trkpt lat="41.559090000" lon="1.852198000">
        <ele>310.80</ele>
        <time>2013-05-09T10:20:31Z</time>
      </trkpt>
      <trkpt lat="41.559066000" lon="1.851952000">
        <ele>310.30</ele>
        <time>2013-05-09T10:20:35Z</time>
      </trkpt>
      <trkpt lat="41.559047000" lon="1.851697000">
        <ele>308.90</ele>
        <time>2013-05-09T10:20:39Z</time>
      </trkpt>
      <trkpt lat="41.559018000" lon="1.851399000">
        <ele>307.10</ele>
        <time>2013-05-09T10:20:43Z</time>
      </trkpt>
      <trkpt lat="41.558989000" lon="1.851098000">
        <ele>305.10</ele>
        <time>2013-05-09T10:20:47Z</time>
      </trkpt>
      <trkpt lat="41.558932000" lon="1.850806000">
        <ele>303.30</ele>
        <time>2013-05-09T10:20:52Z</time>
      </trkpt>
      <trkpt lat="41.558951000" lon="1.850546000">
        <ele>300.80</ele>
        <time>2013-05-09T10:20:56Z</time>
      </trkpt>
      <trkpt lat="41.558915000" lon="1.850290000">
        <ele>298.20</ele>
        <time>2013-05-09T10:20:59Z</time>
      </trkpt>
      <trkpt lat="41.558880000" lon="1.850001000">
        <ele>296.00</ele>
        <time>2013-05-09T10:21:02Z</time>
      </trkpt>
      <trkpt lat="41.558930000" lon="1.849710000">
        <ele>294.90</ele>
        <time>2013-05-09T10:21:05Z</time>
      </trkpt>
      <trkpt lat="41.559023000" lon="1.849455000">
        <ele>295.00</ele>
        <time>2013-05-09T10:21:08Z</time>
      </trkpt>
      <trkpt lat="41.559120000" lon="1.849249000">
        <ele>296.00</ele>
        <time>2013-05-09T10:21:11Z</time>
      </trkpt>
      <trkpt lat="41.559234000" lon="1.849053000">
        <ele>297.60</ele>
        <time>2013-05-09T10:21:15Z</time>
      </trkpt>
      <trkpt lat="41.559323000" lon="1.848835000">
        <ele>299.00</ele>
        <time>2013-05-09T10:21:20Z</time>
      </trkpt>
      <trkpt lat="41.559419000" lon="1.848613000">
        <ele>303.30</ele>
        <time>2013-05-09T10:21:28Z</time>
      </trkpt>
      <trkpt lat="41.559511000" lon="1.848379000">
        <ele>305.70</ele>
        <time>2013-05-09T10:21:37Z</time>
      </trkpt>
      <trkpt lat="41.559654000" lon="1.848214000">
        <ele>307.60</ele>
        <time>2013-05-09T10:21:46Z</time>
      </trkpt>
      <trkpt lat="41.559755000" lon="1.847990000">
        <ele>308.00</ele>
        <time>2013-05-09T10:21:54Z</time>
      </trkpt>
      <trkpt lat="41.559828000" lon="1.847751000">
        <ele>308.70</ele>
        <time>2013-05-09T10:22:01Z</time>
      </trkpt>
      <trkpt lat="41.559911000" lon="1.847536000">
        <ele>310.60</ele>
        <time>2013-05-09T10:22:08Z</time>
      </trkpt>
      <trkpt lat="41.560000000" lon="1.847298000">
        <ele>312.70</ele>
        <time>2013-05-09T10:22:17Z</time>
      </trkpt>
      <trkpt lat="41.560108000" lon="1.847105000">
        <ele>314.20</ele>
        <time>2013-05-09T10:22:25Z</time>
      </trkpt>
      <trkpt lat="41.560247000" lon="1.846918000">
        <ele>314.80</ele>
        <time>2013-05-09T10:22:33Z</time>
      </trkpt>
      <trkpt lat="41.560394000" lon="1.846764000">
        <ele>316.80</ele>
        <time>2013-05-09T10:22:41Z</time>
      </trkpt>
      <trkpt lat="41.560557000" lon="1.846627000">
        <ele>318.50</ele>
        <time>2013-05-09T10:22:50Z</time>
      </trkpt>
      <trkpt lat="41.560708000" lon="1.846494000">
        <ele>321.50</ele>
        <time>2013-05-09T10:23:00Z</time>
      </trkpt>
      <trkpt lat="41.560877000" lon="1.846351000">
        <ele>324.50</ele>
        <time>2013-05-09T10:23:12Z</time>
      </trkpt>
      <trkpt lat="41.561049000" lon="1.846227000">
        <ele>325.90</ele>
        <time>2013-05-09T10:23:22Z</time>
      </trkpt>
      <trkpt lat="41.561232000" lon="1.846185000">
        <ele>326.70</ele>
        <time>2013-05-09T10:23:31Z</time>
      </trkpt>
      <trkpt lat="41.561435000" lon="1.846189000">
        <ele>327.70</ele>
        <time>2013-05-09T10:23:40Z</time>
      </trkpt>
      <trkpt lat="41.561633000" lon="1.846191000">
        <ele>329.30</ele>
        <time>2013-05-09T10:23:49Z</time>
      </trkpt>
      <trkpt lat="41.561829000" lon="1.846178000">
        <ele>331.70</ele>
        <time>2013-05-09T10:23:58Z</time>
      </trkpt>
      <trkpt lat="41.562024000" lon="1.846192000">
        <ele>334.60</ele>
        <time>2013-05-09T10:24:10Z</time>
      </trkpt>
      <trkpt lat="41.562194000" lon="1.846216000">
        <ele>337.20</ele>
        <time>2013-05-09T10:24:21Z</time>
      </trkpt>
      <trkpt lat="41.562258000" lon="1.845997000">
        <ele>340.40</ele>
        <time>2013-05-09T10:24:32Z</time>
      </trkpt>
      <trkpt lat="41.562275000" lon="1.845762000">
        <ele>343.90</ele>
        <time>2013-05-09T10:24:43Z</time>
      </trkpt>
      <trkpt lat="41.562285000" lon="1.845563000">
        <ele>345.20</ele>
        <time>2013-05-09T10:25:16Z</time>
      </trkpt>
      <trkpt lat="41.562264000" lon="1.845631000">
        <ele>345.70</ele>
        <time>2013-05-09T10:28:26Z</time>
      </trkpt>
      <trkpt lat="41.562259000" lon="1.845404000">
        <ele>343.40</ele>
        <time>2013-05-09T10:28:54Z</time>
      </trkpt>
      <trkpt lat="41.562318000" lon="1.845145000">
        <ele>338.70</ele>
        <time>2013-05-09T10:29:03Z</time>
      </trkpt>
      <trkpt lat="41.562462000" lon="1.844975000">
        <ele>336.10</ele>
        <time>2013-05-09T10:29:09Z</time>
      </trkpt>
      <trkpt lat="41.562586000" lon="1.844752000">
        <ele>334.20</ele>
        <time>2013-05-09T10:29:15Z</time>
      </trkpt>
      <trkpt lat="41.562675000" lon="1.844502000">
        <ele>332.90</ele>
        <time>2013-05-09T10:29:21Z</time>
      </trkpt>
      <trkpt lat="41.562757000" lon="1.844275000">
        <ele>333.60</ele>
        <time>2013-05-09T10:29:27Z</time>
      </trkpt>
      <trkpt lat="41.562830000" lon="1.844001000">
        <ele>333.40</ele>
        <time>2013-05-09T10:29:34Z</time>
      </trkpt>
      <trkpt lat="41.562927000" lon="1.843774000">
        <ele>330.50</ele>
        <time>2013-05-09T10:29:40Z</time>
      </trkpt>
      <trkpt lat="41.562956000" lon="1.843546000">
        <ele>327.50</ele>
        <time>2013-05-09T10:29:45Z</time>
      </trkpt>
      <trkpt lat="41.562928000" lon="1.843282000">
        <ele>324.10</ele>
        <time>2013-05-09T10:29:50Z</time>
      </trkpt>
      <trkpt lat="41.562859000" lon="1.843032000">
        <ele>321.50</ele>
        <time>2013-05-09T10:29:55Z</time>
      </trkpt>
      <trkpt lat="41.562777000" lon="1.842770000">
        <ele>317.90</ele>
        <time>2013-05-09T10:30:01Z</time>
      </trkpt>
      <trkpt lat="41.562717000" lon="1.842550000">
        <ele>315.10</ele>
        <time>2013-05-09T10:30:06Z</time>
      </trkpt>
      <trkpt lat="41.562708000" lon="1.842284000">
        <ele>312.40</ele>
        <time>2013-05-09T10:30:11Z</time>
      </trkpt>
      <trkpt lat="41.562766000" lon="1.842043000">
        <ele>312.70</ele>
        <time>2013-05-09T10:30:17Z</time>
      </trkpt>
      <trkpt lat="41.562794000" lon="1.841825000">
        <ele>313.70</ele>
        <time>2013-05-09T10:30:26Z</time>
      </trkpt>
      <trkpt lat="41.562639000" lon="1.841881000">
        <ele>310.70</ele>
        <time>2013-05-09T10:30:34Z</time>
      </trkpt>
      <trkpt lat="41.562509000" lon="1.842057000">
        <ele>307.30</ele>
        <time>2013-05-09T10:30:40Z</time>
      </trkpt>
      <trkpt lat="41.562362000" lon="1.842229000">
        <ele>305.00</ele>
        <time>2013-05-09T10:30:46Z</time>
      </trkpt>
      <trkpt lat="41.562210000" lon="1.842376000">
        <ele>301.60</ele>
        <time>2013-05-09T10:30:53Z</time>
      </trkpt>
      <trkpt lat="41.562046000" lon="1.842561000">
        <ele>298.80</ele>
        <time>2013-05-09T10:30:58Z</time>
      </trkpt>
      <trkpt lat="41.561829000" lon="1.842662000">
        <ele>296.50</ele>
        <time>2013-05-09T10:31:03Z</time>
      </trkpt>
      <trkpt lat="41.561652000" lon="1.842689000">
        <ele>295.70</ele>
        <time>2013-05-09T10:31:07Z</time>
      </trkpt>
      <trkpt lat="41.561468000" lon="1.842890000">
        <ele>293.50</ele>
        <time>2013-05-09T10:31:12Z</time>
      </trkpt>
      <trkpt lat="41.561290000" lon="1.843065000">
        <ele>291.30</ele>
        <time>2013-05-09T10:31:16Z</time>
      </trkpt>
      <trkpt lat="41.561108000" lon="1.843163000">
        <ele>290.10</ele>
        <time>2013-05-09T10:31:19Z</time>
      </trkpt>
      <trkpt lat="41.560933000" lon="1.843269000">
        <ele>289.10</ele>
        <time>2013-05-09T10:31:22Z</time>
      </trkpt>
      <trkpt lat="41.560808000" lon="1.843470000">
        <ele>287.50</ele>
        <time>2013-05-09T10:31:26Z</time>
      </trkpt>
      <trkpt lat="41.560636000" lon="1.843626000">
        <ele>285.40</ele>
        <time>2013-05-09T10:31:31Z</time>
      </trkpt>
      <trkpt lat="41.560443000" lon="1.843637000">
        <ele>285.60</ele>
        <time>2013-05-09T10:31:35Z</time>
      </trkpt>
      <trkpt lat="41.560238000" lon="1.843598000">
        <ele>286.10</ele>
        <time>2013-05-09T10:31:40Z</time>
      </trkpt>
      <trkpt lat="41.560025000" lon="1.843542000">
        <ele>287.50</ele>
        <time>2013-05-09T10:31:45Z</time>
      </trkpt>
      <trkpt lat="41.559809000" lon="1.843442000">
        <ele>287.90</ele>
        <time>2013-05-09T10:31:51Z</time>
      </trkpt>
      <trkpt lat="41.559635000" lon="1.843281000">
        <ele>287.80</ele>
        <time>2013-05-09T10:31:57Z</time>
      </trkpt>
      <trkpt lat="41.559476000" lon="1.843137000">
        <ele>287.10</ele>
        <time>2013-05-09T10:32:04Z</time>
      </trkpt>
      <trkpt lat="41.559279000" lon="1.843239000">
        <ele>285.00</ele>
        <time>2013-05-09T10:32:10Z</time>
      </trkpt>
      <trkpt lat="41.559080000" lon="1.843311000">
        <ele>283.40</ele>
        <time>2013-05-09T10:32:14Z</time>
      </trkpt>
      <trkpt lat="41.558859000" lon="1.843383000">
        <ele>282.50</ele>
        <time>2013-05-09T10:32:18Z</time>
      </trkpt>
      <trkpt lat="41.558625000" lon="1.843455000">
        <ele>281.10</ele>
        <time>2013-05-09T10:32:22Z</time>
      </trkpt>
      <trkpt lat="41.558437000" lon="1.843513000">
        <ele>280.30</ele>
        <time>2013-05-09T10:32:25Z</time>
      </trkpt>
      <trkpt lat="41.558240000" lon="1.843528000">
        <ele>279.80</ele>
        <time>2013-05-09T10:32:28Z</time>
      </trkpt>
      <trkpt lat="41.558037000" lon="1.843510000">
        <ele>278.10</ele>
        <time>2013-05-09T10:32:31Z</time>
      </trkpt>
      <trkpt lat="41.557809000" lon="1.843458000">
        <ele>275.70</ele>
        <time>2013-05-09T10:32:34Z</time>
      </trkpt>
      <trkpt lat="41.557570000" lon="1.843412000">
        <ele>274.30</ele>
        <time>2013-05-09T10:32:37Z</time>
      </trkpt>
      <trkpt lat="41.557373000" lon="1.843497000">
        <ele>273.10</ele>
        <time>2013-05-09T10:32:40Z</time>
      </trkpt>
      <trkpt lat="41.557206000" lon="1.843705000">
        <ele>271.10</ele>
        <time>2013-05-09T10:32:43Z</time>
      </trkpt>
      <trkpt lat="41.557027000" lon="1.843900000">
        <ele>268.70</ele>
        <time>2013-05-09T10:32:46Z</time>
      </trkpt>
      <trkpt lat="41.556810000" lon="1.844115000">
        <ele>265.10</ele>
        <time>2013-05-09T10:32:49Z</time>
      </trkpt>
      <trkpt lat="41.556655000" lon="1.844284000">
        <ele>263.00</ele>
        <time>2013-05-09T10:32:51Z</time>
      </trkpt>
      <trkpt lat="41.556513000" lon="1.844471000">
        <ele>262.00</ele>
        <time>2013-05-09T10:32:53Z</time>
      </trkpt>
      <trkpt lat="41.556378000" lon="1.844655000">
        <ele>260.10</ele>
        <time>2013-05-09T10:32:55Z</time>
      </trkpt>
      <trkpt lat="41.556244000" lon="1.844838000">
        <ele>257.70</ele>
        <time>2013-05-09T10:32:57Z</time>
      </trkpt>
      <trkpt lat="41.556029000" lon="1.845000000">
        <ele>256.10</ele>
        <time>2013-05-09T10:33:00Z</time>
      </trkpt>
      <trkpt lat="41.555807000" lon="1.845010000">
        <ele>254.60</ele>
        <time>2013-05-09T10:33:03Z</time>
      </trkpt>
      <trkpt lat="41.555589000" lon="1.844941000">
        <ele>253.50</ele>
        <time>2013-05-09T10:33:06Z</time>
      </trkpt>
      <trkpt lat="41.555373000" lon="1.844915000">
        <ele>253.20</ele>
        <time>2013-05-09T10:33:09Z</time>
      </trkpt>
      <trkpt lat="41.555171000" lon="1.844976000">
        <ele>252.90</ele>
        <time>2013-05-09T10:33:12Z</time>
      </trkpt>
      <trkpt lat="41.554973000" lon="1.845038000">
        <ele>252.30</ele>
        <time>2013-05-09T10:33:15Z</time>
      </trkpt>
      <trkpt lat="41.554787000" lon="1.845089000">
        <ele>251.90</ele>
        <time>2013-05-09T10:33:18Z</time>
      </trkpt>
      <trkpt lat="41.554630000" lon="1.845285000">
        <ele>250.60</ele>
        <time>2013-05-09T10:33:22Z</time>
      </trkpt>
      <trkpt lat="41.554499000" lon="1.845522000">
        <ele>249.70</ele>
        <time>2013-05-09T10:33:26Z</time>
      </trkpt>
      <trkpt lat="41.554414000" lon="1.845790000">
        <ele>248.70</ele>
        <time>2013-05-09T10:33:30Z</time>
      </trkpt>
      <trkpt lat="41.554333000" lon="1.846062000">
        <ele>247.60</ele>
        <time>2013-05-09T10:33:34Z</time>
      </trkpt>
      <trkpt lat="41.554190000" lon="1.846281000">
        <ele>246.30</ele>
        <time>2013-05-09T10:33:38Z</time>
      </trkpt>
      <trkpt lat="41.554011000" lon="1.846450000">
        <ele>246.20</ele>
        <time>2013-05-09T10:33:42Z</time>
      </trkpt>
      <trkpt lat="41.553849000" lon="1.846627000">
        <ele>245.30</ele>
        <time>2013-05-09T10:33:46Z</time>
      </trkpt>
      <trkpt lat="41.553672000" lon="1.846633000">
        <ele>245.30</ele>
        <time>2013-05-09T10:33:51Z</time>
      </trkpt>
      <trkpt lat="41.553666000" lon="1.846380000">
        <ele>245.50</ele>
        <time>2013-05-09T10:33:56Z</time>
      </trkpt>
      <trkpt lat="41.553668000" lon="1.846099000">
        <ele>245.60</ele>
        <time>2013-05-09T10:34:01Z</time>
      </trkpt>
      <trkpt lat="41.553670000" lon="1.845886000">
        <ele>245.60</ele>
        <time>2013-05-09T10:34:05Z</time>
      </trkpt>
      <trkpt lat="41.553698000" lon="1.845420000">
        <ele>246.60</ele>
        <time>2013-05-09T10:34:15Z</time>
      </trkpt>
      <trkpt lat="41.553747000" lon="1.845131000">
        <ele>248.70</ele>
        <time>2013-05-09T10:34:23Z</time>
      </trkpt>
      <trkpt lat="41.553783000" lon="1.844892000">
        <ele>249.50</ele>
        <time>2013-05-09T10:34:29Z</time>
      </trkpt>
      <trkpt lat="41.553819000" lon="1.844638000">
        <ele>250.00</ele>
        <time>2013-05-09T10:34:35Z</time>
      </trkpt>
      <trkpt lat="41.553853000" lon="1.844375000">
        <ele>250.60</ele>
        <time>2013-05-09T10:34:41Z</time>
      </trkpt>
      <trkpt lat="41.553893000" lon="1.844110000">
        <ele>251.40</ele>
        <time>2013-05-09T10:34:47Z</time>
      </trkpt>
      <trkpt lat="41.553966000" lon="1.843849000">
        <ele>252.20</ele>
        <time>2013-05-09T10:34:53Z</time>
      </trkpt>
      <trkpt lat="41.554088000" lon="1.843626000">
        <ele>252.80</ele>
        <time>2013-05-09T10:34:59Z</time>
      </trkpt>
      <trkpt lat="41.554182000" lon="1.843382000">
        <ele>253.30</ele>
        <time>2013-05-09T10:35:05Z</time>
      </trkpt>
      <trkpt lat="41.554283000" lon="1.843127000">
        <ele>253.90</ele>
        <time>2013-05-09T10:35:11Z</time>
      </trkpt>
      <trkpt lat="41.554400000" lon="1.842937000">
        <ele>253.90</ele>
        <time>2013-05-09T10:35:16Z</time>
      </trkpt>
      <trkpt lat="41.554507000" lon="1.842744000">
        <ele>254.70</ele>
        <time>2013-05-09T10:35:21Z</time>
      </trkpt>
      <trkpt lat="41.554597000" lon="1.842527000">
        <ele>255.00</ele>
        <time>2013-05-09T10:35:26Z</time>
      </trkpt>
      <trkpt lat="41.554688000" lon="1.842319000">
        <ele>255.70</ele>
        <time>2013-05-09T10:35:31Z</time>
      </trkpt>
      <trkpt lat="41.554795000" lon="1.842081000">
        <ele>256.80</ele>
        <time>2013-05-09T10:35:38Z</time>
      </trkpt>
      <trkpt lat="41.554897000" lon="1.841842000">
        <ele>257.20</ele>
        <time>2013-05-09T10:35:45Z</time>
      </trkpt>
      <trkpt lat="41.554999000" lon="1.841607000">
        <ele>257.70</ele>
        <time>2013-05-09T10:35:51Z</time>
      </trkpt>
      <trkpt lat="41.555101000" lon="1.841367000">
        <ele>258.70</ele>
        <time>2013-05-09T10:35:57Z</time>
      </trkpt>
      <trkpt lat="41.555196000" lon="1.841138000">
        <ele>259.70</ele>
        <time>2013-05-09T10:36:03Z</time>
      </trkpt>
      <trkpt lat="41.555310000" lon="1.840930000">
        <ele>260.60</ele>
        <time>2013-05-09T10:36:09Z</time>
      </trkpt>
      <trkpt lat="41.555425000" lon="1.840740000">
        <ele>262.00</ele>
        <time>2013-05-09T10:36:15Z</time>
      </trkpt>
      <trkpt lat="41.555543000" lon="1.840550000">
        <ele>263.10</ele>
        <time>2013-05-09T10:36:21Z</time>
      </trkpt>
      <trkpt lat="41.555665000" lon="1.840352000">
        <ele>263.70</ele>
        <time>2013-05-09T10:36:27Z</time>
      </trkpt>
      <trkpt lat="41.555792000" lon="1.840153000">
        <ele>264.80</ele>
        <time>2013-05-09T10:36:33Z</time>
      </trkpt>
      <trkpt lat="41.555923000" lon="1.839957000">
        <ele>265.80</ele>
        <time>2013-05-09T10:36:39Z</time>
      </trkpt>
      <trkpt lat="41.556052000" lon="1.839756000">
        <ele>266.70</ele>
        <time>2013-05-09T10:36:45Z</time>
      </trkpt>
      <trkpt lat="41.556190000" lon="1.839562000">
        <ele>267.60</ele>
        <time>2013-05-09T10:36:51Z</time>
      </trkpt>
      <trkpt lat="41.556323000" lon="1.839376000">
        <ele>268.40</ele>
        <time>2013-05-09T10:36:57Z</time>
      </trkpt>
      <trkpt lat="41.556477000" lon="1.839190000">
        <ele>269.70</ele>
        <time>2013-05-09T10:37:04Z</time>
      </trkpt>
      <trkpt lat="41.556607000" lon="1.839023000">
        <ele>271.10</ele>
        <time>2013-05-09T10:37:12Z</time>
      </trkpt>
      <trkpt lat="41.556750000" lon="1.838844000">
        <ele>271.90</ele>
        <time>2013-05-09T10:37:20Z</time>
      </trkpt>
      <trkpt lat="41.556906000" lon="1.838683000">
        <ele>272.80</ele>
        <time>2013-05-09T10:37:27Z</time>
      </trkpt>
      <trkpt lat="41.557053000" lon="1.838541000">
        <ele>273.90</ele>
        <time>2013-05-09T10:37:33Z</time>
      </trkpt>
      <trkpt lat="41.557226000" lon="1.838388000">
        <ele>275.00</ele>
        <time>2013-05-09T10:37:40Z</time>
      </trkpt>
      <trkpt lat="41.557388000" lon="1.838273000">
        <ele>275.70</ele>
        <time>2013-05-09T10:37:46Z</time>
      </trkpt>
      <trkpt lat="41.557543000" lon="1.838126000">
        <ele>276.40</ele>
        <time>2013-05-09T10:37:52Z</time>
      </trkpt>
      <trkpt lat="41.557673000" lon="1.837936000">
        <ele>277.30</ele>
        <time>2013-05-09T10:38:01Z</time>
      </trkpt>
      <trkpt lat="41.557654000" lon="1.838088000">
        <ele>276.70</ele>
        <time>2013-05-09T10:38:11Z</time>
      </trkpt>
      <trkpt lat="41.557813000" lon="1.837917000">
        <ele>277.10</ele>
        <time>2013-05-09T10:38:19Z</time>
      </trkpt>
      <trkpt lat="41.557971000" lon="1.837763000">
        <ele>278.40</ele>
        <time>2013-05-09T10:38:27Z</time>
      </trkpt>
      <trkpt lat="41.558148000" lon="1.837646000">
        <ele>279.50</ele>
        <time>2013-05-09T10:38:35Z</time>
      </trkpt>
      <trkpt lat="41.558337000" lon="1.837539000">
        <ele>279.00</ele>
        <time>2013-05-09T10:38:41Z</time>
      </trkpt>
      <trkpt lat="41.558469000" lon="1.837350000">
        <ele>281.00</ele>
        <time>2013-05-09T10:38:47Z</time>
      </trkpt>
      <trkpt lat="41.558565000" lon="1.837119000">
        <ele>282.90</ele>
        <time>2013-05-09T10:38:54Z</time>
      </trkpt>
      <trkpt lat="41.558728000" lon="1.836954000">
        <ele>283.20</ele>
        <time>2013-05-09T10:39:01Z</time>
      </trkpt>
      <trkpt lat="41.558938000" lon="1.836906000">
        <ele>281.50</ele>
        <time>2013-05-09T10:39:06Z</time>
      </trkpt>
      <trkpt lat="41.559148000" lon="1.836838000">
        <ele>281.90</ele>
        <time>2013-05-09T10:39:11Z</time>
      </trkpt>
      <trkpt lat="41.559315000" lon="1.836695000">
        <ele>284.80</ele>
        <time>2013-05-09T10:39:18Z</time>
      </trkpt>
      <trkpt lat="41.559469000" lon="1.836542000">
        <ele>287.40</ele>
        <time>2013-05-09T10:39:26Z</time>
      </trkpt>
      <trkpt lat="41.559602000" lon="1.836349000">
        <ele>288.70</ele>
        <time>2013-05-09T10:39:34Z</time>
      </trkpt>
      <trkpt lat="41.559681000" lon="1.836113000">
        <ele>290.30</ele>
        <time>2013-05-09T10:39:42Z</time>
      </trkpt>
      <trkpt lat="41.559778000" lon="1.835890000">
        <ele>291.60</ele>
        <time>2013-05-09T10:39:50Z</time>
      </trkpt>
      <trkpt lat="41.559896000" lon="1.835675000">
        <ele>293.30</ele>
        <time>2013-05-09T10:39:59Z</time>
      </trkpt>
      <trkpt lat="41.560040000" lon="1.835665000">
        <ele>294.00</ele>
        <time>2013-05-09T10:40:06Z</time>
      </trkpt>
      <trkpt lat="41.560190000" lon="1.835851000">
        <ele>293.90</ele>
        <time>2013-05-09T10:40:12Z</time>
      </trkpt>
      <trkpt lat="41.560335000" lon="1.836067000">
        <ele>293.60</ele>
        <time>2013-05-09T10:40:18Z</time>
      </trkpt>
      <trkpt lat="41.560464000" lon="1.836233000">
        <ele>294.10</ele>
        <time>2013-05-09T10:40:23Z</time>
      </trkpt>
      <trkpt lat="41.560585000" lon="1.836420000">
        <ele>293.60</ele>
        <time>2013-05-09T10:40:28Z</time>
      </trkpt>
      <trkpt lat="41.560743000" lon="1.836624000">
        <ele>293.30</ele>
        <time>2013-05-09T10:40:33Z</time>
      </trkpt>
      <trkpt lat="41.560907000" lon="1.836751000">
        <ele>293.90</ele>
        <time>2013-05-09T10:40:39Z</time>
      </trkpt>
      <trkpt lat="41.561101000" lon="1.836681000">
        <ele>295.00</ele>
        <time>2013-05-09T10:40:45Z</time>
      </trkpt>
      <trkpt lat="41.561246000" lon="1.836517000">
        <ele>296.50</ele>
        <time>2013-05-09T10:40:51Z</time>
      </trkpt>
      <trkpt lat="41.561366000" lon="1.836306000">
        <ele>298.00</ele>
        <time>2013-05-09T10:40:57Z</time>
      </trkpt>
      <trkpt lat="41.561469000" lon="1.836094000">
        <ele>299.40</ele>
        <time>2013-05-09T10:41:03Z</time>
      </trkpt>
      <trkpt lat="41.561568000" lon="1.835881000">
        <ele>300.80</ele>
        <time>2013-05-09T10:41:09Z</time>
      </trkpt>
      <trkpt lat="41.561676000" lon="1.835675000">
        <ele>301.80</ele>
        <time>2013-05-09T10:41:15Z</time>
      </trkpt>
      <trkpt lat="41.561780000" lon="1.835471000">
        <ele>303.40</ele>
        <time>2013-05-09T10:41:21Z</time>
      </trkpt>
      <trkpt lat="41.561846000" lon="1.835236000">
        <ele>304.40</ele>
        <time>2013-05-09T10:41:27Z</time>
      </trkpt>
      <trkpt lat="41.561921000" lon="1.834977000">
        <ele>304.90</ele>
        <time>2013-05-09T10:41:33Z</time>
      </trkpt>
      <trkpt lat="41.562010000" lon="1.834739000">
        <ele>305.90</ele>
        <time>2013-05-09T10:41:39Z</time>
      </trkpt>
      <trkpt lat="41.562101000" lon="1.834528000">
        <ele>307.50</ele>
        <time>2013-05-09T10:41:45Z</time>
      </trkpt>
      <trkpt lat="41.562208000" lon="1.834310000">
        <ele>309.10</ele>
        <time>2013-05-09T10:41:52Z</time>
      </trkpt>
      <trkpt lat="41.562309000" lon="1.834077000">
        <ele>311.00</ele>
        <time>2013-05-09T10:41:59Z</time>
      </trkpt>
      <trkpt lat="41.562394000" lon="1.833856000">
        <ele>312.00</ele>
        <time>2013-05-09T10:42:05Z</time>
      </trkpt>
      <trkpt lat="41.562440000" lon="1.833623000">
        <ele>313.50</ele>
        <time>2013-05-09T10:42:11Z</time>
      </trkpt>
      <trkpt lat="41.562464000" lon="1.833383000">
        <ele>314.50</ele>
        <time>2013-05-09T10:42:17Z</time>
      </trkpt>
      <trkpt lat="41.562521000" lon="1.833119000">
        <ele>316.10</ele>
        <time>2013-05-09T10:42:24Z</time>
      </trkpt>
      <trkpt lat="41.562568000" lon="1.832838000">
        <ele>317.30</ele>
        <time>2013-05-09T10:42:31Z</time>
      </trkpt>
      <trkpt lat="41.562629000" lon="1.832597000">
        <ele>318.90</ele>
        <time>2013-05-09T10:42:39Z</time>
      </trkpt>
      <trkpt lat="41.562793000" lon="1.832509000">
        <ele>319.80</ele>
        <time>2013-05-09T10:43:36Z</time>
      </trkpt>
      <trkpt lat="41.562988000" lon="1.832440000">
        <ele>320.60</ele>
        <time>2013-05-09T10:43:43Z</time>
      </trkpt>
      <trkpt lat="41.563176000" lon="1.832423000">
        <ele>320.80</ele>
        <time>2013-05-09T10:43:49Z</time>
      </trkpt>
      <trkpt lat="41.563371000" lon="1.832417000">
        <ele>322.00</ele>
        <time>2013-05-09T10:43:55Z</time>
      </trkpt>
      <trkpt lat="41.563556000" lon="1.832389000">
        <ele>322.80</ele>
        <time>2013-05-09T10:44:01Z</time>
      </trkpt>
      <trkpt lat="41.563757000" lon="1.832341000">
        <ele>324.60</ele>
        <time>2013-05-09T10:44:08Z</time>
      </trkpt>
      <trkpt lat="41.563919000" lon="1.832203000">
        <ele>325.60</ele>
        <time>2013-05-09T10:44:15Z</time>
      </trkpt>
      <trkpt lat="41.564062000" lon="1.832033000">
        <ele>327.70</ele>
        <time>2013-05-09T10:44:22Z</time>
      </trkpt>
      <trkpt lat="41.564210000" lon="1.831873000">
        <ele>329.50</ele>
        <time>2013-05-09T10:44:30Z</time>
      </trkpt>
      <trkpt lat="41.564366000" lon="1.831728000">
        <ele>331.60</ele>
        <time>2013-05-09T10:44:38Z</time>
      </trkpt>
      <trkpt lat="41.564381000" lon="1.831537000">
        <ele>332.90</ele>
        <time>2013-05-09T10:44:47Z</time>
      </trkpt>
      <trkpt lat="41.564190000" lon="1.831528000">
        <ele>331.10</ele>
        <time>2013-05-09T10:44:53Z</time>
      </trkpt>
      <trkpt lat="41.563987000" lon="1.831586000">
        <ele>329.50</ele>
        <time>2013-05-09T10:44:58Z</time>
      </trkpt>
      <trkpt lat="41.563766000" lon="1.831611000">
        <ele>327.10</ele>
        <time>2013-05-09T10:45:02Z</time>
      </trkpt>
      <trkpt lat="41.563562000" lon="1.831620000">
        <ele>325.30</ele>
        <time>2013-05-09T10:45:05Z</time>
      </trkpt>
      <trkpt lat="41.563342000" lon="1.831603000">
        <ele>324.20</ele>
        <time>2013-05-09T10:45:08Z</time>
      </trkpt>
      <trkpt lat="41.563113000" lon="1.831560000">
        <ele>323.10</ele>
        <time>2013-05-09T10:45:11Z</time>
      </trkpt>
      <trkpt lat="41.562882000" lon="1.831478000">
        <ele>321.70</ele>
        <time>2013-05-09T10:45:14Z</time>
      </trkpt>
      <trkpt lat="41.562638000" lon="1.831360000">
        <ele>319.10</ele>
        <time>2013-05-09T10:45:17Z</time>
      </trkpt>
      <trkpt lat="41.562458000" lon="1.831267000">
        <ele>316.60</ele>
        <time>2013-05-09T10:45:19Z</time>
      </trkpt>
      <trkpt lat="41.562261000" lon="1.831159000">
        <ele>314.40</ele>
        <time>2013-05-09T10:45:21Z</time>
      </trkpt>
      <trkpt lat="41.562049000" lon="1.831050000">
        <ele>310.50</ele>
        <time>2013-05-09T10:45:23Z</time>
      </trkpt>
      <trkpt lat="41.561823000" lon="1.830921000">
        <ele>306.20</ele>
        <time>2013-05-09T10:45:25Z</time>
      </trkpt>
      <trkpt lat="41.561607000" lon="1.830769000">
        <ele>303.20</ele>
        <time>2013-05-09T10:45:27Z</time>
      </trkpt>
      <trkpt lat="41.561437000" lon="1.830589000">
        <ele>302.50</ele>
        <time>2013-05-09T10:45:29Z</time>
      </trkpt>
      <trkpt lat="41.561206000" lon="1.830524000">
        <ele>302.70</ele>
        <time>2013-05-09T10:45:31Z</time>
      </trkpt>
      <trkpt lat="41.560978000" lon="1.830387000">
        <ele>303.70</ele>
        <time>2013-05-09T10:45:33Z</time>
      </trkpt>
      <trkpt lat="41.560793000" lon="1.830289000">
        <ele>304.10</ele>
        <time>2013-05-09T10:45:35Z</time>
      </trkpt>
      <trkpt lat="41.560560000" lon="1.830199000">
        <ele>305.30</ele>
        <time>2013-05-09T10:45:38Z</time>
      </trkpt>
      <trkpt lat="41.560407000" lon="1.830304000">
        <ele>306.70</ele>
        <time>2013-05-09T10:45:42Z</time>
      </trkpt>
      <trkpt lat="41.560281000" lon="1.830512000">
        <ele>305.30</ele>
        <time>2013-05-09T10:45:48Z</time>
      </trkpt>
      <trkpt lat="41.560100000" lon="1.830599000">
        <ele>302.90</ele>
        <time>2013-05-09T10:45:52Z</time>
      </trkpt>
      <trkpt lat="41.559879000" lon="1.830697000">
        <ele>301.20</ele>
        <time>2013-05-09T10:45:56Z</time>
      </trkpt>
      <trkpt lat="41.559643000" lon="1.830792000">
        <ele>299.80</ele>
        <time>2013-05-09T10:46:00Z</time>
      </trkpt>
      <trkpt lat="41.559443000" lon="1.830825000">
        <ele>297.20</ele>
        <time>2013-05-09T10:46:03Z</time>
      </trkpt>
      <trkpt lat="41.559225000" lon="1.830840000">
        <ele>295.10</ele>
        <time>2013-05-09T10:46:06Z</time>
      </trkpt>
      <trkpt lat="41.559005000" lon="1.830866000">
        <ele>293.00</ele>
        <time>2013-05-09T10:46:09Z</time>
      </trkpt>
      <trkpt lat="41.558799000" lon="1.830809000">
        <ele>291.20</ele>
        <time>2013-05-09T10:46:12Z</time>
      </trkpt>
      <trkpt lat="41.558670000" lon="1.830619000">
        <ele>290.80</ele>
        <time>2013-05-09T10:46:15Z</time>
      </trkpt>
      <trkpt lat="41.558514000" lon="1.830467000">
        <ele>288.60</ele>
        <time>2013-05-09T10:46:18Z</time>
      </trkpt>
      <trkpt lat="41.558306000" lon="1.830349000">
        <ele>287.30</ele>
        <time>2013-05-09T10:46:21Z</time>
      </trkpt>
      <trkpt lat="41.558179000" lon="1.830170000">
        <ele>286.50</ele>
        <time>2013-05-09T10:46:24Z</time>
      </trkpt>
      <trkpt lat="41.558196000" lon="1.829869000">
        <ele>285.60</ele>
        <time>2013-05-09T10:46:28Z</time>
      </trkpt>
      <trkpt lat="41.558176000" lon="1.829617000">
        <ele>286.10</ele>
        <time>2013-05-09T10:46:32Z</time>
      </trkpt>
      <trkpt lat="41.558170000" lon="1.829365000">
        <ele>287.10</ele>
        <time>2013-05-09T10:46:37Z</time>
      </trkpt>
      <trkpt lat="41.558225000" lon="1.829113000">
        <ele>289.10</ele>
        <time>2013-05-09T10:46:43Z</time>
      </trkpt>
      <trkpt lat="41.558283000" lon="1.828883000">
        <ele>291.10</ele>
        <time>2013-05-09T10:46:50Z</time>
      </trkpt>
      <trkpt lat="41.558351000" lon="1.828658000">
        <ele>292.70</ele>
        <time>2013-05-09T10:46:57Z</time>
      </trkpt>
      <trkpt lat="41.558289000" lon="1.828401000">
        <ele>293.80</ele>
        <time>2013-05-09T10:47:05Z</time>
      </trkpt>
      <trkpt lat="41.558125000" lon="1.828317000">
        <ele>294.00</ele>
        <time>2013-05-09T10:47:11Z</time>
      </trkpt>
      <trkpt lat="41.557944000" lon="1.828227000">
        <ele>294.50</ele>
        <time>2013-05-09T10:47:17Z</time>
      </trkpt>
      <trkpt lat="41.557772000" lon="1.828142000">
        <ele>296.10</ele>
        <time>2013-05-09T10:47:23Z</time>
      </trkpt>
      <trkpt lat="41.557583000" lon="1.828048000">
        <ele>298.40</ele>
        <time>2013-05-09T10:47:31Z</time>
      </trkpt>
      <trkpt lat="41.557398000" lon="1.827967000">
        <ele>299.40</ele>
        <time>2013-05-09T10:47:39Z</time>
      </trkpt>
      <trkpt lat="41.557226000" lon="1.827825000">
        <ele>299.50</ele>
        <time>2013-05-09T10:47:46Z</time>
      </trkpt>
      <trkpt lat="41.557057000" lon="1.827656000">
        <ele>299.50</ele>
        <time>2013-05-09T10:47:52Z</time>
      </trkpt>
      <trkpt lat="41.556906000" lon="1.827503000">
        <ele>299.50</ele>
        <time>2013-05-09T10:47:57Z</time>
      </trkpt>
      <trkpt lat="41.556754000" lon="1.827351000">
        <ele>299.70</ele>
        <time>2013-05-09T10:48:02Z</time>
      </trkpt>
      <trkpt lat="41.556646000" lon="1.827143000">
        <ele>299.80</ele>
        <time>2013-05-09T10:48:07Z</time>
      </trkpt>
      <trkpt lat="41.556552000" lon="1.826923000">
        <ele>300.10</ele>
        <time>2013-05-09T10:48:12Z</time>
      </trkpt>
      <trkpt lat="41.556444000" lon="1.826723000">
        <ele>300.30</ele>
        <time>2013-05-09T10:48:17Z</time>
      </trkpt>
      <trkpt lat="41.556318000" lon="1.826525000">
        <ele>300.70</ele>
        <time>2013-05-09T10:48:22Z</time>
      </trkpt>
      <trkpt lat="41.556184000" lon="1.826348000">
        <ele>301.30</ele>
        <time>2013-05-09T10:48:27Z</time>
      </trkpt>
      <trkpt lat="41.556060000" lon="1.826183000">
        <ele>301.80</ele>
        <time>2013-05-09T10:48:32Z</time>
      </trkpt>
      <trkpt lat="41.555916000" lon="1.826002000">
        <ele>303.30</ele>
        <time>2013-05-09T10:48:38Z</time>
      </trkpt>
      <trkpt lat="41.555766000" lon="1.825821000">
        <ele>305.30</ele>
        <time>2013-05-09T10:48:45Z</time>
      </trkpt>
      <trkpt lat="41.555578000" lon="1.825784000">
        <ele>307.30</ele>
        <time>2013-05-09T10:48:52Z</time>
      </trkpt>
      <trkpt lat="41.555393000" lon="1.825929000">
        <ele>307.60</ele>
        <time>2013-05-09T10:48:59Z</time>
      </trkpt>
      <trkpt lat="41.555224000" lon="1.826067000">
        <ele>307.70</ele>
        <time>2013-05-09T10:49:05Z</time>
      </trkpt>
      <trkpt lat="41.555042000" lon="1.826222000">
        <ele>308.00</ele>
        <time>2013-05-09T10:49:11Z</time>
      </trkpt>
      <trkpt lat="41.554880000" lon="1.826354000">
        <ele>307.90</ele>
        <time>2013-05-09T10:49:16Z</time>
      </trkpt>
      <trkpt lat="41.554722000" lon="1.826470000">
        <ele>308.10</ele>
        <time>2013-05-09T10:49:21Z</time>
      </trkpt>
      <trkpt lat="41.554527000" lon="1.826549000">
        <ele>309.10</ele>
        <time>2013-05-09T10:49:27Z</time>
      </trkpt>
      <trkpt lat="41.554354000" lon="1.826402000">
        <ele>309.50</ele>
        <time>2013-05-09T10:49:33Z</time>
      </trkpt>
      <trkpt lat="41.554287000" lon="1.826165000">
        <ele>309.30</ele>
        <time>2013-05-09T10:49:38Z</time>
      </trkpt>
      <trkpt lat="41.554378000" lon="1.825908000">
        <ele>308.80</ele>
        <time>2013-05-09T10:49:43Z</time>
      </trkpt>
      <trkpt lat="41.554476000" lon="1.825657000">
        <ele>308.70</ele>
        <time>2013-05-09T10:49:48Z</time>
      </trkpt>
      <trkpt lat="41.554516000" lon="1.825384000">
        <ele>308.50</ele>
        <time>2013-05-09T10:49:53Z</time>
      </trkpt>
      <trkpt lat="41.554525000" lon="1.825114000">
        <ele>307.80</ele>
        <time>2013-05-09T10:49:58Z</time>
      </trkpt>
      <trkpt lat="41.554387000" lon="1.824981000">
        <ele>307.30</ele>
        <time>2013-05-09T10:50:02Z</time>
      </trkpt>
      <trkpt lat="41.554165000" lon="1.825047000">
        <ele>307.00</ele>
        <time>2013-05-09T10:50:07Z</time>
      </trkpt>
      <trkpt lat="41.553989000" lon="1.825146000">
        <ele>306.50</ele>
        <time>2013-05-09T10:50:11Z</time>
      </trkpt>
      <trkpt lat="41.553814000" lon="1.825261000">
        <ele>306.60</ele>
        <time>2013-05-09T10:50:15Z</time>
      </trkpt>
      <trkpt lat="41.553661000" lon="1.825409000">
        <ele>305.70</ele>
        <time>2013-05-09T10:50:19Z</time>
      </trkpt>
      <trkpt lat="41.553504000" lon="1.825575000">
        <ele>305.50</ele>
        <time>2013-05-09T10:50:23Z</time>
      </trkpt>
      <trkpt lat="41.553357000" lon="1.825769000">
        <ele>305.00</ele>
        <time>2013-05-09T10:50:27Z</time>
      </trkpt>
      <trkpt lat="41.553193000" lon="1.825909000">
        <ele>304.90</ele>
        <time>2013-05-09T10:50:31Z</time>
      </trkpt>
      <trkpt lat="41.553025000" lon="1.825906000">
        <ele>304.20</ele>
        <time>2013-05-09T10:50:36Z</time>
      </trkpt>
      <trkpt lat="41.552901000" lon="1.825659000">
        <ele>303.10</ele>
        <time>2013-05-09T10:50:41Z</time>
      </trkpt>
      <trkpt lat="41.552854000" lon="1.825361000">
        <ele>303.10</ele>
        <time>2013-05-09T10:50:46Z</time>
      </trkpt>
      <trkpt lat="41.552848000" lon="1.825089000">
        <ele>302.60</ele>
        <time>2013-05-09T10:50:50Z</time>
      </trkpt>
      <trkpt lat="41.552891000" lon="1.824819000">
        <ele>302.40</ele>
        <time>2013-05-09T10:50:54Z</time>
      </trkpt>
      <trkpt lat="41.552945000" lon="1.824583000">
        <ele>301.90</ele>
        <time>2013-05-09T10:50:58Z</time>
      </trkpt>
      <trkpt lat="41.552988000" lon="1.824283000">
        <ele>301.90</ele>
        <time>2013-05-09T10:51:03Z</time>
      </trkpt>
      <trkpt lat="41.552797000" lon="1.824190000">
        <ele>301.60</ele>
        <time>2013-05-09T10:51:08Z</time>
      </trkpt>
      <trkpt lat="41.552612000" lon="1.824346000">
        <ele>302.00</ele>
        <time>2013-05-09T10:51:13Z</time>
      </trkpt>
      <trkpt lat="41.552457000" lon="1.824491000">
        <ele>301.80</ele>
        <time>2013-05-09T10:51:17Z</time>
      </trkpt>
      <trkpt lat="41.552285000" lon="1.824618000">
        <ele>301.40</ele>
        <time>2013-05-09T10:51:21Z</time>
      </trkpt>
      <trkpt lat="41.552096000" lon="1.824757000">
        <ele>300.40</ele>
        <time>2013-05-09T10:51:25Z</time>
      </trkpt>
      <trkpt lat="41.551894000" lon="1.824887000">
        <ele>299.80</ele>
        <time>2013-05-09T10:51:29Z</time>
      </trkpt>
      <trkpt lat="41.551690000" lon="1.825038000">
        <ele>299.10</ele>
        <time>2013-05-09T10:51:33Z</time>
      </trkpt>
      <trkpt lat="41.551483000" lon="1.825186000">
        <ele>299.00</ele>
        <time>2013-05-09T10:51:37Z</time>
      </trkpt>
      <trkpt lat="41.551280000" lon="1.825322000">
        <ele>299.10</ele>
        <time>2013-05-09T10:51:41Z</time>
      </trkpt>
      <trkpt lat="41.551083000" lon="1.825460000">
        <ele>299.10</ele>
        <time>2013-05-09T10:51:45Z</time>
      </trkpt>
      <trkpt lat="41.550886000" lon="1.825612000">
        <ele>299.10</ele>
        <time>2013-05-09T10:51:49Z</time>
      </trkpt>
      <trkpt lat="41.550695000" lon="1.825756000">
        <ele>299.30</ele>
        <time>2013-05-09T10:51:53Z</time>
      </trkpt>
      <trkpt lat="41.550512000" lon="1.825894000">
        <ele>299.80</ele>
        <time>2013-05-09T10:51:57Z</time>
      </trkpt>
      <trkpt lat="41.550336000" lon="1.826011000">
        <ele>299.80</ele>
        <time>2013-05-09T10:52:01Z</time>
      </trkpt>
      <trkpt lat="41.550165000" lon="1.826063000">
        <ele>299.90</ele>
        <time>2013-05-09T10:52:05Z</time>
      </trkpt>
      <trkpt lat="41.550024000" lon="1.825861000">
        <ele>298.20</ele>
        <time>2013-05-09T10:52:09Z</time>
      </trkpt>
      <trkpt lat="41.549995000" lon="1.825618000">
        <ele>297.10</ele>
        <time>2013-05-09T10:52:12Z</time>
      </trkpt>
      <trkpt lat="41.550050000" lon="1.825358000">
        <ele>295.70</ele>
        <time>2013-05-09T10:52:15Z</time>
      </trkpt>
      <trkpt lat="41.550121000" lon="1.825098000">
        <ele>294.50</ele>
        <time>2013-05-09T10:52:18Z</time>
      </trkpt>
      <trkpt lat="41.550232000" lon="1.824855000">
        <ele>294.60</ele>
        <time>2013-05-09T10:52:21Z</time>
      </trkpt>
      <trkpt lat="41.550300000" lon="1.824596000">
        <ele>293.90</ele>
        <time>2013-05-09T10:52:24Z</time>
      </trkpt>
      <trkpt lat="41.550345000" lon="1.824346000">
        <ele>293.60</ele>
        <time>2013-05-09T10:52:27Z</time>
      </trkpt>
      <trkpt lat="41.550374000" lon="1.824095000">
        <ele>294.10</ele>
        <time>2013-05-09T10:52:33Z</time>
      </trkpt>
      <trkpt lat="41.550262000" lon="1.823953000">
        <ele>293.70</ele>
        <time>2013-05-09T10:52:38Z</time>
      </trkpt>
      <trkpt lat="41.550104000" lon="1.824059000">
        <ele>294.70</ele>
        <time>2013-05-09T10:52:43Z</time>
      </trkpt>
      <trkpt lat="41.549957000" lon="1.824241000">
        <ele>295.90</ele>
        <time>2013-05-09T10:52:48Z</time>
      </trkpt>
      <trkpt lat="41.549835000" lon="1.824443000">
        <ele>296.10</ele>
        <time>2013-05-09T10:52:53Z</time>
      </trkpt>
      <trkpt lat="41.549667000" lon="1.824640000">
        <ele>295.30</ele>
        <time>2013-05-09T10:52:58Z</time>
      </trkpt>
      <trkpt lat="41.549518000" lon="1.824809000">
        <ele>295.00</ele>
        <time>2013-05-09T10:53:02Z</time>
      </trkpt>
      <trkpt lat="41.549352000" lon="1.824982000">
        <ele>294.40</ele>
        <time>2013-05-09T10:53:06Z</time>
      </trkpt>
      <trkpt lat="41.549166000" lon="1.825096000">
        <ele>293.90</ele>
        <time>2013-05-09T10:53:10Z</time>
      </trkpt>
      <trkpt lat="41.548978000" lon="1.825179000">
        <ele>293.00</ele>
        <time>2013-05-09T10:53:14Z</time>
      </trkpt>
      <trkpt lat="41.548783000" lon="1.825233000">
        <ele>292.10</ele>
        <time>2013-05-09T10:53:18Z</time>
      </trkpt>
      <trkpt lat="41.548630000" lon="1.825072000">
        <ele>289.90</ele>
        <time>2013-05-09T10:53:22Z</time>
      </trkpt>
      <trkpt lat="41.548597000" lon="1.824762000">
        <ele>287.50</ele>
        <time>2013-05-09T10:53:26Z</time>
      </trkpt>
      <trkpt lat="41.548597000" lon="1.824494000">
        <ele>286.30</ele>
        <time>2013-05-09T10:53:29Z</time>
      </trkpt>
      <trkpt lat="41.548581000" lon="1.824218000">
        <ele>284.80</ele>
        <time>2013-05-09T10:53:32Z</time>
      </trkpt>
      <trkpt lat="41.548544000" lon="1.823942000">
        <ele>284.80</ele>
        <time>2013-05-09T10:53:35Z</time>
      </trkpt>
      <trkpt lat="41.548501000" lon="1.823695000">
        <ele>285.00</ele>
        <time>2013-05-09T10:53:38Z</time>
      </trkpt>
      <trkpt lat="41.548356000" lon="1.823748000">
        <ele>285.10</ele>
        <time>2013-05-09T10:53:43Z</time>
      </trkpt>
      <trkpt lat="41.548328000" lon="1.823992000">
        <ele>285.40</ele>
        <time>2013-05-09T10:53:48Z</time>
      </trkpt>
      <trkpt lat="41.548251000" lon="1.824259000">
        <ele>285.50</ele>
        <time>2013-05-09T10:53:54Z</time>
      </trkpt>
      <trkpt lat="41.548129000" lon="1.824459000">
        <ele>285.40</ele>
        <time>2013-05-09T10:53:59Z</time>
      </trkpt>
      <trkpt lat="41.547983000" lon="1.824653000">
        <ele>285.40</ele>
        <time>2013-05-09T10:54:04Z</time>
      </trkpt>
      <trkpt lat="41.547833000" lon="1.824839000">
        <ele>285.50</ele>
        <time>2013-05-09T10:54:09Z</time>
      </trkpt>
      <trkpt lat="41.547697000" lon="1.825044000">
        <ele>285.90</ele>
        <time>2013-05-09T10:54:14Z</time>
      </trkpt>
      <trkpt lat="41.547569000" lon="1.825271000">
        <ele>286.50</ele>
        <time>2013-05-09T10:54:19Z</time>
      </trkpt>
      <trkpt lat="41.547436000" lon="1.825479000">
        <ele>286.50</ele>
        <time>2013-05-09T10:54:24Z</time>
      </trkpt>
      <trkpt lat="41.547244000" lon="1.825587000">
        <ele>287.10</ele>
        <time>2013-05-09T10:54:29Z</time>
      </trkpt>
      <trkpt lat="41.547037000" lon="1.825548000">
        <ele>288.80</ele>
        <time>2013-05-09T10:54:35Z</time>
      </trkpt>
      <trkpt lat="41.546846000" lon="1.825564000">
        <ele>290.30</ele>
        <time>2013-05-09T10:54:41Z</time>
      </trkpt>
      <trkpt lat="41.546650000" lon="1.825590000">
        <ele>291.40</ele>
        <time>2013-05-09T10:54:48Z</time>
      </trkpt>
      <trkpt lat="41.546483000" lon="1.825403000">
        <ele>288.30</ele>
        <time>2013-05-09T10:54:54Z</time>
      </trkpt>
      <trkpt lat="41.546273000" lon="1.825361000">
        <ele>285.30</ele>
        <time>2013-05-09T10:54:58Z</time>
      </trkpt>
      <trkpt lat="41.546088000" lon="1.825298000">
        <ele>284.10</ele>
        <time>2013-05-09T10:55:01Z</time>
      </trkpt>
      <trkpt lat="41.545874000" lon="1.825395000">
        <ele>285.10</ele>
        <time>2013-05-09T10:55:05Z</time>
      </trkpt>
      <trkpt lat="41.545759000" lon="1.825608000">
        <ele>285.80</ele>
        <time>2013-05-09T10:55:09Z</time>
      </trkpt>
      <trkpt lat="41.545747000" lon="1.825850000">
        <ele>285.50</ele>
        <time>2013-05-09T10:55:13Z</time>
      </trkpt>
      <trkpt lat="41.545824000" lon="1.826134000">
        <ele>283.60</ele>
        <time>2013-05-09T10:55:17Z</time>
      </trkpt>
      <trkpt lat="41.545970000" lon="1.826346000">
        <ele>282.00</ele>
        <time>2013-05-09T10:55:21Z</time>
      </trkpt>
      <trkpt lat="41.546074000" lon="1.826584000">
        <ele>278.30</ele>
        <time>2013-05-09T10:55:25Z</time>
      </trkpt>
      <trkpt lat="41.545969000" lon="1.826853000">
        <ele>276.90</ele>
        <time>2013-05-09T10:55:29Z</time>
      </trkpt>
      <trkpt lat="41.545811000" lon="1.827024000">
        <ele>277.00</ele>
        <time>2013-05-09T10:55:33Z</time>
      </trkpt>
      <trkpt lat="41.545679000" lon="1.827197000">
        <ele>274.70</ele>
        <time>2013-05-09T10:55:37Z</time>
      </trkpt>
      <trkpt lat="41.545476000" lon="1.827202000">
        <ele>271.20</ele>
        <time>2013-05-09T10:55:41Z</time>
      </trkpt>
      <trkpt lat="41.545273000" lon="1.827339000">
        <ele>268.20</ele>
        <time>2013-05-09T10:55:44Z</time>
      </trkpt>
      <trkpt lat="41.545157000" lon="1.827542000">
        <ele>269.30</ele>
        <time>2013-05-09T10:55:47Z</time>
      </trkpt>
      <trkpt lat="41.545145000" lon="1.827840000">
        <ele>268.30</ele>
        <time>2013-05-09T10:55:51Z</time>
      </trkpt>
      <trkpt lat="41.545061000" lon="1.828130000">
        <ele>266.20</ele>
        <time>2013-05-09T10:55:55Z</time>
      </trkpt>
      <trkpt lat="41.544875000" lon="1.828198000">
        <ele>266.50</ele>
        <time>2013-05-09T10:55:59Z</time>
      </trkpt>
      <trkpt lat="41.544676000" lon="1.828120000">
        <ele>269.70</ele>
        <time>2013-05-09T10:56:05Z</time>
      </trkpt>
      <trkpt lat="41.544475000" lon="1.828066000">
        <ele>272.50</ele>
        <time>2013-05-09T10:56:11Z</time>
      </trkpt>
      <trkpt lat="41.544286000" lon="1.828009000">
        <ele>274.80</ele>
        <time>2013-05-09T10:56:17Z</time>
      </trkpt>
      <trkpt lat="41.544113000" lon="1.827957000">
        <ele>277.30</ele>
        <time>2013-05-09T10:56:23Z</time>
      </trkpt>
      <trkpt lat="41.543918000" lon="1.827944000">
        <ele>280.50</ele>
        <time>2013-05-09T10:56:30Z</time>
      </trkpt>
      <trkpt lat="41.543732000" lon="1.827892000">
        <ele>283.20</ele>
        <time>2013-05-09T10:56:38Z</time>
      </trkpt>
      <trkpt lat="41.543596000" lon="1.828013000">
        <ele>285.30</ele>
        <time>2013-05-09T10:56:47Z</time>
      </trkpt>
      <trkpt lat="41.543482000" lon="1.828214000">
        <ele>286.00</ele>
        <time>2013-05-09T10:56:56Z</time>
      </trkpt>
      <trkpt lat="41.543435000" lon="1.828455000">
        <ele>288.20</ele>
        <time>2013-05-09T10:57:04Z</time>
      </trkpt>
      <trkpt lat="41.543383000" lon="1.828699000">
        <ele>288.80</ele>
        <time>2013-05-09T10:57:12Z</time>
      </trkpt>
      <trkpt lat="41.543280000" lon="1.828938000">
        <ele>290.60</ele>
        <time>2013-05-09T10:57:20Z</time>
      </trkpt>
      <trkpt lat="41.543166000" lon="1.829150000">
        <ele>292.50</ele>
        <time>2013-05-09T10:57:28Z</time>
      </trkpt>
      <trkpt lat="41.543090000" lon="1.829361000">
        <ele>293.20</ele>
        <time>2013-05-09T10:57:42Z</time>
      </trkpt>
      <trkpt lat="41.542968000" lon="1.829538000">
        <ele>286.00</ele>
        <time>2013-05-09T10:57:54Z</time>
      </trkpt>
      <trkpt lat="41.542878000" lon="1.829736000">
        <ele>278.50</ele>
        <time>2013-05-09T10:58:04Z</time>
      </trkpt>
      <trkpt lat="41.542896000" lon="1.829930000">
        <ele>277.80</ele>
        <time>2013-05-09T11:00:06Z</time>
      </trkpt>
      <trkpt lat="41.543073000" lon="1.830062000">
        <ele>277.90</ele>
        <time>2013-05-09T11:00:16Z</time>
      </trkpt>
      <trkpt lat="41.543113000" lon="1.830305000">
        <ele>276.70</ele>
        <time>2013-05-09T11:00:22Z</time>
      </trkpt>
      <trkpt lat="41.543064000" lon="1.830573000">
        <ele>275.80</ele>
        <time>2013-05-09T11:00:27Z</time>
      </trkpt>
      <trkpt lat="41.542996000" lon="1.830810000">
        <ele>276.10</ele>
        <time>2013-05-09T11:00:32Z</time>
      </trkpt>
      <trkpt lat="41.542895000" lon="1.831018000">
        <ele>276.80</ele>
        <time>2013-05-09T11:00:38Z</time>
      </trkpt>
      <trkpt lat="41.542720000" lon="1.831174000">
        <ele>276.70</ele>
        <time>2013-05-09T11:00:44Z</time>
      </trkpt>
      <trkpt lat="41.542609000" lon="1.831369000">
        <ele>277.00</ele>
        <time>2013-05-09T11:00:50Z</time>
      </trkpt>
      <trkpt lat="41.542657000" lon="1.831630000">
        <ele>277.00</ele>
        <time>2013-05-09T11:00:57Z</time>
      </trkpt>
      <trkpt lat="41.542687000" lon="1.831899000">
        <ele>277.00</ele>
        <time>2013-05-09T11:01:03Z</time>
      </trkpt>
      <trkpt lat="41.542599000" lon="1.832128000">
        <ele>276.50</ele>
        <time>2013-05-09T11:01:08Z</time>
      </trkpt>
      <trkpt lat="41.542529000" lon="1.832370000">
        <ele>275.60</ele>
        <time>2013-05-09T11:01:13Z</time>
      </trkpt>
      <trkpt lat="41.542628000" lon="1.832624000">
        <ele>274.30</ele>
        <time>2013-05-09T11:01:18Z</time>
      </trkpt>
      <trkpt lat="41.542737000" lon="1.832830000">
        <ele>273.20</ele>
        <time>2013-05-09T11:01:22Z</time>
      </trkpt>
      <trkpt lat="41.542814000" lon="1.833069000">
        <ele>271.90</ele>
        <time>2013-05-09T11:01:26Z</time>
      </trkpt>
      <trkpt lat="41.542874000" lon="1.833312000">
        <ele>271.00</ele>
        <time>2013-05-09T11:01:30Z</time>
      </trkpt>
      <trkpt lat="41.542941000" lon="1.833582000">
        <ele>269.60</ele>
        <time>2013-05-09T11:01:34Z</time>
      </trkpt>
      <trkpt lat="41.542958000" lon="1.833827000">
        <ele>268.60</ele>
        <time>2013-05-09T11:01:37Z</time>
      </trkpt>
      <trkpt lat="41.542931000" lon="1.834071000">
        <ele>268.60</ele>
        <time>2013-05-09T11:01:40Z</time>
      </trkpt>
      <trkpt lat="41.542862000" lon="1.834334000">
        <ele>268.40</ele>
        <time>2013-05-09T11:01:44Z</time>
      </trkpt>
      <trkpt lat="41.542739000" lon="1.834547000">
        <ele>268.00</ele>
        <time>2013-05-09T11:01:48Z</time>
      </trkpt>
      <trkpt lat="41.542665000" lon="1.834763000">
        <ele>267.70</ele>
        <time>2013-05-09T11:01:52Z</time>
      </trkpt>
      <trkpt lat="41.542719000" lon="1.835051000">
        <ele>264.90</ele>
        <time>2013-05-09T11:01:56Z</time>
      </trkpt>
      <trkpt lat="41.542779000" lon="1.835302000">
        <ele>262.90</ele>
        <time>2013-05-09T11:01:59Z</time>
      </trkpt>
      <trkpt lat="41.542779000" lon="1.835610000">
        <ele>260.70</ele>
        <time>2013-05-09T11:02:02Z</time>
      </trkpt>
      <trkpt lat="41.542762000" lon="1.835928000">
        <ele>260.20</ele>
        <time>2013-05-09T11:02:05Z</time>
      </trkpt>
      <trkpt lat="41.542689000" lon="1.836177000">
        <ele>260.40</ele>
        <time>2013-05-09T11:02:08Z</time>
      </trkpt>
      <trkpt lat="41.542595000" lon="1.836423000">
        <ele>259.30</ele>
        <time>2013-05-09T11:02:11Z</time>
      </trkpt>
      <trkpt lat="41.542520000" lon="1.836685000">
        <ele>258.40</ele>
        <time>2013-05-09T11:02:14Z</time>
      </trkpt>
      <trkpt lat="41.542489000" lon="1.836957000">
        <ele>256.90</ele>
        <time>2013-05-09T11:02:17Z</time>
      </trkpt>
      <trkpt lat="41.542555000" lon="1.837197000">
        <ele>256.20</ele>
        <time>2013-05-09T11:02:20Z</time>
      </trkpt>
      <trkpt lat="41.542693000" lon="1.837412000">
        <ele>254.30</ele>
        <time>2013-05-09T11:02:23Z</time>
      </trkpt>
      <trkpt lat="41.542770000" lon="1.837685000">
        <ele>253.60</ele>
        <time>2013-05-09T11:02:26Z</time>
      </trkpt>
      <trkpt lat="41.542742000" lon="1.837949000">
        <ele>253.80</ele>
        <time>2013-05-09T11:02:29Z</time>
      </trkpt>
      <trkpt lat="41.542631000" lon="1.838156000">
        <ele>254.00</ele>
        <time>2013-05-09T11:02:32Z</time>
      </trkpt>
      <trkpt lat="41.542550000" lon="1.838435000">
        <ele>253.70</ele>
        <time>2013-05-09T11:02:36Z</time>
      </trkpt>
      <trkpt lat="41.542521000" lon="1.838707000">
        <ele>253.70</ele>
        <time>2013-05-09T11:02:40Z</time>
      </trkpt>
      <trkpt lat="41.542465000" lon="1.838952000">
        <ele>254.00</ele>
        <time>2013-05-09T11:02:44Z</time>
      </trkpt>
      <trkpt lat="41.542374000" lon="1.839181000">
        <ele>254.10</ele>
        <time>2013-05-09T11:02:48Z</time>
      </trkpt>
      <trkpt lat="41.542290000" lon="1.839413000">
        <ele>253.90</ele>
        <time>2013-05-09T11:02:52Z</time>
      </trkpt>
      <trkpt lat="41.542272000" lon="1.839682000">
        <ele>253.50</ele>
        <time>2013-05-09T11:02:56Z</time>
      </trkpt>
      <trkpt lat="41.542235000" lon="1.839947000">
        <ele>252.70</ele>
        <time>2013-05-09T11:03:00Z</time>
      </trkpt>
      <trkpt lat="41.542297000" lon="1.840223000">
        <ele>252.10</ele>
        <time>2013-05-09T11:03:04Z</time>
      </trkpt>
      <trkpt lat="41.542379000" lon="1.840479000">
        <ele>251.70</ele>
        <time>2013-05-09T11:03:08Z</time>
      </trkpt>
      <trkpt lat="41.542471000" lon="1.840778000">
        <ele>249.20</ele>
        <time>2013-05-09T11:03:12Z</time>
      </trkpt>
      <trkpt lat="41.542533000" lon="1.841015000">
        <ele>249.20</ele>
        <time>2013-05-09T11:03:15Z</time>
      </trkpt>
      <trkpt lat="41.542581000" lon="1.841300000">
        <ele>248.80</ele>
        <time>2013-05-09T11:03:19Z</time>
      </trkpt>
      <trkpt lat="41.542634000" lon="1.841541000">
        <ele>249.40</ele>
        <time>2013-05-09T11:03:23Z</time>
      </trkpt>
      <trkpt lat="41.542721000" lon="1.841777000">
        <ele>247.50</ele>
        <time>2013-05-09T11:03:27Z</time>
      </trkpt>
      <trkpt lat="41.542750000" lon="1.842086000">
        <ele>246.20</ele>
        <time>2013-05-09T11:03:31Z</time>
      </trkpt>
      <trkpt lat="41.542811000" lon="1.842343000">
        <ele>246.70</ele>
        <time>2013-05-09T11:03:35Z</time>
      </trkpt>
      <trkpt lat="41.542869000" lon="1.842594000">
        <ele>248.00</ele>
        <time>2013-05-09T11:03:40Z</time>
      </trkpt>
      <trkpt lat="41.542897000" lon="1.842851000">
        <ele>245.90</ele>
        <time>2013-05-09T11:03:44Z</time>
      </trkpt>
      <trkpt lat="41.542924000" lon="1.843129000">
        <ele>242.10</ele>
        <time>2013-05-09T11:03:47Z</time>
      </trkpt>
      <trkpt lat="41.542959000" lon="1.843436000">
        <ele>240.90</ele>
        <time>2013-05-09T11:03:50Z</time>
      </trkpt>
      <trkpt lat="41.543041000" lon="1.843648000">
        <ele>242.30</ele>
        <time>2013-05-09T11:03:56Z</time>
      </trkpt>
      <trkpt lat="41.543192000" lon="1.843735000">
        <ele>243.00</ele>
        <time>2013-05-09T11:04:03Z</time>
      </trkpt>
      <trkpt lat="41.543363000" lon="1.843820000">
        <ele>244.50</ele>
        <time>2013-05-09T11:04:10Z</time>
      </trkpt>
      <trkpt lat="41.543560000" lon="1.843797000">
        <ele>243.70</ele>
        <time>2013-05-09T11:04:17Z</time>
      </trkpt>
      <trkpt lat="41.543746000" lon="1.843858000">
        <ele>241.60</ele>
        <time>2013-05-09T11:04:21Z</time>
      </trkpt>
      <trkpt lat="41.543952000" lon="1.843974000">
        <ele>240.70</ele>
        <time>2013-05-09T11:04:25Z</time>
      </trkpt>
      <trkpt lat="41.544160000" lon="1.844058000">
        <ele>240.10</ele>
        <time>2013-05-09T11:04:29Z</time>
      </trkpt>
      <trkpt lat="41.544363000" lon="1.844090000">
        <ele>240.90</ele>
        <time>2013-05-09T11:04:34Z</time>
      </trkpt>
      <trkpt lat="41.544362000" lon="1.844319000">
        <ele>239.30</ele>
        <time>2013-05-09T11:04:38Z</time>
      </trkpt>
      <trkpt lat="41.544246000" lon="1.844624000">
        <ele>235.60</ele>
        <time>2013-05-09T11:04:42Z</time>
      </trkpt>
      <trkpt lat="41.544190000" lon="1.844869000">
        <ele>235.40</ele>
        <time>2013-05-09T11:04:45Z</time>
      </trkpt>
      <trkpt lat="41.544298000" lon="1.845131000">
        <ele>234.60</ele>
        <time>2013-05-09T11:04:49Z</time>
      </trkpt>
      <trkpt lat="41.544365000" lon="1.845412000">
        <ele>233.00</ele>
        <time>2013-05-09T11:04:53Z</time>
      </trkpt>
      <trkpt lat="41.544300000" lon="1.845652000">
        <ele>231.00</ele>
        <time>2013-05-09T11:04:56Z</time>
      </trkpt>
      <trkpt lat="41.544249000" lon="1.845920000">
        <ele>228.10</ele>
        <time>2013-05-09T11:04:59Z</time>
      </trkpt>
      <trkpt lat="41.544299000" lon="1.846193000">
        <ele>226.70</ele>
        <time>2013-05-09T11:05:02Z</time>
      </trkpt>
      <trkpt lat="41.544370000" lon="1.846481000">
        <ele>225.20</ele>
        <time>2013-05-09T11:05:05Z</time>
      </trkpt>
      <trkpt lat="41.544377000" lon="1.846766000">
        <ele>225.10</ele>
        <time>2013-05-09T11:05:08Z</time>
      </trkpt>
      <trkpt lat="41.544268000" lon="1.847016000">
        <ele>226.50</ele>
        <time>2013-05-09T11:05:12Z</time>
      </trkpt>
      <trkpt lat="41.544180000" lon="1.847270000">
        <ele>223.10</ele>
        <time>2013-05-09T11:05:16Z</time>
      </trkpt>
      <trkpt lat="41.544141000" lon="1.847529000">
        <ele>221.10</ele>
        <time>2013-05-09T11:05:19Z</time>
      </trkpt>
      <trkpt lat="41.544134000" lon="1.847784000">
        <ele>219.10</ele>
        <time>2013-05-09T11:05:22Z</time>
      </trkpt>
      <trkpt lat="41.544127000" lon="1.848106000">
        <ele>216.00</ele>
        <time>2013-05-09T11:05:26Z</time>
      </trkpt>
      <trkpt lat="41.544119000" lon="1.848363000">
        <ele>213.60</ele>
        <time>2013-05-09T11:05:29Z</time>
      </trkpt>
      <trkpt lat="41.544130000" lon="1.848613000">
        <ele>211.80</ele>
        <time>2013-05-09T11:05:32Z</time>
      </trkpt>
      <trkpt lat="41.544154000" lon="1.848876000">
        <ele>209.80</ele>
        <time>2013-05-09T11:05:35Z</time>
      </trkpt>
      <trkpt lat="41.544182000" lon="1.849135000">
        <ele>207.60</ele>
        <time>2013-05-09T11:05:39Z</time>
      </trkpt>
      <trkpt lat="41.544208000" lon="1.849409000">
        <ele>205.10</ele>
        <time>2013-05-09T11:05:43Z</time>
      </trkpt>
      <trkpt lat="41.544187000" lon="1.849719000">
        <ele>202.00</ele>
        <time>2013-05-09T11:05:47Z</time>
      </trkpt>
      <trkpt lat="41.544193000" lon="1.849996000">
        <ele>200.30</ele>
        <time>2013-05-09T11:05:51Z</time>
      </trkpt>
      <trkpt lat="41.544166000" lon="1.850254000">
        <ele>196.80</ele>
        <time>2013-05-09T11:05:55Z</time>
      </trkpt>
      <trkpt lat="41.544255000" lon="1.850512000">
        <ele>193.50</ele>
        <time>2013-05-09T11:06:00Z</time>
      </trkpt>
      <trkpt lat="41.544307000" lon="1.850435000">
        <ele>190.90</ele>
        <time>2013-05-09T11:06:09Z</time>
      </trkpt>
      <trkpt lat="41.544248000" lon="1.850170000">
        <ele>187.80</ele>
        <time>2013-05-09T11:06:14Z</time>
      </trkpt>
      <trkpt lat="41.544318000" lon="1.849929000">
        <ele>184.60</ele>
        <time>2013-05-09T11:06:18Z</time>
      </trkpt>
      <trkpt lat="41.544473000" lon="1.849727000">
        <ele>181.70</ele>
        <time>2013-05-09T11:06:22Z</time>
      </trkpt>
      <trkpt lat="41.544640000" lon="1.849581000">
        <ele>180.50</ele>
        <time>2013-05-09T11:06:26Z</time>
      </trkpt>
      <trkpt lat="41.544697000" lon="1.849765000">
        <ele>178.70</ele>
        <time>2013-05-09T11:06:31Z</time>
      </trkpt>
      <trkpt lat="41.544554000" lon="1.849927000">
        <ele>178.40</ele>
        <time>2013-05-09T11:06:35Z</time>
      </trkpt>
      <trkpt lat="41.544541000" lon="1.850131000">
        <ele>178.30</ele>
        <time>2013-05-09T11:06:40Z</time>
      </trkpt>
      <trkpt lat="41.544734000" lon="1.850127000">
        <ele>180.50</ele>
        <time>2013-05-09T11:06:48Z</time>
      </trkpt>
      <trkpt lat="41.544931000" lon="1.850109000">
        <ele>182.80</ele>
        <time>2013-05-09T11:06:56Z</time>
      </trkpt>
      <trkpt lat="41.545128000" lon="1.850032000">
        <ele>185.30</ele>
        <time>2013-05-09T11:07:04Z</time>
      </trkpt>
      <trkpt lat="41.545315000" lon="1.849964000">
        <ele>188.40</ele>
        <time>2013-05-09T11:07:12Z</time>
      </trkpt>
      <trkpt lat="41.545405000" lon="1.850043000">
        <ele>190.60</ele>
        <time>2013-05-09T11:07:20Z</time>
      </trkpt>
      <trkpt lat="41.545267000" lon="1.850240000">
        <ele>192.80</ele>
        <time>2013-05-09T11:07:28Z</time>
      </trkpt>
      <trkpt lat="41.545148000" lon="1.850485000">
        <ele>194.20</ele>
        <time>2013-05-09T11:07:36Z</time>
      </trkpt>
      <trkpt lat="41.545109000" lon="1.850730000">
        <ele>196.20</ele>
        <time>2013-05-09T11:07:43Z</time>
      </trkpt>
      <trkpt lat="41.545096000" lon="1.850993000">
        <ele>195.30</ele>
        <time>2013-05-09T11:07:50Z</time>
      </trkpt>
      <trkpt lat="41.545348000" lon="1.851144000">
        <ele>194.90</ele>
        <time>2013-05-09T11:07:57Z</time>
      </trkpt>
      <trkpt lat="41.545336000" lon="1.851301000">
        <ele>195.10</ele>
        <time>2013-05-09T11:08:03Z</time>
      </trkpt>
      <trkpt lat="41.545169000" lon="1.851395000">
        <ele>195.10</ele>
        <time>2013-05-09T11:08:09Z</time>
      </trkpt>
      <trkpt lat="41.545003000" lon="1.851565000">
        <ele>197.40</ele>
        <time>2013-05-09T11:08:16Z</time>
      </trkpt>
      <trkpt lat="41.544973000" lon="1.851822000">
        <ele>198.50</ele>
        <time>2013-05-09T11:08:23Z</time>
      </trkpt>
      <trkpt lat="41.545087000" lon="1.852044000">
        <ele>200.10</ele>
        <time>2013-05-09T11:08:30Z</time>
      </trkpt>
      <trkpt lat="41.545251000" lon="1.852155000">
        <ele>201.40</ele>
        <time>2013-05-09T11:08:37Z</time>
      </trkpt>
      <trkpt lat="41.545355000" lon="1.852341000">
        <ele>203.30</ele>
        <time>2013-05-09T11:08:45Z</time>
      </trkpt>
      <trkpt lat="41.545235000" lon="1.852538000">
        <ele>205.70</ele>
        <time>2013-05-09T11:08:53Z</time>
      </trkpt>
      <trkpt lat="41.545096000" lon="1.852727000">
        <ele>208.00</ele>
        <time>2013-05-09T11:09:01Z</time>
      </trkpt>
      <trkpt lat="41.544967000" lon="1.852912000">
        <ele>210.70</ele>
        <time>2013-05-09T11:09:09Z</time>
      </trkpt>
      <trkpt lat="41.544863000" lon="1.853134000">
        <ele>211.90</ele>
        <time>2013-05-09T11:09:17Z</time>
      </trkpt>
      <trkpt lat="41.544740000" lon="1.853355000">
        <ele>211.60</ele>
        <time>2013-05-09T11:09:24Z</time>
      </trkpt>
      <trkpt lat="41.544571000" lon="1.853535000">
        <ele>211.40</ele>
        <time>2013-05-09T11:09:30Z</time>
      </trkpt>
      <trkpt lat="41.544410000" lon="1.853728000">
        <ele>211.10</ele>
        <time>2013-05-09T11:09:36Z</time>
      </trkpt>
      <trkpt lat="41.544267000" lon="1.853872000">
        <ele>212.90</ele>
        <time>2013-05-09T11:09:44Z</time>
      </trkpt>
      <trkpt lat="41.544214000" lon="1.854059000">
        <ele>214.30</ele>
        <time>2013-05-09T11:10:00Z</time>
      </trkpt>
      <trkpt lat="41.544153000" lon="1.854121000">
        <ele>214.60</ele>
        <time>2013-05-09T11:10:12Z</time>
      </trkpt>
      <trkpt lat="41.544244000" lon="1.854356000">
        <ele>216.60</ele>
        <time>2013-05-09T11:10:20Z</time>
      </trkpt>
      <trkpt lat="41.544343000" lon="1.854581000">
        <ele>216.40</ele>
        <time>2013-05-09T11:10:27Z</time>
      </trkpt>
      <trkpt lat="41.544447000" lon="1.854818000">
        <ele>216.80</ele>
        <time>2013-05-09T11:10:35Z</time>
      </trkpt>
      <trkpt lat="41.544480000" lon="1.855083000">
        <ele>214.90</ele>
        <time>2013-05-09T11:10:42Z</time>
      </trkpt>
      <trkpt lat="41.544454000" lon="1.855328000">
        <ele>211.60</ele>
        <time>2013-05-09T11:10:46Z</time>
      </trkpt>
      <trkpt lat="41.544456000" lon="1.855611000">
        <ele>209.90</ele>
        <time>2013-05-09T11:10:49Z</time>
      </trkpt>
      <trkpt lat="41.544455000" lon="1.855893000">
        <ele>209.50</ele>
        <time>2013-05-09T11:10:52Z</time>
      </trkpt>
      <trkpt lat="41.544470000" lon="1.856166000">
        <ele>209.50</ele>
        <time>2013-05-09T11:10:55Z</time>
      </trkpt>
      <trkpt lat="41.544499000" lon="1.856425000">
        <ele>209.10</ele>
        <time>2013-05-09T11:10:58Z</time>
      </trkpt>
      <trkpt lat="41.544511000" lon="1.856667000">
        <ele>208.50</ele>
        <time>2013-05-09T11:11:01Z</time>
      </trkpt>
      <trkpt lat="41.544437000" lon="1.856887000">
        <ele>208.30</ele>
        <time>2013-05-09T11:11:04Z</time>
      </trkpt>
      <trkpt lat="41.544327000" lon="1.857091000">
        <ele>207.30</ele>
        <time>2013-05-09T11:11:07Z</time>
      </trkpt>
      <trkpt lat="41.544211000" lon="1.857289000">
        <ele>207.00</ele>
        <time>2013-05-09T11:11:10Z</time>
      </trkpt>
      <trkpt lat="41.544081000" lon="1.857468000">
        <ele>206.20</ele>
        <time>2013-05-09T11:11:13Z</time>
      </trkpt>
      <trkpt lat="41.543972000" lon="1.857670000">
        <ele>205.70</ele>
        <time>2013-05-09T11:11:16Z</time>
      </trkpt>
      <trkpt lat="41.543793000" lon="1.857847000">
        <ele>204.50</ele>
        <time>2013-05-09T11:11:20Z</time>
      </trkpt>
      <trkpt lat="41.543616000" lon="1.858063000">
        <ele>203.80</ele>
        <time>2013-05-09T11:11:24Z</time>
      </trkpt>
      <trkpt lat="41.543496000" lon="1.858258000">
        <ele>203.10</ele>
        <time>2013-05-09T11:11:27Z</time>
      </trkpt>
      <trkpt lat="41.543415000" lon="1.858482000">
        <ele>202.40</ele>
        <time>2013-05-09T11:11:30Z</time>
      </trkpt>
      <trkpt lat="41.543342000" lon="1.858706000">
        <ele>201.40</ele>
        <time>2013-05-09T11:11:33Z</time>
      </trkpt>
      <trkpt lat="41.543250000" lon="1.858932000">
        <ele>200.80</ele>
        <time>2013-05-09T11:11:36Z</time>
      </trkpt>
      <trkpt lat="41.543153000" lon="1.859158000">
        <ele>200.40</ele>
        <time>2013-05-09T11:11:39Z</time>
      </trkpt>
      <trkpt lat="41.543026000" lon="1.859375000">
        <ele>199.80</ele>
        <time>2013-05-09T11:11:42Z</time>
      </trkpt>
      <trkpt lat="41.542910000" lon="1.859600000">
        <ele>199.20</ele>
        <time>2013-05-09T11:11:45Z</time>
      </trkpt>
      <trkpt lat="41.542796000" lon="1.859825000">
        <ele>198.30</ele>
        <time>2013-05-09T11:11:48Z</time>
      </trkpt>
      <trkpt lat="41.542713000" lon="1.860079000">
        <ele>197.30</ele>
        <time>2013-05-09T11:11:51Z</time>
      </trkpt>
      <trkpt lat="41.542716000" lon="1.860322000">
        <ele>197.00</ele>
        <time>2013-05-09T11:11:54Z</time>
      </trkpt>
      <trkpt lat="41.542830000" lon="1.860580000">
        <ele>196.30</ele>
        <time>2013-05-09T11:11:58Z</time>
      </trkpt>
      <trkpt lat="41.542944000" lon="1.860794000">
        <ele>196.90</ele>
        <time>2013-05-09T11:12:02Z</time>
      </trkpt>
      <trkpt lat="41.542887000" lon="1.861034000">
        <ele>196.80</ele>
        <time>2013-05-09T11:12:07Z</time>
      </trkpt>
      <trkpt lat="41.542693000" lon="1.861146000">
        <ele>196.30</ele>
        <time>2013-05-09T11:12:12Z</time>
      </trkpt>
      <trkpt lat="41.542514000" lon="1.861266000">
        <ele>195.60</ele>
        <time>2013-05-09T11:12:17Z</time>
      </trkpt>
      <trkpt lat="41.542355000" lon="1.861406000">
        <ele>194.70</ele>
        <time>2013-05-09T11:12:21Z</time>
      </trkpt>
      <trkpt lat="41.542192000" lon="1.861561000">
        <ele>194.10</ele>
        <time>2013-05-09T11:12:25Z</time>
      </trkpt>
      <trkpt lat="41.542004000" lon="1.861730000">
        <ele>193.00</ele>
        <time>2013-05-09T11:12:29Z</time>
      </trkpt>
      <trkpt lat="41.541807000" lon="1.861899000">
        <ele>191.90</ele>
        <time>2013-05-09T11:12:33Z</time>
      </trkpt>
      <trkpt lat="41.541598000" lon="1.862025000">
        <ele>191.40</ele>
        <time>2013-05-09T11:12:37Z</time>
      </trkpt>
      <trkpt lat="41.541441000" lon="1.862143000">
        <ele>190.50</ele>
        <time>2013-05-09T11:12:40Z</time>
      </trkpt>
      <trkpt lat="41.541279000" lon="1.862269000">
        <ele>190.40</ele>
        <time>2013-05-09T11:12:43Z</time>
      </trkpt>
      <trkpt lat="41.541106000" lon="1.862396000">
        <ele>189.20</ele>
        <time>2013-05-09T11:12:46Z</time>
      </trkpt>
      <trkpt lat="41.540935000" lon="1.862517000">
        <ele>188.80</ele>
        <time>2013-05-09T11:12:49Z</time>
      </trkpt>
      <trkpt lat="41.540773000" lon="1.862644000">
        <ele>187.90</ele>
        <time>2013-05-09T11:12:52Z</time>
      </trkpt>
      <trkpt lat="41.540590000" lon="1.862769000">
        <ele>187.20</ele>
        <time>2013-05-09T11:12:55Z</time>
      </trkpt>
      <trkpt lat="41.540436000" lon="1.862870000">
        <ele>187.30</ele>
        <time>2013-05-09T11:12:59Z</time>
      </trkpt>
      <trkpt lat="41.540488000" lon="1.863045000">
        <ele>186.90</ele>
        <time>2013-05-09T11:13:07Z</time>
      </trkpt>
      <trkpt lat="41.540599000" lon="1.863265000">
        <ele>186.90</ele>
        <time>2013-05-09T11:13:14Z</time>
      </trkpt>
      <trkpt lat="41.540484000" lon="1.863427000">
        <ele>186.40</ele>
        <time>2013-05-09T11:13:21Z</time>
      </trkpt>
      <trkpt lat="41.540296000" lon="1.863550000">
        <ele>185.10</ele>
        <time>2013-05-09T11:13:26Z</time>
      </trkpt>
      <trkpt lat="41.540106000" lon="1.863641000">
        <ele>184.40</ele>
        <time>2013-05-09T11:13:30Z</time>
      </trkpt>
      <trkpt lat="41.539897000" lon="1.863760000">
        <ele>183.10</ele>
        <time>2013-05-09T11:13:34Z</time>
      </trkpt>
      <trkpt lat="41.539729000" lon="1.863862000">
        <ele>182.40</ele>
        <time>2013-05-09T11:13:37Z</time>
      </trkpt>
      <trkpt lat="41.539515000" lon="1.863999000">
        <ele>181.80</ele>
        <time>2013-05-09T11:13:41Z</time>
      </trkpt>
      <trkpt lat="41.539334000" lon="1.864100000">
        <ele>180.80</ele>
        <time>2013-05-09T11:13:45Z</time>
      </trkpt>
      <trkpt lat="41.539166000" lon="1.864169000">
        <ele>180.20</ele>
        <time>2013-05-09T11:13:50Z</time>
      </trkpt>
      <trkpt lat="41.539060000" lon="1.864307000">
        <ele>179.80</ele>
        <time>2013-05-09T11:13:57Z</time>
      </trkpt>
      <trkpt lat="41.539204000" lon="1.864467000">
        <ele>181.10</ele>
        <time>2013-05-09T11:14:04Z</time>
      </trkpt>
      <trkpt lat="41.539116000" lon="1.864310000">
        <ele>180.10</ele>
        <time>2013-05-09T11:14:11Z</time>
      </trkpt>
      <trkpt lat="41.539015000" lon="1.864357000">
        <ele>180.20</ele>
        <time>2013-05-09T11:14:20Z</time>
      </trkpt>
      <trkpt lat="41.538935000" lon="1.864612000">
        <ele>176.50</ele>
        <time>2013-05-09T11:14:27Z</time>
      </trkpt>
      <trkpt lat="41.538858000" lon="1.864852000">
        <ele>171.30</ele>
        <time>2013-05-09T11:14:31Z</time>
      </trkpt>
      <trkpt lat="41.538739000" lon="1.865044000">
        <ele>170.40</ele>
        <time>2013-05-09T11:14:35Z</time>
      </trkpt>
      <trkpt lat="41.538831000" lon="1.864918000">
        <ele>171.20</ele>
        <time>2013-05-09T11:14:48Z</time>
      </trkpt>
      <trkpt lat="41.538901000" lon="1.865015000">
        <ele>169.70</ele>
        <time>2013-05-09T11:14:58Z</time>
      </trkpt>
      <trkpt lat="41.538861000" lon="1.865244000">
        <ele>168.40</ele>
        <time>2013-05-09T11:15:05Z</time>
      </trkpt>
      <trkpt lat="41.538719000" lon="1.865422000">
        <ele>164.60</ele>
        <time>2013-05-09T11:15:11Z</time>
      </trkpt>
      <trkpt lat="41.538584000" lon="1.865587000">
        <ele>164.00</ele>
        <time>2013-05-09T11:15:19Z</time>
      </trkpt>
      <trkpt lat="41.538415000" lon="1.865674000">
        <ele>164.00</ele>
        <time>2013-05-09T11:15:44Z</time>
      </trkpt>
      <trkpt lat="41.538297000" lon="1.865798000">
        <ele>165.90</ele>
        <time>2013-05-09T11:15:56Z</time>
      </trkpt>
      <trkpt lat="41.538144000" lon="1.865802000">
        <ele>166.20</ele>
        <time>2013-05-09T11:16:06Z</time>
      </trkpt>
      <trkpt lat="41.537940000" lon="1.865839000">
        <ele>165.00</ele>
        <time>2013-05-09T11:16:12Z</time>
      </trkpt>
      <trkpt lat="41.537759000" lon="1.865842000">
        <ele>162.90</ele>
        <time>2013-05-09T11:16:22Z</time>
      </trkpt>
      <trkpt lat="41.537604000" lon="1.865925000">
        <ele>159.10</ele>
        <time>2013-05-09T11:16:47Z</time>
      </trkpt>
      <trkpt lat="41.537440000" lon="1.866031000">
        <ele>160.10</ele>
        <time>2013-05-09T11:16:58Z</time>
      </trkpt>
      <trkpt lat="41.537296000" lon="1.866215000">
        <ele>159.70</ele>
        <time>2013-05-09T11:17:06Z</time>
      </trkpt>
      <trkpt lat="41.537122000" lon="1.866322000">
        <ele>159.60</ele>
        <time>2013-05-09T11:17:13Z</time>
      </trkpt>
      <trkpt lat="41.536914000" lon="1.866341000">
        <ele>159.40</ele>
        <time>2013-05-09T11:17:20Z</time>
      </trkpt>
      <trkpt lat="41.536762000" lon="1.866198000">
        <ele>159.40</ele>
        <time>2013-05-09T11:17:27Z</time>
      </trkpt>
      <trkpt lat="41.536613000" lon="1.866013000">
        <ele>160.90</ele>
        <time>2013-05-09T11:17:35Z</time>
      </trkpt>
      <trkpt lat="41.536414000" lon="1.865959000">
        <ele>163.50</ele>
        <time>2013-05-09T11:17:43Z</time>
      </trkpt>
      <trkpt lat="41.536223000" lon="1.866037000">
        <ele>165.50</ele>
        <time>2013-05-09T11:17:52Z</time>
      </trkpt>
      <trkpt lat="41.536042000" lon="1.866145000">
        <ele>166.20</ele>
        <time>2013-05-09T11:18:00Z</time>
      </trkpt>
      <trkpt lat="41.535856000" lon="1.866257000">
        <ele>167.70</ele>
        <time>2013-05-09T11:18:08Z</time>
      </trkpt>
      <trkpt lat="41.535654000" lon="1.866273000">
        <ele>169.00</ele>
        <time>2013-05-09T11:18:16Z</time>
      </trkpt>
      <trkpt lat="41.535447000" lon="1.866184000">
        <ele>169.80</ele>
        <time>2013-05-09T11:18:23Z</time>
      </trkpt>
      <trkpt lat="41.535240000" lon="1.866064000">
        <ele>169.70</ele>
        <time>2013-05-09T11:18:29Z</time>
      </trkpt>
      <trkpt lat="41.535064000" lon="1.865941000">
        <ele>169.80</ele>
        <time>2013-05-09T11:18:34Z</time>
      </trkpt>
      <trkpt lat="41.534880000" lon="1.865817000">
        <ele>170.20</ele>
        <time>2013-05-09T11:18:39Z</time>
      </trkpt>
      <trkpt lat="41.534663000" lon="1.865904000">
        <ele>169.70</ele>
        <time>2013-05-09T11:18:44Z</time>
      </trkpt>
      <trkpt lat="41.534454000" lon="1.865987000">
        <ele>170.10</ele>
        <time>2013-05-09T11:18:49Z</time>
      </trkpt>
      <trkpt lat="41.534272000" lon="1.866035000">
        <ele>169.60</ele>
        <time>2013-05-09T11:18:53Z</time>
      </trkpt>
      <trkpt lat="41.534091000" lon="1.866093000">
        <ele>168.70</ele>
        <time>2013-05-09T11:18:57Z</time>
      </trkpt>
      <trkpt lat="41.533901000" lon="1.866146000">
        <ele>168.20</ele>
        <time>2013-05-09T11:19:01Z</time>
      </trkpt>
      <trkpt lat="41.533705000" lon="1.866198000">
        <ele>167.80</ele>
        <time>2013-05-09T11:19:05Z</time>
      </trkpt>
      <trkpt lat="41.533490000" lon="1.866255000">
        <ele>164.60</ele>
        <time>2013-05-09T11:19:09Z</time>
      </trkpt>
      <trkpt lat="41.533297000" lon="1.866309000">
        <ele>161.90</ele>
        <time>2013-05-09T11:19:12Z</time>
      </trkpt>
      <trkpt lat="41.533100000" lon="1.866369000">
        <ele>159.60</ele>
        <time>2013-05-09T11:19:15Z</time>
      </trkpt>
      <trkpt lat="41.532892000" lon="1.866432000">
        <ele>156.80</ele>
        <time>2013-05-09T11:19:18Z</time>
      </trkpt>
      <trkpt lat="41.532657000" lon="1.866487000">
        <ele>153.90</ele>
        <time>2013-05-09T11:19:21Z</time>
      </trkpt>
      <trkpt lat="41.532415000" lon="1.866523000">
        <ele>152.90</ele>
        <time>2013-05-09T11:19:24Z</time>
      </trkpt>
      <trkpt lat="41.532203000" lon="1.866542000">
        <ele>152.90</ele>
        <time>2013-05-09T11:19:27Z</time>
      </trkpt>
      <trkpt lat="41.532009000" lon="1.866563000">
        <ele>152.60</ele>
        <time>2013-05-09T11:19:30Z</time>
      </trkpt>
      <trkpt lat="41.531790000" lon="1.866640000">
        <ele>153.70</ele>
        <time>2013-05-09T11:19:34Z</time>
      </trkpt>
      <trkpt lat="41.531640000" lon="1.866831000">
        <ele>154.00</ele>
        <time>2013-05-09T11:19:38Z</time>
      </trkpt>
      <trkpt lat="41.531481000" lon="1.867011000">
        <ele>156.40</ele>
        <time>2013-05-09T11:19:43Z</time>
      </trkpt>
      <trkpt lat="41.531323000" lon="1.867137000">
        <ele>158.10</ele>
        <time>2013-05-09T11:19:48Z</time>
      </trkpt>
      <trkpt lat="41.531157000" lon="1.867254000">
        <ele>159.30</ele>
        <time>2013-05-09T11:19:53Z</time>
      </trkpt>
      <trkpt lat="41.530984000" lon="1.867359000">
        <ele>159.60</ele>
        <time>2013-05-09T11:19:58Z</time>
      </trkpt>
      <trkpt lat="41.530794000" lon="1.867469000">
        <ele>159.80</ele>
        <time>2013-05-09T11:20:03Z</time>
      </trkpt>
      <trkpt lat="41.530621000" lon="1.867583000">
        <ele>159.10</ele>
        <time>2013-05-09T11:20:07Z</time>
      </trkpt>
      <trkpt lat="41.530431000" lon="1.867731000">
        <ele>159.10</ele>
        <time>2013-05-09T11:20:11Z</time>
      </trkpt>
      <trkpt lat="41.530236000" lon="1.867891000">
        <ele>158.00</ele>
        <time>2013-05-09T11:20:15Z</time>
      </trkpt>
      <trkpt lat="41.530072000" lon="1.868007000">
        <ele>156.90</ele>
        <time>2013-05-09T11:20:18Z</time>
      </trkpt>
      <trkpt lat="41.529910000" lon="1.868128000">
        <ele>156.00</ele>
        <time>2013-05-09T11:20:21Z</time>
      </trkpt>
      <trkpt lat="41.529730000" lon="1.868250000">
        <ele>155.70</ele>
        <time>2013-05-09T11:20:24Z</time>
      </trkpt>
      <trkpt lat="41.529525000" lon="1.868338000">
        <ele>153.50</ele>
        <time>2013-05-09T11:20:27Z</time>
      </trkpt>
      <trkpt lat="41.529296000" lon="1.868390000">
        <ele>152.80</ele>
        <time>2013-05-09T11:20:30Z</time>
      </trkpt>
      <trkpt lat="41.529058000" lon="1.868339000">
        <ele>151.20</ele>
        <time>2013-05-09T11:20:33Z</time>
      </trkpt>
      <trkpt lat="41.528812000" lon="1.868219000">
        <ele>149.10</ele>
        <time>2013-05-09T11:20:36Z</time>
      </trkpt>
      <trkpt lat="41.528578000" lon="1.868082000">
        <ele>148.20</ele>
        <time>2013-05-09T11:20:39Z</time>
      </trkpt>
      <trkpt lat="41.528361000" lon="1.867974000">
        <ele>146.10</ele>
        <time>2013-05-09T11:20:42Z</time>
      </trkpt>
      <trkpt lat="41.528146000" lon="1.867943000">
        <ele>145.10</ele>
        <time>2013-05-09T11:20:45Z</time>
      </trkpt>
      <trkpt lat="41.527937000" lon="1.868025000">
        <ele>142.70</ele>
        <time>2013-05-09T11:20:48Z</time>
      </trkpt>
      <trkpt lat="41.527713000" lon="1.868104000">
        <ele>141.30</ele>
        <time>2013-05-09T11:20:51Z</time>
      </trkpt>
      <trkpt lat="41.527490000" lon="1.868243000">
        <ele>138.60</ele>
        <time>2013-05-09T11:20:54Z</time>
      </trkpt>
      <trkpt lat="41.527262000" lon="1.868429000">
        <ele>136.10</ele>
        <time>2013-05-09T11:20:57Z</time>
      </trkpt>
      <trkpt lat="41.527061000" lon="1.868631000">
        <ele>132.50</ele>
        <time>2013-05-09T11:21:00Z</time>
      </trkpt>
      <trkpt lat="41.527021000" lon="1.868899000">
        <ele>130.70</ele>
        <time>2013-05-09T11:21:03Z</time>
      </trkpt>
      <trkpt lat="41.527004000" lon="1.869159000">
        <ele>128.60</ele>
        <time>2013-05-09T11:21:07Z</time>
      </trkpt>
      <trkpt lat="41.526816000" lon="1.869047000">
        <ele>126.20</ele>
        <time>2013-05-09T11:21:11Z</time>
      </trkpt>
      <trkpt lat="41.526612000" lon="1.868933000">
        <ele>122.50</ele>
        <time>2013-05-09T11:21:14Z</time>
      </trkpt>
      <trkpt lat="41.526350000" lon="1.868938000">
        <ele>118.80</ele>
        <time>2013-05-09T11:21:17Z</time>
      </trkpt>
      <trkpt lat="41.526067000" lon="1.868983000">
        <ele>115.60</ele>
        <time>2013-05-09T11:21:20Z</time>
      </trkpt>
      <trkpt lat="41.525878000" lon="1.869033000">
        <ele>113.60</ele>
        <time>2013-05-09T11:21:22Z</time>
      </trkpt>
      <trkpt lat="41.525629000" lon="1.869110000">
        <ele>112.30</ele>
        <time>2013-05-09T11:21:25Z</time>
      </trkpt>
      <trkpt lat="41.525457000" lon="1.869205000">
        <ele>111.50</ele>
        <time>2013-05-09T11:21:28Z</time>
      </trkpt>
      <trkpt lat="41.525346000" lon="1.869378000">
        <ele>111.40</ele>
        <time>2013-05-09T11:21:34Z</time>
      </trkpt>
      <trkpt lat="41.525246000" lon="1.869617000">
        <ele>110.90</ele>
        <time>2013-05-09T11:21:40Z</time>
      </trkpt>
      <trkpt lat="41.525157000" lon="1.869832000">
        <ele>110.70</ele>
        <time>2013-05-09T11:21:46Z</time>
      </trkpt>
      <trkpt lat="41.525115000" lon="1.870071000">
        <ele>110.50</ele>
        <time>2013-05-09T11:21:51Z</time>
      </trkpt>
      <trkpt lat="41.525044000" lon="1.870303000">
        <ele>110.00</ele>
        <time>2013-05-09T11:21:56Z</time>
      </trkpt>
      <trkpt lat="41.524910000" lon="1.870468000">
        <ele>110.00</ele>
        <time>2013-05-09T11:22:01Z</time>
      </trkpt>
      <trkpt lat="41.524749000" lon="1.870653000">
        <ele>109.50</ele>
        <time>2013-05-09T11:22:06Z</time>
      </trkpt>
      <trkpt lat="41.524583000" lon="1.870724000">
        <ele>108.70</ele>
        <time>2013-05-09T11:22:11Z</time>
      </trkpt>
      <trkpt lat="41.524396000" lon="1.870674000">
        <ele>108.90</ele>
        <time>2013-05-09T11:22:16Z</time>
      </trkpt>
      <trkpt lat="41.524181000" lon="1.870647000">
        <ele>109.10</ele>
        <time>2013-05-09T11:22:22Z</time>
      </trkpt>
      <trkpt lat="41.524010000" lon="1.870635000">
        <ele>109.10</ele>
        <time>2013-05-09T11:22:27Z</time>
      </trkpt>
      <trkpt lat="41.523827000" lon="1.870606000">
        <ele>109.90</ele>
        <time>2013-05-09T11:22:32Z</time>
      </trkpt>
      <trkpt lat="41.523649000" lon="1.870549000">
        <ele>110.30</ele>
        <time>2013-05-09T11:22:37Z</time>
      </trkpt>
      <trkpt lat="41.523476000" lon="1.870435000">
        <ele>110.30</ele>
        <time>2013-05-09T11:22:42Z</time>
      </trkpt>
      <trkpt lat="41.523304000" lon="1.870333000">
        <ele>110.30</ele>
        <time>2013-05-09T11:22:47Z</time>
      </trkpt>
      <trkpt lat="41.523148000" lon="1.870182000">
        <ele>110.20</ele>
        <time>2013-05-09T11:22:52Z</time>
      </trkpt>
      <trkpt lat="41.523003000" lon="1.870012000">
        <ele>110.10</ele>
        <time>2013-05-09T11:22:57Z</time>
      </trkpt>
      <trkpt lat="41.522884000" lon="1.869839000">
        <ele>109.90</ele>
        <time>2013-05-09T11:23:02Z</time>
      </trkpt>
      <trkpt lat="41.522783000" lon="1.869607000">
        <ele>110.60</ele>
        <time>2013-05-09T11:23:08Z</time>
      </trkpt>
      <trkpt lat="41.522716000" lon="1.869376000">
        <ele>110.70</ele>
        <time>2013-05-09T11:23:15Z</time>
      </trkpt>
      <trkpt lat="41.522617000" lon="1.869161000">
        <ele>110.90</ele>
        <time>2013-05-09T11:23:22Z</time>
      </trkpt>
      <trkpt lat="41.522542000" lon="1.868920000">
        <ele>111.10</ele>
        <time>2013-05-09T11:23:30Z</time>
      </trkpt>
      <trkpt lat="41.522439000" lon="1.868709000">
        <ele>110.90</ele>
        <time>2013-05-09T11:23:37Z</time>
      </trkpt>
      <trkpt lat="41.522333000" lon="1.868504000">
        <ele>111.40</ele>
        <time>2013-05-09T11:23:45Z</time>
      </trkpt>
      <trkpt lat="41.522216000" lon="1.868300000">
        <ele>111.20</ele>
        <time>2013-05-09T11:23:53Z</time>
      </trkpt>
      <trkpt lat="41.522085000" lon="1.868103000">
        <ele>111.50</ele>
        <time>2013-05-09T11:24:00Z</time>
      </trkpt>
      <trkpt lat="41.521975000" lon="1.867913000">
        <ele>111.40</ele>
        <time>2013-05-09T11:24:07Z</time>
      </trkpt>
      <trkpt lat="41.521856000" lon="1.867711000">
        <ele>111.40</ele>
        <time>2013-05-09T11:24:15Z</time>
      </trkpt>
      <trkpt lat="41.521746000" lon="1.867510000">
        <ele>111.60</ele>
        <time>2013-05-09T11:24:23Z</time>
      </trkpt>
      <trkpt lat="41.521609000" lon="1.867306000">
        <ele>111.80</ele>
        <time>2013-05-09T11:24:31Z</time>
      </trkpt>
      <trkpt lat="41.521493000" lon="1.867115000">
        <ele>111.80</ele>
        <time>2013-05-09T11:24:40Z</time>
      </trkpt>
      <trkpt lat="41.521356000" lon="1.866943000">
        <ele>111.80</ele>
        <time>2013-05-09T11:24:48Z</time>
      </trkpt>
      <trkpt lat="41.521197000" lon="1.866820000">
        <ele>113.20</ele>
        <time>2013-05-09T11:24:56Z</time>
      </trkpt>
      <trkpt lat="41.521031000" lon="1.866661000">
        <ele>114.00</ele>
        <time>2013-05-09T11:25:05Z</time>
      </trkpt>
      <trkpt lat="41.520862000" lon="1.866543000">
        <ele>114.50</ele>
        <time>2013-05-09T11:25:13Z</time>
      </trkpt>
      <trkpt lat="41.520682000" lon="1.866399000">
        <ele>114.90</ele>
        <time>2013-05-09T11:25:21Z</time>
      </trkpt>
      <trkpt lat="41.520492000" lon="1.866417000">
        <ele>116.60</ele>
        <time>2013-05-09T11:25:29Z</time>
      </trkpt>
      <trkpt lat="41.520334000" lon="1.866538000">
        <ele>118.70</ele>
        <time>2013-05-09T11:25:38Z</time>
      </trkpt>
      <trkpt lat="41.520309000" lon="1.866754000">
        <ele>121.50</ele>
        <time>2013-05-09T11:25:47Z</time>
      </trkpt>
      <trkpt lat="41.520435000" lon="1.866929000">
        <ele>124.10</ele>
        <time>2013-05-09T11:25:56Z</time>
      </trkpt>
      <trkpt lat="41.520601000" lon="1.867068000">
        <ele>126.10</ele>
        <time>2013-05-09T11:26:05Z</time>
      </trkpt>
      <trkpt lat="41.520771000" lon="1.867195000">
        <ele>128.50</ele>
        <time>2013-05-09T11:26:14Z</time>
      </trkpt>
      <trkpt lat="41.520925000" lon="1.867338000">
        <ele>130.00</ele>
        <time>2013-05-09T11:26:22Z</time>
      </trkpt>
      <trkpt lat="41.521040000" lon="1.867519000">
        <ele>133.00</ele>
        <time>2013-05-09T11:26:31Z</time>
      </trkpt>
      <trkpt lat="41.520876000" lon="1.867426000">
        <ele>136.20</ele>
        <time>2013-05-09T11:26:41Z</time>
      </trkpt>
      <trkpt lat="41.520699000" lon="1.867361000">
        <ele>138.60</ele>
        <time>2013-05-09T11:26:51Z</time>
      </trkpt>
      <trkpt lat="41.520521000" lon="1.867331000">
        <ele>140.90</ele>
        <time>2013-05-09T11:27:01Z</time>
      </trkpt>
      <trkpt lat="41.520474000" lon="1.867522000">
        <ele>143.70</ele>
        <time>2013-05-09T11:27:12Z</time>
      </trkpt>
      <trkpt lat="41.520536000" lon="1.867779000">
        <ele>146.80</ele>
        <time>2013-05-09T11:27:23Z</time>
      </trkpt>
      <trkpt lat="41.520548000" lon="1.868039000">
        <ele>148.90</ele>
        <time>2013-05-09T11:27:33Z</time>
      </trkpt>
      <trkpt lat="41.520568000" lon="1.868287000">
        <ele>150.70</ele>
        <time>2013-05-09T11:27:42Z</time>
      </trkpt>
      <trkpt lat="41.520561000" lon="1.868530000">
        <ele>152.10</ele>
        <time>2013-05-09T11:27:51Z</time>
      </trkpt>
      <trkpt lat="41.520654000" lon="1.868720000">
        <ele>154.70</ele>
        <time>2013-05-09T11:28:00Z</time>
      </trkpt>
      <trkpt lat="41.520733000" lon="1.868955000">
        <ele>155.80</ele>
        <time>2013-05-09T11:28:09Z</time>
      </trkpt>
      <trkpt lat="41.520722000" lon="1.869183000">
        <ele>156.90</ele>
        <time>2013-05-09T11:28:17Z</time>
      </trkpt>
      <trkpt lat="41.520581000" lon="1.869375000">
        <ele>157.40</ele>
        <time>2013-05-09T11:28:25Z</time>
      </trkpt>
      <trkpt lat="41.520456000" lon="1.869584000">
        <ele>158.60</ele>
        <time>2013-05-09T11:28:33Z</time>
      </trkpt>
      <trkpt lat="41.520291000" lon="1.869709000">
        <ele>161.60</ele>
        <time>2013-05-09T11:28:42Z</time>
      </trkpt>
      <trkpt lat="41.520125000" lon="1.869821000">
        <ele>164.30</ele>
        <time>2013-05-09T11:28:51Z</time>
      </trkpt>
      <trkpt lat="41.519961000" lon="1.869957000">
        <ele>166.40</ele>
        <time>2013-05-09T11:29:01Z</time>
      </trkpt>
      <trkpt lat="41.519859000" lon="1.870162000">
        <ele>167.20</ele>
        <time>2013-05-09T11:29:09Z</time>
      </trkpt>
      <trkpt lat="41.519714000" lon="1.870364000">
        <ele>170.80</ele>
        <time>2013-05-09T11:29:19Z</time>
      </trkpt>
      <trkpt lat="41.519584000" lon="1.870569000">
        <ele>173.60</ele>
        <time>2013-05-09T11:29:29Z</time>
      </trkpt>
      <trkpt lat="41.519467000" lon="1.870764000">
        <ele>176.30</ele>
        <time>2013-05-09T11:29:39Z</time>
      </trkpt>
      <trkpt lat="41.519320000" lon="1.870928000">
        <ele>177.50</ele>
        <time>2013-05-09T11:29:49Z</time>
      </trkpt>
      <trkpt lat="41.519151000" lon="1.871057000">
        <ele>178.60</ele>
        <time>2013-05-09T11:29:58Z</time>
      </trkpt>
      <trkpt lat="41.518993000" lon="1.871168000">
        <ele>178.50</ele>
        <time>2013-05-09T11:30:05Z</time>
      </trkpt>
      <trkpt lat="41.518800000" lon="1.871287000">
        <ele>177.70</ele>
        <time>2013-05-09T11:30:12Z</time>
      </trkpt>
      <trkpt lat="41.518623000" lon="1.871312000">
        <ele>177.20</ele>
        <time>2013-05-09T11:30:55Z</time>
      </trkpt>
      <trkpt lat="41.518422000" lon="1.871253000">
        <ele>177.10</ele>
        <time>2013-05-09T11:31:02Z</time>
      </trkpt>
      <trkpt lat="41.518215000" lon="1.871194000">
        <ele>177.20</ele>
        <time>2013-05-09T11:31:08Z</time>
      </trkpt>
      <trkpt lat="41.518027000" lon="1.871129000">
        <ele>177.30</ele>
        <time>2013-05-09T11:31:13Z</time>
      </trkpt>
      <trkpt lat="41.517820000" lon="1.871115000">
        <ele>177.50</ele>
        <time>2013-05-09T11:31:18Z</time>
      </trkpt>
      <trkpt lat="41.517609000" lon="1.871130000">
        <ele>177.90</ele>
        <time>2013-05-09T11:31:23Z</time>
      </trkpt>
      <trkpt lat="41.517393000" lon="1.871113000">
        <ele>178.90</ele>
        <time>2013-05-09T11:31:28Z</time>
      </trkpt>
      <trkpt lat="41.517249000" lon="1.870965000">
        <ele>180.60</ele>
        <time>2013-05-09T11:31:33Z</time>
      </trkpt>
      <trkpt lat="41.517086000" lon="1.870810000">
        <ele>182.10</ele>
        <time>2013-05-09T11:31:39Z</time>
      </trkpt>
      <trkpt lat="41.516910000" lon="1.870737000">
        <ele>183.50</ele>
        <time>2013-05-09T11:31:46Z</time>
      </trkpt>
      <trkpt lat="41.516749000" lon="1.870585000">
        <ele>185.30</ele>
        <time>2013-05-09T11:31:54Z</time>
      </trkpt>
      <trkpt lat="41.516613000" lon="1.870420000">
        <ele>187.70</ele>
        <time>2013-05-09T11:32:02Z</time>
      </trkpt>
      <trkpt lat="41.516420000" lon="1.870316000">
        <ele>189.80</ele>
        <time>2013-05-09T11:32:12Z</time>
      </trkpt>
      <trkpt lat="41.516252000" lon="1.870160000">
        <ele>191.40</ele>
        <time>2013-05-09T11:32:21Z</time>
      </trkpt>
      <trkpt lat="41.516099000" lon="1.870001000">
        <ele>193.00</ele>
        <time>2013-05-09T11:32:29Z</time>
      </trkpt>
      <trkpt lat="41.516005000" lon="1.869772000">
        <ele>193.50</ele>
        <time>2013-05-09T11:32:37Z</time>
      </trkpt>
      <trkpt lat="41.515904000" lon="1.869557000">
        <ele>193.80</ele>
        <time>2013-05-09T11:32:44Z</time>
      </trkpt>
      <trkpt lat="41.515797000" lon="1.869368000">
        <ele>193.80</ele>
        <time>2013-05-09T11:32:50Z</time>
      </trkpt>
      <trkpt lat="41.515623000" lon="1.869210000">
        <ele>194.00</ele>
        <time>2013-05-09T11:32:56Z</time>
      </trkpt>
      <trkpt lat="41.515430000" lon="1.869068000">
        <ele>194.60</ele>
        <time>2013-05-09T11:33:02Z</time>
      </trkpt>
      <trkpt lat="41.515244000" lon="1.868941000">
        <ele>195.40</ele>
        <time>2013-05-09T11:33:08Z</time>
      </trkpt>
      <trkpt lat="41.515073000" lon="1.868930000">
        <ele>196.10</ele>
        <time>2013-05-09T11:33:14Z</time>
      </trkpt>
      <trkpt lat="41.514988000" lon="1.869172000">
        <ele>195.50</ele>
        <time>2013-05-09T11:33:19Z</time>
      </trkpt>
      <trkpt lat="41.514894000" lon="1.869406000">
        <ele>195.00</ele>
        <time>2013-05-09T11:33:24Z</time>
      </trkpt>
      <trkpt lat="41.514842000" lon="1.869650000">
        <ele>195.40</ele>
        <time>2013-05-09T11:33:38Z</time>
      </trkpt>
      <trkpt lat="41.514762000" lon="1.869894000">
        <ele>195.70</ele>
        <time>2013-05-09T11:33:47Z</time>
      </trkpt>
      <trkpt lat="41.514730000" lon="1.870178000">
        <ele>195.80</ele>
        <time>2013-05-09T11:33:55Z</time>
      </trkpt>
      <trkpt lat="41.514794000" lon="1.870462000">
        <ele>194.50</ele>
        <time>2013-05-09T11:34:00Z</time>
      </trkpt>
      <trkpt lat="41.514866000" lon="1.870706000">
        <ele>194.10</ele>
        <time>2013-05-09T11:34:04Z</time>
      </trkpt>
      <trkpt lat="41.514936000" lon="1.870935000">
        <ele>193.80</ele>
        <time>2013-05-09T11:34:08Z</time>
      </trkpt>
      <trkpt lat="41.515043000" lon="1.871169000">
        <ele>192.00</ele>
        <time>2013-05-09T11:34:12Z</time>
      </trkpt>
      <trkpt lat="41.515162000" lon="1.871378000">
        <ele>190.50</ele>
        <time>2013-05-09T11:34:15Z</time>
      </trkpt>
      <trkpt lat="41.515287000" lon="1.871609000">
        <ele>189.30</ele>
        <time>2013-05-09T11:34:18Z</time>
      </trkpt>
      <trkpt lat="41.515405000" lon="1.871845000">
        <ele>188.70</ele>
        <time>2013-05-09T11:34:21Z</time>
      </trkpt>
      <trkpt lat="41.515511000" lon="1.872076000">
        <ele>188.80</ele>
        <time>2013-05-09T11:34:24Z</time>
      </trkpt>
      <trkpt lat="41.515622000" lon="1.872265000">
        <ele>188.90</ele>
        <time>2013-05-09T11:34:27Z</time>
      </trkpt>
      <trkpt lat="41.515684000" lon="1.872485000">
        <ele>187.90</ele>
        <time>2013-05-09T11:34:32Z</time>
      </trkpt>
      <trkpt lat="41.515561000" lon="1.872657000">
        <ele>185.00</ele>
        <time>2013-05-09T11:34:37Z</time>
      </trkpt>
      <trkpt lat="41.515360000" lon="1.872617000">
        <ele>183.30</ele>
        <time>2013-05-09T11:34:41Z</time>
      </trkpt>
      <trkpt lat="41.515202000" lon="1.872760000">
        <ele>180.70</ele>
        <time>2013-05-09T11:34:45Z</time>
      </trkpt>
      <trkpt lat="41.515098000" lon="1.872961000">
        <ele>178.90</ele>
        <time>2013-05-09T11:34:48Z</time>
      </trkpt>
      <trkpt lat="41.514964000" lon="1.873224000">
        <ele>176.50</ele>
        <time>2013-05-09T11:34:52Z</time>
      </trkpt>
      <trkpt lat="41.514842000" lon="1.873451000">
        <ele>172.80</ele>
        <time>2013-05-09T11:34:55Z</time>
      </trkpt>
      <trkpt lat="41.514716000" lon="1.873695000">
        <ele>171.40</ele>
        <time>2013-05-09T11:34:58Z</time>
      </trkpt>
      <trkpt lat="41.514623000" lon="1.873956000">
        <ele>169.70</ele>
        <time>2013-05-09T11:35:01Z</time>
      </trkpt>
      <trkpt lat="41.514517000" lon="1.874198000">
        <ele>168.20</ele>
        <time>2013-05-09T11:35:04Z</time>
      </trkpt>
      <trkpt lat="41.514383000" lon="1.874363000">
        <ele>165.60</ele>
        <time>2013-05-09T11:35:07Z</time>
      </trkpt>
      <trkpt lat="41.514268000" lon="1.874552000">
        <ele>162.70</ele>
        <time>2013-05-09T11:35:10Z</time>
      </trkpt>
      <trkpt lat="41.514158000" lon="1.874760000">
        <ele>159.20</ele>
        <time>2013-05-09T11:35:13Z</time>
      </trkpt>
      <trkpt lat="41.514032000" lon="1.874993000">
        <ele>157.40</ele>
        <time>2013-05-09T11:35:17Z</time>
      </trkpt>
      <trkpt lat="41.513867000" lon="1.874928000">
        <ele>157.20</ele>
        <time>2013-05-09T11:35:26Z</time>
      </trkpt>
      <trkpt lat="41.513723000" lon="1.875133000">
        <ele>151.70</ele>
        <time>2013-05-09T11:35:34Z</time>
      </trkpt>
      <trkpt lat="41.513541000" lon="1.875194000">
        <ele>149.20</ele>
        <time>2013-05-09T11:35:39Z</time>
      </trkpt>
      <trkpt lat="41.513365000" lon="1.875168000">
        <ele>144.40</ele>
        <time>2013-05-09T11:35:45Z</time>
      </trkpt>
      <trkpt lat="41.513293000" lon="1.874912000">
        <ele>140.10</ele>
        <time>2013-05-09T11:35:51Z</time>
      </trkpt>
      <trkpt lat="41.513131000" lon="1.874844000">
        <ele>138.10</ele>
        <time>2013-05-09T11:35:56Z</time>
      </trkpt>
      <trkpt lat="41.513086000" lon="1.875071000">
        <ele>137.90</ele>
        <time>2013-05-09T11:36:03Z</time>
      </trkpt>
      <trkpt lat="41.513179000" lon="1.875374000">
        <ele>137.80</ele>
        <time>2013-05-09T11:36:43Z</time>
      </trkpt>
      <trkpt lat="41.513177000" lon="1.875628000">
        <ele>136.90</ele>
        <time>2013-05-09T11:36:50Z</time>
      </trkpt>
      <trkpt lat="41.513222000" lon="1.875873000">
        <ele>136.20</ele>
        <time>2013-05-09T11:36:55Z</time>
      </trkpt>
      <trkpt lat="41.513373000" lon="1.875945000">
        <ele>136.60</ele>
        <time>2013-05-09T11:37:00Z</time>
      </trkpt>
      <trkpt lat="41.513519000" lon="1.876124000">
        <ele>137.20</ele>
        <time>2013-05-09T11:37:07Z</time>
      </trkpt>
      <trkpt lat="41.513522000" lon="1.876368000">
        <ele>137.00</ele>
        <time>2013-05-09T11:37:11Z</time>
      </trkpt>
      <trkpt lat="41.513611000" lon="1.876602000">
        <ele>137.80</ele>
        <time>2013-05-09T11:37:17Z</time>
      </trkpt>
      <trkpt lat="41.513804000" lon="1.876763000">
        <ele>137.50</ele>
        <time>2013-05-09T11:37:23Z</time>
      </trkpt>
      <trkpt lat="41.513952000" lon="1.876942000">
        <ele>135.10</ele>
        <time>2013-05-09T11:37:27Z</time>
      </trkpt>
      <trkpt lat="41.514169000" lon="1.877053000">
        <ele>133.30</ele>
        <time>2013-05-09T11:37:31Z</time>
      </trkpt>
      <trkpt lat="41.514311000" lon="1.877249000">
        <ele>133.10</ele>
        <time>2013-05-09T11:37:35Z</time>
      </trkpt>
      <trkpt lat="41.514412000" lon="1.877467000">
        <ele>132.80</ele>
        <time>2013-05-09T11:37:39Z</time>
      </trkpt>
      <trkpt lat="41.514508000" lon="1.877687000">
        <ele>132.00</ele>
        <time>2013-05-09T11:37:43Z</time>
      </trkpt>
      <trkpt lat="41.514589000" lon="1.877952000">
        <ele>131.90</ele>
        <time>2013-05-09T11:37:48Z</time>
      </trkpt>
      <trkpt lat="41.514719000" lon="1.878158000">
        <ele>131.40</ele>
        <time>2013-05-09T11:37:53Z</time>
      </trkpt>
      <trkpt lat="41.514875000" lon="1.878429000">
        <ele>130.80</ele>
        <time>2013-05-09T11:37:59Z</time>
      </trkpt>
      <trkpt lat="41.514858000" lon="1.878662000">
        <ele>130.40</ele>
        <time>2013-05-09T11:38:03Z</time>
      </trkpt>
      <trkpt lat="41.514925000" lon="1.878943000">
        <ele>129.90</ele>
        <time>2013-05-09T11:38:07Z</time>
      </trkpt>
      <trkpt lat="41.515072000" lon="1.879117000">
        <ele>129.50</ele>
        <time>2013-05-09T11:38:11Z</time>
      </trkpt>
      <trkpt lat="41.515078000" lon="1.879376000">
        <ele>129.40</ele>
        <time>2013-05-09T11:38:16Z</time>
      </trkpt>
      <trkpt lat="41.515037000" lon="1.879643000">
        <ele>130.00</ele>
        <time>2013-05-09T11:38:21Z</time>
      </trkpt>
      <trkpt lat="41.515087000" lon="1.879872000">
        <ele>129.50</ele>
        <time>2013-05-09T11:38:25Z</time>
      </trkpt>
      <trkpt lat="41.515194000" lon="1.880117000">
        <ele>127.20</ele>
        <time>2013-05-09T11:38:30Z</time>
      </trkpt>
      <trkpt lat="41.515281000" lon="1.880390000">
        <ele>126.90</ele>
        <time>2013-05-09T11:38:35Z</time>
      </trkpt>
      <trkpt lat="41.515340000" lon="1.880674000">
        <ele>126.70</ele>
        <time>2013-05-09T11:38:40Z</time>
      </trkpt>
      <trkpt lat="41.515392000" lon="1.880962000">
        <ele>127.20</ele>
        <time>2013-05-09T11:38:45Z</time>
      </trkpt>
      <trkpt lat="41.515486000" lon="1.881258000">
        <ele>126.10</ele>
        <time>2013-05-09T11:38:50Z</time>
      </trkpt>
      <trkpt lat="41.515518000" lon="1.881503000">
        <ele>125.90</ele>
        <time>2013-05-09T11:38:54Z</time>
      </trkpt>
      <trkpt lat="41.515578000" lon="1.881791000">
        <ele>125.90</ele>
        <time>2013-05-09T11:38:59Z</time>
      </trkpt>
      <trkpt lat="41.515632000" lon="1.882063000">
        <ele>126.10</ele>
        <time>2013-05-09T11:39:04Z</time>
      </trkpt>
      <trkpt lat="41.515713000" lon="1.882330000">
        <ele>125.90</ele>
        <time>2013-05-09T11:39:09Z</time>
      </trkpt>
      <trkpt lat="41.515792000" lon="1.882607000">
        <ele>125.50</ele>
        <time>2013-05-09T11:39:14Z</time>
      </trkpt>
      <trkpt lat="41.515780000" lon="1.882867000">
        <ele>125.30</ele>
        <time>2013-05-09T11:39:18Z</time>
      </trkpt>
      <trkpt lat="41.515713000" lon="1.883127000">
        <ele>125.30</ele>
        <time>2013-05-09T11:39:23Z</time>
      </trkpt>
      <trkpt lat="41.515815000" lon="1.883283000">
        <ele>125.80</ele>
        <time>2013-05-09T11:39:35Z</time>
      </trkpt>
      <trkpt lat="41.515658000" lon="1.883159000">
        <ele>125.40</ele>
        <time>2013-05-09T11:39:48Z</time>
      </trkpt>
      <trkpt lat="41.515550000" lon="1.883380000">
        <ele>125.20</ele>
        <time>2013-05-09T11:39:55Z</time>
      </trkpt>
      <trkpt lat="41.515570000" lon="1.883625000">
        <ele>124.80</ele>
        <time>2013-05-09T11:40:00Z</time>
      </trkpt>
      <trkpt lat="41.515705000" lon="1.883849000">
        <ele>124.30</ele>
        <time>2013-05-09T11:40:05Z</time>
      </trkpt>
      <trkpt lat="41.515868000" lon="1.883969000">
        <ele>124.00</ele>
        <time>2013-05-09T11:40:09Z</time>
      </trkpt>
      <trkpt lat="41.516007000" lon="1.884147000">
        <ele>123.40</ele>
        <time>2013-05-09T11:40:13Z</time>
      </trkpt>
      <trkpt lat="41.516106000" lon="1.884358000">
        <ele>123.00</ele>
        <time>2013-05-09T11:40:17Z</time>
      </trkpt>
      <trkpt lat="41.516047000" lon="1.884615000">
        <ele>122.40</ele>
        <time>2013-05-09T11:40:22Z</time>
      </trkpt>
      <trkpt lat="41.515897000" lon="1.884805000">
        <ele>122.20</ele>
        <time>2013-05-09T11:40:27Z</time>
      </trkpt>
      <trkpt lat="41.515806000" lon="1.885031000">
        <ele>121.20</ele>
        <time>2013-05-09T11:40:31Z</time>
      </trkpt>
      <trkpt lat="41.515751000" lon="1.885258000">
        <ele>121.30</ele>
        <time>2013-05-09T11:40:35Z</time>
      </trkpt>
      <trkpt lat="41.515757000" lon="1.885539000">
        <ele>120.80</ele>
        <time>2013-05-09T11:40:40Z</time>
      </trkpt>
      <trkpt lat="41.515680000" lon="1.885795000">
        <ele>120.30</ele>
        <time>2013-05-09T11:40:45Z</time>
      </trkpt>
      <trkpt lat="41.515611000" lon="1.886065000">
        <ele>120.00</ele>
        <time>2013-05-09T11:40:50Z</time>
      </trkpt>
      <trkpt lat="41.515560000" lon="1.886343000">
        <ele>118.70</ele>
        <time>2013-05-09T11:40:55Z</time>
      </trkpt>
      <trkpt lat="41.515600000" lon="1.886598000">
        <ele>117.90</ele>
        <time>2013-05-09T11:40:59Z</time>
      </trkpt>
      <trkpt lat="41.515569000" lon="1.886896000">
        <ele>117.40</ele>
        <time>2013-05-09T11:41:05Z</time>
      </trkpt>
      <trkpt lat="41.515496000" lon="1.887127000">
        <ele>117.30</ele>
        <time>2013-05-09T11:41:09Z</time>
      </trkpt>
      <trkpt lat="41.515359000" lon="1.887296000">
        <ele>118.20</ele>
        <time>2013-05-09T11:41:13Z</time>
      </trkpt>
      <trkpt lat="41.515330000" lon="1.887456000">
        <ele>119.30</ele>
        <time>2013-05-09T11:41:37Z</time>
      </trkpt>
      <trkpt lat="41.515360000" lon="1.887526000">
        <ele>119.50</ele>
        <time>2013-05-09T11:42:15Z</time>
      </trkpt>
      <trkpt lat="41.515225000" lon="1.887630000">
        <ele>116.00</ele>
        <time>2013-05-09T11:42:21Z</time>
      </trkpt>
      <trkpt lat="41.515270000" lon="1.887867000">
        <ele>115.10</ele>
        <time>2013-05-09T11:42:25Z</time>
      </trkpt>
      <trkpt lat="41.515275000" lon="1.888107000">
        <ele>114.90</ele>
        <time>2013-05-09T11:42:29Z</time>
      </trkpt>
      <trkpt lat="41.515186000" lon="1.888329000">
        <ele>114.10</ele>
        <time>2013-05-09T11:42:34Z</time>
      </trkpt>
      <trkpt lat="41.514993000" lon="1.888351000">
        <ele>115.30</ele>
        <time>2013-05-09T11:42:39Z</time>
      </trkpt>
      <trkpt lat="41.514992000" lon="1.888582000">
        <ele>113.20</ele>
        <time>2013-05-09T11:42:45Z</time>
      </trkpt>
      <trkpt lat="41.515027000" lon="1.888891000">
        <ele>112.90</ele>
        <time>2013-05-09T11:42:49Z</time>
      </trkpt>
      <trkpt lat="41.514903000" lon="1.889128000">
        <ele>113.10</ele>
        <time>2013-05-09T11:42:54Z</time>
      </trkpt>
      <trkpt lat="41.514772000" lon="1.889368000">
        <ele>112.20</ele>
        <time>2013-05-09T11:42:59Z</time>
      </trkpt>
      <trkpt lat="41.514639000" lon="1.889582000">
        <ele>112.40</ele>
        <time>2013-05-09T11:43:03Z</time>
      </trkpt>
      <trkpt lat="41.514518000" lon="1.889776000">
        <ele>111.80</ele>
        <time>2013-05-09T11:43:07Z</time>
      </trkpt>
      <trkpt lat="41.514468000" lon="1.890026000">
        <ele>111.50</ele>
        <time>2013-05-09T11:43:11Z</time>
      </trkpt>
      <trkpt lat="41.514506000" lon="1.890276000">
        <ele>111.60</ele>
        <time>2013-05-09T11:43:25Z</time>
      </trkpt>
      <trkpt lat="41.514571000" lon="1.890544000">
        <ele>111.00</ele>
        <time>2013-05-09T11:43:41Z</time>
      </trkpt>
      <trkpt lat="41.514502000" lon="1.890585000">
        <ele>111.20</ele>
        <time>2013-05-09T11:44:01Z</time>
      </trkpt>
      <trkpt lat="41.514354000" lon="1.890740000">
        <ele>109.40</ele>
        <time>2013-05-09T11:44:10Z</time>
      </trkpt>
      <trkpt lat="41.514278000" lon="1.890996000">
        <ele>108.70</ele>
        <time>2013-05-09T11:44:15Z</time>
      </trkpt>
      <trkpt lat="41.514317000" lon="1.891274000">
        <ele>109.40</ele>
        <time>2013-05-09T11:44:21Z</time>
      </trkpt>
      <trkpt lat="41.514267000" lon="1.891548000">
        <ele>108.20</ele>
        <time>2013-05-09T11:44:27Z</time>
      </trkpt>
      <trkpt lat="41.514154000" lon="1.891754000">
        <ele>108.20</ele>
        <time>2013-05-09T11:44:33Z</time>
      </trkpt>
      <trkpt lat="41.513994000" lon="1.892021000">
        <ele>109.60</ele>
        <time>2013-05-09T11:44:41Z</time>
      </trkpt>
      <trkpt lat="41.513981000" lon="1.892299000">
        <ele>109.60</ele>
        <time>2013-05-09T11:44:50Z</time>
      </trkpt>
      <trkpt lat="41.513977000" lon="1.892567000">
        <ele>106.50</ele>
        <time>2013-05-09T11:44:54Z</time>
      </trkpt>
      <trkpt lat="41.514068000" lon="1.892803000">
        <ele>104.90</ele>
        <time>2013-05-09T11:44:58Z</time>
      </trkpt>
      <trkpt lat="41.514166000" lon="1.893007000">
        <ele>103.90</ele>
        <time>2013-05-09T11:45:04Z</time>
      </trkpt>
      <trkpt lat="41.514306000" lon="1.893155000">
        <ele>104.80</ele>
        <time>2013-05-09T11:45:10Z</time>
      </trkpt>
      <trkpt lat="41.514463000" lon="1.893348000">
        <ele>107.10</ele>
        <time>2013-05-09T11:45:18Z</time>
      </trkpt>
      <trkpt lat="41.514540000" lon="1.893597000">
        <ele>105.60</ele>
        <time>2013-05-09T11:45:24Z</time>
      </trkpt>
      <trkpt lat="41.514364000" lon="1.893789000">
        <ele>101.80</ele>
        <time>2013-05-09T11:45:29Z</time>
      </trkpt>
      <trkpt lat="41.514150000" lon="1.893808000">
        <ele>101.40</ele>
        <time>2013-05-09T11:45:34Z</time>
      </trkpt>
      <trkpt lat="41.514024000" lon="1.893982000">
        <ele>100.90</ele>
        <time>2013-05-09T11:45:40Z</time>
      </trkpt>
      <trkpt lat="41.513907000" lon="1.894222000">
        <ele>100.60</ele>
        <time>2013-05-09T11:45:53Z</time>
      </trkpt>
      <trkpt lat="41.513940000" lon="1.894491000">
        <ele>103.90</ele>
        <time>2013-05-09T11:46:02Z</time>
      </trkpt>
      <trkpt lat="41.514031000" lon="1.894707000">
        <ele>106.30</ele>
        <time>2013-05-09T11:46:10Z</time>
      </trkpt>
      <trkpt lat="41.514120000" lon="1.894956000">
        <ele>107.70</ele>
        <time>2013-05-09T11:46:20Z</time>
      </trkpt>
      <trkpt lat="41.514186000" lon="1.895193000">
        <ele>109.80</ele>
        <time>2013-05-09T11:46:29Z</time>
      </trkpt>
      <trkpt lat="41.514161000" lon="1.895425000">
        <ele>111.80</ele>
        <time>2013-05-09T11:46:37Z</time>
      </trkpt>
      <trkpt lat="41.514137000" lon="1.895703000">
        <ele>112.20</ele>
        <time>2013-05-09T11:46:46Z</time>
      </trkpt>
      <trkpt lat="41.514168000" lon="1.895939000">
        <ele>114.10</ele>
        <time>2013-05-09T11:46:53Z</time>
      </trkpt>
      <trkpt lat="41.514144000" lon="1.896165000">
        <ele>116.10</ele>
        <time>2013-05-09T11:47:07Z</time>
      </trkpt>
      <trkpt lat="41.514056000" lon="1.896369000">
        <ele>114.40</ele>
        <time>2013-05-09T11:48:02Z</time>
      </trkpt>
      <trkpt lat="41.513963000" lon="1.896600000">
        <ele>113.50</ele>
        <time>2013-05-09T11:48:08Z</time>
      </trkpt>
      <trkpt lat="41.513917000" lon="1.896843000">
        <ele>111.80</ele>
        <time>2013-05-09T11:48:14Z</time>
      </trkpt>
      <trkpt lat="41.514057000" lon="1.897014000">
        <ele>114.30</ele>
        <time>2013-05-09T11:48:22Z</time>
      </trkpt>
      <trkpt lat="41.514162000" lon="1.897208000">
        <ele>115.00</ele>
        <time>2013-05-09T11:48:32Z</time>
      </trkpt>
      <trkpt lat="41.514282000" lon="1.897439000">
        <ele>115.60</ele>
        <time>2013-05-09T11:48:41Z</time>
      </trkpt>
      <trkpt lat="41.514340000" lon="1.897671000">
        <ele>115.80</ele>
        <time>2013-05-09T11:48:48Z</time>
      </trkpt>
      <trkpt lat="41.514404000" lon="1.897918000">
        <ele>115.70</ele>
        <time>2013-05-09T11:48:54Z</time>
      </trkpt>
      <trkpt lat="41.514458000" lon="1.898166000">
        <ele>115.60</ele>
        <time>2013-05-09T11:49:00Z</time>
      </trkpt>
      <trkpt lat="41.514524000" lon="1.898413000">
        <ele>115.90</ele>
        <time>2013-05-09T11:49:06Z</time>
      </trkpt>
      <trkpt lat="41.514592000" lon="1.898671000">
        <ele>116.20</ele>
        <time>2013-05-09T11:49:12Z</time>
      </trkpt>
      <trkpt lat="41.514662000" lon="1.898941000">
        <ele>115.50</ele>
        <time>2013-05-09T11:49:18Z</time>
      </trkpt>
      <trkpt lat="41.514720000" lon="1.899186000">
        <ele>115.90</ele>
        <time>2013-05-09T11:49:24Z</time>
      </trkpt>
      <trkpt lat="41.514856000" lon="1.899295000">
        <ele>115.70</ele>
        <time>2013-05-09T11:49:43Z</time>
      </trkpt>
      <trkpt lat="41.515048000" lon="1.899186000">
        <ele>115.60</ele>
        <time>2013-05-09T11:49:49Z</time>
      </trkpt>
      <trkpt lat="41.515237000" lon="1.899077000">
        <ele>115.00</ele>
        <time>2013-05-09T11:49:54Z</time>
      </trkpt>
      <trkpt lat="41.515417000" lon="1.898973000">
        <ele>114.10</ele>
        <time>2013-05-09T11:49:58Z</time>
      </trkpt>
      <trkpt lat="41.515621000" lon="1.898866000">
        <ele>113.50</ele>
        <time>2013-05-09T11:50:02Z</time>
      </trkpt>
      <trkpt lat="41.515785000" lon="1.898927000">
        <ele>112.50</ele>
        <time>2013-05-09T11:50:06Z</time>
      </trkpt>
      <trkpt lat="41.515830000" lon="1.899184000">
        <ele>112.20</ele>
        <time>2013-05-09T11:50:10Z</time>
      </trkpt>
      <trkpt lat="41.515854000" lon="1.899447000">
        <ele>111.90</ele>
        <time>2013-05-09T11:50:14Z</time>
      </trkpt>
      <trkpt lat="41.515885000" lon="1.899706000">
        <ele>111.70</ele>
        <time>2013-05-09T11:50:18Z</time>
      </trkpt>
      <trkpt lat="41.515911000" lon="1.899974000">
        <ele>110.40</ele>
        <time>2013-05-09T11:50:22Z</time>
      </trkpt>
      <trkpt lat="41.515936000" lon="1.900245000">
        <ele>110.40</ele>
        <time>2013-05-09T11:50:26Z</time>
      </trkpt>
      <trkpt lat="41.515974000" lon="1.900506000">
        <ele>109.70</ele>
        <time>2013-05-09T11:50:30Z</time>
      </trkpt>
      <trkpt lat="41.515978000" lon="1.900741000">
        <ele>109.70</ele>
        <time>2013-05-09T11:50:36Z</time>
      </trkpt>
      <trkpt lat="41.516022000" lon="1.900978000">
        <ele>108.80</ele>
        <time>2013-05-09T11:50:41Z</time>
      </trkpt>
      <trkpt lat="41.516058000" lon="1.901269000">
        <ele>107.60</ele>
        <time>2013-05-09T11:50:46Z</time>
      </trkpt>
      <trkpt lat="41.516082000" lon="1.901512000">
        <ele>107.10</ele>
        <time>2013-05-09T11:50:50Z</time>
      </trkpt>
      <trkpt lat="41.516111000" lon="1.901761000">
        <ele>106.00</ele>
        <time>2013-05-09T11:50:54Z</time>
      </trkpt>
      <trkpt lat="41.516188000" lon="1.902024000">
        <ele>104.30</ele>
        <time>2013-05-09T11:50:58Z</time>
      </trkpt>
      <trkpt lat="41.516322000" lon="1.902224000">
        <ele>102.20</ele>
        <time>2013-05-09T11:51:02Z</time>
      </trkpt>
      <trkpt lat="41.516509000" lon="1.902099000">
        <ele>101.00</ele>
        <time>2013-05-09T11:51:07Z</time>
      </trkpt>
      <trkpt lat="41.516685000" lon="1.901999000">
        <ele>99.80</ele>
        <time>2013-05-09T11:51:14Z</time>
      </trkpt>
      <trkpt lat="41.516797000" lon="1.902107000">
        <ele>98.70</ele>
        <time>2013-05-09T11:51:21Z</time>
      </trkpt>
      <trkpt lat="41.516809000" lon="1.902383000">
        <ele>97.70</ele>
        <time>2013-05-09T11:51:27Z</time>
      </trkpt>
      <trkpt lat="41.516774000" lon="1.902664000">
        <ele>96.80</ele>
        <time>2013-05-09T11:51:32Z</time>
      </trkpt>
      <trkpt lat="41.516744000" lon="1.902925000">
        <ele>96.20</ele>
        <time>2013-05-09T11:51:37Z</time>
      </trkpt>
      <trkpt lat="41.516790000" lon="1.903162000">
        <ele>95.90</ele>
        <time>2013-05-09T11:51:43Z</time>
      </trkpt>
      <trkpt lat="41.516845000" lon="1.903200000">
        <ele>95.70</ele>
        <time>2013-05-09T11:51:55Z</time>
      </trkpt>
      <trkpt lat="41.516748000" lon="1.902994000">
        <ele>95.80</ele>
        <time>2013-05-09T11:52:02Z</time>
      </trkpt>
      <trkpt lat="41.516888000" lon="1.902866000">
        <ele>95.90</ele>
        <time>2013-05-09T11:52:08Z</time>
      </trkpt>
      <trkpt lat="41.516911000" lon="1.902609000">
        <ele>96.70</ele>
        <time>2013-05-09T11:52:13Z</time>
      </trkpt>
      <trkpt lat="41.516891000" lon="1.902369000">
        <ele>97.80</ele>
        <time>2013-05-09T11:52:18Z</time>
      </trkpt>
      <trkpt lat="41.516840000" lon="1.902126000">
        <ele>98.30</ele>
        <time>2013-05-09T11:52:23Z</time>
      </trkpt>
      <trkpt lat="41.516765000" lon="1.901983000">
        <ele>99.60</ele>
        <time>2013-05-09T11:52:31Z</time>
      </trkpt>
      <trkpt lat="41.516685000" lon="1.902242000">
        <ele>100.30</ele>
        <time>2013-05-09T11:52:38Z</time>
      </trkpt>
      <trkpt lat="41.516663000" lon="1.902488000">
        <ele>100.70</ele>
        <time>2013-05-09T11:52:43Z</time>
      </trkpt>
      <trkpt lat="41.516576000" lon="1.902699000">
        <ele>101.40</ele>
        <time>2013-05-09T11:52:48Z</time>
      </trkpt>
      <trkpt lat="41.516413000" lon="1.902823000">
        <ele>102.30</ele>
        <time>2013-05-09T11:52:53Z</time>
      </trkpt>
      <trkpt lat="41.516229000" lon="1.902859000">
        <ele>103.40</ele>
        <time>2013-05-09T11:52:58Z</time>
      </trkpt>
      <trkpt lat="41.516041000" lon="1.902872000">
        <ele>104.20</ele>
        <time>2013-05-09T11:53:03Z</time>
      </trkpt>
      <trkpt lat="41.516053000" lon="1.903129000">
        <ele>104.10</ele>
        <time>2013-05-09T11:53:09Z</time>
      </trkpt>
      <trkpt lat="41.516106000" lon="1.903386000">
        <ele>104.00</ele>
        <time>2013-05-09T11:53:14Z</time>
      </trkpt>
      <trkpt lat="41.516165000" lon="1.903634000">
        <ele>104.10</ele>
        <time>2013-05-09T11:53:20Z</time>
      </trkpt>
      <trkpt lat="41.516227000" lon="1.903864000">
        <ele>103.30</ele>
        <time>2013-05-09T11:53:25Z</time>
      </trkpt>
      <trkpt lat="41.516281000" lon="1.904100000">
        <ele>103.00</ele>
        <time>2013-05-09T11:53:29Z</time>
      </trkpt>
      <trkpt lat="41.516341000" lon="1.904353000">
        <ele>102.30</ele>
        <time>2013-05-09T11:53:33Z</time>
      </trkpt>
      <trkpt lat="41.516407000" lon="1.904625000">
        <ele>101.20</ele>
        <time>2013-05-09T11:53:37Z</time>
      </trkpt>
      <trkpt lat="41.516445000" lon="1.904892000">
        <ele>101.20</ele>
        <time>2013-05-09T11:53:41Z</time>
      </trkpt>
      <trkpt lat="41.516376000" lon="1.905187000">
        <ele>99.50</ele>
        <time>2013-05-09T11:53:46Z</time>
      </trkpt>
      <trkpt lat="41.516293000" lon="1.905448000">
        <ele>98.70</ele>
        <time>2013-05-09T11:53:50Z</time>
      </trkpt>
      <trkpt lat="41.516215000" lon="1.905716000">
        <ele>97.90</ele>
        <time>2013-05-09T11:53:54Z</time>
      </trkpt>
      <trkpt lat="41.516126000" lon="1.905992000">
        <ele>97.50</ele>
        <time>2013-05-09T11:53:58Z</time>
      </trkpt>
      <trkpt lat="41.516040000" lon="1.906222000">
        <ele>97.20</ele>
        <time>2013-05-09T11:54:02Z</time>
      </trkpt>
      <trkpt lat="41.515893000" lon="1.906400000">
        <ele>97.40</ele>
        <time>2013-05-09T11:54:07Z</time>
      </trkpt>
      <trkpt lat="41.515765000" lon="1.906300000">
        <ele>95.70</ele>
        <time>2013-05-09T11:54:13Z</time>
      </trkpt>
      <trkpt lat="41.515625000" lon="1.906252000">
        <ele>92.90</ele>
        <time>2013-05-09T11:54:20Z</time>
      </trkpt>
      <trkpt lat="41.515493000" lon="1.906449000">
        <ele>91.60</ele>
        <time>2013-05-09T11:54:25Z</time>
      </trkpt>
      <trkpt lat="41.515324000" lon="1.906628000">
        <ele>87.30</ele>
        <time>2013-05-09T11:54:30Z</time>
      </trkpt>
      <trkpt lat="41.515157000" lon="1.906746000">
        <ele>84.30</ele>
        <time>2013-05-09T11:54:34Z</time>
      </trkpt>
      <trkpt lat="41.515229000" lon="1.907015000">
        <ele>84.00</ele>
        <time>2013-05-09T11:54:39Z</time>
      </trkpt>
      <trkpt lat="41.515381000" lon="1.907221000">
        <ele>84.10</ele>
        <time>2013-05-09T11:54:44Z</time>
      </trkpt>
      <trkpt lat="41.515573000" lon="1.907322000">
        <ele>84.00</ele>
        <time>2013-05-09T11:54:49Z</time>
      </trkpt>
      <trkpt lat="41.515783000" lon="1.907351000">
        <ele>84.60</ele>
        <time>2013-05-09T11:54:54Z</time>
      </trkpt>
      <trkpt lat="41.515979000" lon="1.907295000">
        <ele>84.90</ele>
        <time>2013-05-09T11:54:59Z</time>
      </trkpt>
      <trkpt lat="41.516181000" lon="1.907184000">
        <ele>85.00</ele>
        <time>2013-05-09T11:55:04Z</time>
      </trkpt>
      <trkpt lat="41.516393000" lon="1.907089000">
        <ele>85.00</ele>
        <time>2013-05-09T11:55:09Z</time>
      </trkpt>
      <trkpt lat="41.516573000" lon="1.907012000">
        <ele>85.30</ele>
        <time>2013-05-09T11:55:13Z</time>
      </trkpt>
      <trkpt lat="41.516760000" lon="1.906926000">
        <ele>84.90</ele>
        <time>2013-05-09T11:55:17Z</time>
      </trkpt>
      <trkpt lat="41.516939000" lon="1.906844000">
        <ele>85.00</ele>
        <time>2013-05-09T11:55:21Z</time>
      </trkpt>
      <trkpt lat="41.517131000" lon="1.906768000">
        <ele>85.40</ele>
        <time>2013-05-09T11:55:25Z</time>
      </trkpt>
      <trkpt lat="41.517303000" lon="1.906680000">
        <ele>86.50</ele>
        <time>2013-05-09T11:55:29Z</time>
      </trkpt>
      <trkpt lat="41.517493000" lon="1.906598000">
        <ele>88.30</ele>
        <time>2013-05-09T11:55:34Z</time>
      </trkpt>
      <trkpt lat="41.517679000" lon="1.906515000">
        <ele>89.80</ele>
        <time>2013-05-09T11:55:39Z</time>
      </trkpt>
      <trkpt lat="41.517860000" lon="1.906446000">
        <ele>91.50</ele>
        <time>2013-05-09T11:55:44Z</time>
      </trkpt>
      <trkpt lat="41.518049000" lon="1.906437000">
        <ele>92.60</ele>
        <time>2013-05-09T11:55:50Z</time>
      </trkpt>
      <trkpt lat="41.518230000" lon="1.906506000">
        <ele>93.20</ele>
        <time>2013-05-09T11:55:56Z</time>
      </trkpt>
      <trkpt lat="41.518409000" lon="1.906489000">
        <ele>93.20</ele>
        <time>2013-05-09T11:56:04Z</time>
      </trkpt>
      <trkpt lat="41.518616000" lon="1.906567000">
        <ele>92.20</ele>
        <time>2013-05-09T11:56:11Z</time>
      </trkpt>
      <trkpt lat="41.518820000" lon="1.906638000">
        <ele>90.70</ele>
        <time>2013-05-09T11:56:16Z</time>
      </trkpt>
      <trkpt lat="41.519053000" lon="1.906637000">
        <ele>88.20</ele>
        <time>2013-05-09T11:56:20Z</time>
      </trkpt>
      <trkpt lat="41.519263000" lon="1.906647000">
        <ele>86.20</ele>
        <time>2013-05-09T11:56:23Z</time>
      </trkpt>
      <trkpt lat="41.519488000" lon="1.906648000">
        <ele>85.10</ele>
        <time>2013-05-09T11:56:26Z</time>
      </trkpt>
      <trkpt lat="41.519708000" lon="1.906651000">
        <ele>85.40</ele>
        <time>2013-05-09T11:56:29Z</time>
      </trkpt>
      <trkpt lat="41.519903000" lon="1.906660000">
        <ele>85.40</ele>
        <time>2013-05-09T11:56:32Z</time>
      </trkpt>
      <trkpt lat="41.520089000" lon="1.906659000">
        <ele>85.60</ele>
        <time>2013-05-09T11:56:35Z</time>
      </trkpt>
      <trkpt lat="41.520317000" lon="1.906655000">
        <ele>85.60</ele>
        <time>2013-05-09T11:56:39Z</time>
      </trkpt>
      <trkpt lat="41.520525000" lon="1.906645000">
        <ele>85.60</ele>
        <time>2013-05-09T11:56:43Z</time>
      </trkpt>
      <trkpt lat="41.520720000" lon="1.906637000">
        <ele>85.50</ele>
        <time>2013-05-09T11:56:47Z</time>
      </trkpt>
      <trkpt lat="41.520933000" lon="1.906631000">
        <ele>85.30</ele>
        <time>2013-05-09T11:56:51Z</time>
      </trkpt>
      <trkpt lat="41.521151000" lon="1.906626000">
        <ele>85.20</ele>
        <time>2013-05-09T11:56:55Z</time>
      </trkpt>
      <trkpt lat="41.521360000" lon="1.906602000">
        <ele>85.20</ele>
        <time>2013-05-09T11:56:59Z</time>
      </trkpt>
      <trkpt lat="41.521569000" lon="1.906552000">
        <ele>85.60</ele>
        <time>2013-05-09T11:57:03Z</time>
      </trkpt>
      <trkpt lat="41.521767000" lon="1.906503000">
        <ele>85.90</ele>
        <time>2013-05-09T11:57:07Z</time>
      </trkpt>
      <trkpt lat="41.521959000" lon="1.906449000">
        <ele>86.10</ele>
        <time>2013-05-09T11:57:11Z</time>
      </trkpt>
      <trkpt lat="41.522152000" lon="1.906398000">
        <ele>86.30</ele>
        <time>2013-05-09T11:57:15Z</time>
      </trkpt>
      <trkpt lat="41.522344000" lon="1.906353000">
        <ele>86.80</ele>
        <time>2013-05-09T11:57:20Z</time>
      </trkpt>
      <trkpt lat="41.522518000" lon="1.906394000">
        <ele>86.70</ele>
        <time>2013-05-09T11:57:54Z</time>
      </trkpt>
      <trkpt lat="41.522668000" lon="1.906591000">
        <ele>85.40</ele>
        <time>2013-05-09T11:57:59Z</time>
      </trkpt>
      <trkpt lat="41.522825000" lon="1.906714000">
        <ele>85.80</ele>
        <time>2013-05-09T11:58:05Z</time>
      </trkpt>
      <trkpt lat="41.523027000" lon="1.906712000">
        <ele>87.30</ele>
        <time>2013-05-09T11:58:12Z</time>
      </trkpt>
      <trkpt lat="41.523208000" lon="1.906705000">
        <ele>88.80</ele>
        <time>2013-05-09T11:58:19Z</time>
      </trkpt>
      <trkpt lat="41.523172000" lon="1.906734000">
        <ele>90.50</ele>
        <time>2013-05-09T11:58:31Z</time>
      </trkpt>
      <trkpt lat="41.523063000" lon="1.906861000">
        <ele>91.30</ele>
        <time>2013-05-09T11:58:41Z</time>
      </trkpt>
      <trkpt lat="41.523242000" lon="1.906924000">
        <ele>90.00</ele>
        <time>2013-05-09T11:58:50Z</time>
      </trkpt>
      <trkpt lat="41.523184000" lon="1.906949000">
        <ele>88.50</ele>
        <time>2013-05-09T11:58:58Z</time>
      </trkpt>
      <trkpt lat="41.522987000" lon="1.906947000">
        <ele>87.00</ele>
        <time>2013-05-09T11:59:03Z</time>
      </trkpt>
      <trkpt lat="41.522773000" lon="1.906935000">
        <ele>85.30</ele>
        <time>2013-05-09T11:59:09Z</time>
      </trkpt>
      <trkpt lat="41.522811000" lon="1.907016000">
        <ele>85.40</ele>
        <time>2013-05-09T11:59:17Z</time>
      </trkpt>
      <trkpt lat="41.522938000" lon="1.907146000">
        <ele>84.90</ele>
        <time>2013-05-09T11:59:25Z</time>
      </trkpt>
      <trkpt lat="41.522989000" lon="1.907392000">
        <ele>84.80</ele>
        <time>2013-05-09T11:59:31Z</time>
      </trkpt>
      <trkpt lat="41.523041000" lon="1.907645000">
        <ele>84.90</ele>
        <time>2013-05-09T11:59:37Z</time>
      </trkpt>
      <trkpt lat="41.523158000" lon="1.907894000">
        <ele>84.20</ele>
        <time>2013-05-09T11:59:42Z</time>
      </trkpt>
      <trkpt lat="41.523309000" lon="1.908109000">
        <ele>83.50</ele>
        <time>2013-05-09T11:59:47Z</time>
      </trkpt>
      <trkpt lat="41.523426000" lon="1.908297000">
        <ele>83.40</ele>
        <time>2013-05-09T11:59:51Z</time>
      </trkpt>
      <trkpt lat="41.523535000" lon="1.908494000">
        <ele>83.10</ele>
        <time>2013-05-09T11:59:55Z</time>
      </trkpt>
      <trkpt lat="41.523655000" lon="1.908683000">
        <ele>82.80</ele>
        <time>2013-05-09T11:59:59Z</time>
      </trkpt>
      <trkpt lat="41.523714000" lon="1.908921000">
        <ele>82.20</ele>
        <time>2013-05-09T12:00:03Z</time>
      </trkpt>
      <trkpt lat="41.523721000" lon="1.909189000">
        <ele>81.80</ele>
        <time>2013-05-09T12:00:08Z</time>
      </trkpt>
      <trkpt lat="41.523904000" lon="1.909079000">
        <ele>82.90</ele>
        <time>2013-05-09T12:00:18Z</time>
      </trkpt>
      <trkpt lat="41.524109000" lon="1.909080000">
        <ele>83.60</ele>
        <time>2013-05-09T12:00:24Z</time>
      </trkpt>
      <trkpt lat="41.524313000" lon="1.909078000">
        <ele>84.00</ele>
        <time>2013-05-09T12:00:30Z</time>
      </trkpt>
      <trkpt lat="41.524508000" lon="1.909096000">
        <ele>84.80</ele>
        <time>2013-05-09T12:00:36Z</time>
      </trkpt>
      <trkpt lat="41.524682000" lon="1.909125000">
        <ele>85.20</ele>
        <time>2013-05-09T12:00:47Z</time>
      </trkpt>
      <trkpt lat="41.524843000" lon="1.908996000">
        <ele>81.10</ele>
        <time>2013-05-09T12:01:01Z</time>
      </trkpt>
      <trkpt lat="41.524933000" lon="1.908963000">
        <ele>77.90</ele>
        <time>2013-05-09T12:01:30Z</time>
      </trkpt>
      <trkpt lat="41.525053000" lon="1.909198000">
        <ele>74.60</ele>
        <time>2013-05-09T12:01:36Z</time>
      </trkpt>
      <trkpt lat="41.525174000" lon="1.909393000">
        <ele>71.30</ele>
        <time>2013-05-09T12:01:40Z</time>
      </trkpt>
      <trkpt lat="41.525351000" lon="1.909602000">
        <ele>68.00</ele>
        <time>2013-05-09T12:01:44Z</time>
      </trkpt>
      <trkpt lat="41.525524000" lon="1.909720000">
        <ele>66.60</ele>
        <time>2013-05-09T12:01:47Z</time>
      </trkpt>
      <trkpt lat="41.525752000" lon="1.909796000">
        <ele>66.20</ele>
        <time>2013-05-09T12:01:51Z</time>
      </trkpt>
      <trkpt lat="41.525958000" lon="1.909782000">
        <ele>66.70</ele>
        <time>2013-05-09T12:01:57Z</time>
      </trkpt>
      <trkpt lat="41.526175000" lon="1.909808000">
        <ele>66.90</ele>
        <time>2013-05-09T12:02:04Z</time>
      </trkpt>
      <trkpt lat="41.526383000" lon="1.909847000">
        <ele>67.00</ele>
        <time>2013-05-09T12:02:10Z</time>
      </trkpt>
      <trkpt lat="41.526566000" lon="1.909893000">
        <ele>67.10</ele>
        <time>2013-05-09T12:02:15Z</time>
      </trkpt>
      <trkpt lat="41.526756000" lon="1.909962000">
        <ele>67.20</ele>
        <time>2013-05-09T12:02:20Z</time>
      </trkpt>
      <trkpt lat="41.526943000" lon="1.910015000">
        <ele>67.20</ele>
        <time>2013-05-09T12:02:25Z</time>
      </trkpt>
      <trkpt lat="41.527143000" lon="1.910002000">
        <ele>67.20</ele>
        <time>2013-05-09T12:02:30Z</time>
      </trkpt>
      <trkpt lat="41.527324000" lon="1.909922000">
        <ele>67.50</ele>
        <time>2013-05-09T12:02:35Z</time>
      </trkpt>
      <trkpt lat="41.527517000" lon="1.909850000">
        <ele>69.50</ele>
        <time>2013-05-09T12:02:41Z</time>
      </trkpt>
      <trkpt lat="41.527721000" lon="1.909862000">
        <ele>69.30</ele>
        <time>2013-05-09T12:02:47Z</time>
      </trkpt>
      <trkpt lat="41.527911000" lon="1.909853000">
        <ele>68.90</ele>
        <time>2013-05-09T12:02:53Z</time>
      </trkpt>
      <trkpt lat="41.528091000" lon="1.909945000">
        <ele>68.60</ele>
        <time>2013-05-09T12:02:59Z</time>
      </trkpt>
      <trkpt lat="41.528181000" lon="1.910191000">
        <ele>68.20</ele>
        <time>2013-05-09T12:03:05Z</time>
      </trkpt>
      <trkpt lat="41.528246000" lon="1.910413000">
        <ele>68.10</ele>
        <time>2013-05-09T12:03:13Z</time>
      </trkpt>
      <trkpt lat="41.528402000" lon="1.910501000">
        <ele>66.90</ele>
        <time>2013-05-09T12:03:20Z</time>
      </trkpt>
      <trkpt lat="41.528609000" lon="1.910553000">
        <ele>67.00</ele>
        <time>2013-05-09T12:03:26Z</time>
      </trkpt>
      <trkpt lat="41.528826000" lon="1.910626000">
        <ele>66.40</ele>
        <time>2013-05-09T12:03:32Z</time>
      </trkpt>
      <trkpt lat="41.529005000" lon="1.910686000">
        <ele>66.30</ele>
        <time>2013-05-09T12:03:37Z</time>
      </trkpt>
      <trkpt lat="41.529200000" lon="1.910651000">
        <ele>66.00</ele>
        <time>2013-05-09T12:03:43Z</time>
      </trkpt>
      <trkpt lat="41.529300000" lon="1.910398000">
        <ele>66.20</ele>
        <time>2013-05-09T12:03:49Z</time>
      </trkpt>
      <trkpt lat="41.529351000" lon="1.910155000">
        <ele>66.20</ele>
        <time>2013-05-09T12:03:54Z</time>
      </trkpt>
      <trkpt lat="41.529415000" lon="1.909901000">
        <ele>66.20</ele>
        <time>2013-05-09T12:03:59Z</time>
      </trkpt>
      <trkpt lat="41.529475000" lon="1.909656000">
        <ele>66.20</ele>
        <time>2013-05-09T12:04:04Z</time>
      </trkpt>
      <trkpt lat="41.529517000" lon="1.909400000">
        <ele>66.30</ele>
        <time>2013-05-09T12:04:09Z</time>
      </trkpt>
      <trkpt lat="41.529565000" lon="1.909133000">
        <ele>66.40</ele>
        <time>2013-05-09T12:04:14Z</time>
      </trkpt>
      <trkpt lat="41.529609000" lon="1.908870000">
        <ele>66.60</ele>
        <time>2013-05-09T12:04:19Z</time>
      </trkpt>
      <trkpt lat="41.529643000" lon="1.908597000">
        <ele>65.80</ele>
        <time>2013-05-09T12:04:24Z</time>
      </trkpt>
      <trkpt lat="41.529782000" lon="1.908404000">
        <ele>64.40</ele>
        <time>2013-05-09T12:04:28Z</time>
      </trkpt>
      <trkpt lat="41.529981000" lon="1.908303000">
        <ele>65.30</ele>
        <time>2013-05-09T12:04:33Z</time>
      </trkpt>
      <trkpt lat="41.530173000" lon="1.908236000">
        <ele>65.90</ele>
        <time>2013-05-09T12:04:38Z</time>
      </trkpt>
      <trkpt lat="41.530316000" lon="1.908090000">
        <ele>67.70</ele>
        <time>2013-05-09T12:04:43Z</time>
      </trkpt>
      <trkpt lat="41.530317000" lon="1.907823000">
        <ele>69.30</ele>
        <time>2013-05-09T12:04:49Z</time>
      </trkpt>
      <trkpt lat="41.530260000" lon="1.907562000">
        <ele>69.90</ele>
        <time>2013-05-09T12:04:55Z</time>
      </trkpt>
      <trkpt lat="41.530197000" lon="1.907310000">
        <ele>71.10</ele>
        <time>2013-05-09T12:05:01Z</time>
      </trkpt>
      <trkpt lat="41.530137000" lon="1.907042000">
        <ele>71.60</ele>
        <time>2013-05-09T12:05:07Z</time>
      </trkpt>
      <trkpt lat="41.530094000" lon="1.906781000">
        <ele>72.80</ele>
        <time>2013-05-09T12:05:13Z</time>
      </trkpt>
      <trkpt lat="41.530084000" lon="1.906536000">
        <ele>75.20</ele>
        <time>2013-05-09T12:05:19Z</time>
      </trkpt>
      <trkpt lat="41.530020000" lon="1.906322000">
        <ele>75.80</ele>
        <time>2013-05-09T12:05:25Z</time>
      </trkpt>
      <trkpt lat="41.529946000" lon="1.906062000">
        <ele>76.70</ele>
        <time>2013-05-09T12:05:32Z</time>
      </trkpt>
      <trkpt lat="41.529891000" lon="1.905786000">
        <ele>77.30</ele>
        <time>2013-05-09T12:05:39Z</time>
      </trkpt>
      <trkpt lat="41.529870000" lon="1.905516000">
        <ele>77.90</ele>
        <time>2013-05-09T12:05:46Z</time>
      </trkpt>
      <trkpt lat="41.529916000" lon="1.905273000">
        <ele>80.40</ele>
        <time>2013-05-09T12:05:53Z</time>
      </trkpt>
      <trkpt lat="41.530012000" lon="1.905071000">
        <ele>83.20</ele>
        <time>2013-05-09T12:06:01Z</time>
      </trkpt>
      <trkpt lat="41.530161000" lon="1.904942000">
        <ele>83.80</ele>
        <time>2013-05-09T12:06:09Z</time>
      </trkpt>
      <trkpt lat="41.530356000" lon="1.904814000">
        <ele>84.00</ele>
        <time>2013-05-09T12:06:16Z</time>
      </trkpt>
      <trkpt lat="41.530535000" lon="1.904657000">
        <ele>83.70</ele>
        <time>2013-05-09T12:06:22Z</time>
      </trkpt>
      <trkpt lat="41.530706000" lon="1.904569000">
        <ele>83.90</ele>
        <time>2013-05-09T12:06:27Z</time>
      </trkpt>
      <trkpt lat="41.530888000" lon="1.904447000">
        <ele>83.70</ele>
        <time>2013-05-09T12:06:32Z</time>
      </trkpt>
      <trkpt lat="41.531069000" lon="1.904293000">
        <ele>83.70</ele>
        <time>2013-05-09T12:06:37Z</time>
      </trkpt>
      <trkpt lat="41.531242000" lon="1.904136000">
        <ele>83.50</ele>
        <time>2013-05-09T12:06:41Z</time>
      </trkpt>
      <trkpt lat="41.531402000" lon="1.903953000">
        <ele>83.10</ele>
        <time>2013-05-09T12:06:45Z</time>
      </trkpt>
      <trkpt lat="41.531567000" lon="1.903740000">
        <ele>82.90</ele>
        <time>2013-05-09T12:06:49Z</time>
      </trkpt>
      <trkpt lat="41.531682000" lon="1.903542000">
        <ele>82.80</ele>
        <time>2013-05-09T12:06:52Z</time>
      </trkpt>
      <trkpt lat="41.531788000" lon="1.903329000">
        <ele>82.40</ele>
        <time>2013-05-09T12:06:55Z</time>
      </trkpt>
      <trkpt lat="41.531886000" lon="1.903111000">
        <ele>82.40</ele>
        <time>2013-05-09T12:06:58Z</time>
      </trkpt>
      <trkpt lat="41.531982000" lon="1.902874000">
        <ele>81.80</ele>
        <time>2013-05-09T12:07:01Z</time>
      </trkpt>
      <trkpt lat="41.532084000" lon="1.902633000">
        <ele>81.30</ele>
        <time>2013-05-09T12:07:04Z</time>
      </trkpt>
      <trkpt lat="41.532183000" lon="1.902386000">
        <ele>81.10</ele>
        <time>2013-05-09T12:07:07Z</time>
      </trkpt>
      <trkpt lat="41.532286000" lon="1.902141000">
        <ele>81.00</ele>
        <time>2013-05-09T12:07:10Z</time>
      </trkpt>
      <trkpt lat="41.532398000" lon="1.901885000">
        <ele>80.70</ele>
        <time>2013-05-09T12:07:13Z</time>
      </trkpt>
      <trkpt lat="41.532507000" lon="1.901638000">
        <ele>80.40</ele>
        <time>2013-05-09T12:07:16Z</time>
      </trkpt>
      <trkpt lat="41.532626000" lon="1.901408000">
        <ele>80.20</ele>
        <time>2013-05-09T12:07:19Z</time>
      </trkpt>
      <trkpt lat="41.532764000" lon="1.901199000">
        <ele>80.00</ele>
        <time>2013-05-09T12:07:22Z</time>
      </trkpt>
      <trkpt lat="41.532917000" lon="1.900992000">
        <ele>80.50</ele>
        <time>2013-05-09T12:07:25Z</time>
      </trkpt>
      <trkpt lat="41.533076000" lon="1.900795000">
        <ele>80.20</ele>
        <time>2013-05-09T12:07:28Z</time>
      </trkpt>
      <trkpt lat="41.533256000" lon="1.900622000">
        <ele>80.30</ele>
        <time>2013-05-09T12:07:31Z</time>
      </trkpt>
      <trkpt lat="41.533444000" lon="1.900470000">
        <ele>80.20</ele>
        <time>2013-05-09T12:07:34Z</time>
      </trkpt>
      <trkpt lat="41.533637000" lon="1.900323000">
        <ele>80.00</ele>
        <time>2013-05-09T12:07:37Z</time>
      </trkpt>
      <trkpt lat="41.533829000" lon="1.900170000">
        <ele>80.10</ele>
        <time>2013-05-09T12:07:40Z</time>
      </trkpt>
      <trkpt lat="41.534021000" lon="1.900017000">
        <ele>79.60</ele>
        <time>2013-05-09T12:07:43Z</time>
      </trkpt>
      <trkpt lat="41.534218000" lon="1.899863000">
        <ele>79.00</ele>
        <time>2013-05-09T12:07:46Z</time>
      </trkpt>
      <trkpt lat="41.534409000" lon="1.899717000">
        <ele>78.70</ele>
        <time>2013-05-09T12:07:49Z</time>
      </trkpt>
      <trkpt lat="41.534596000" lon="1.899573000">
        <ele>79.90</ele>
        <time>2013-05-09T12:07:52Z</time>
      </trkpt>
      <trkpt lat="41.534779000" lon="1.899426000">
        <ele>79.40</ele>
        <time>2013-05-09T12:07:55Z</time>
      </trkpt>
      <trkpt lat="41.534967000" lon="1.899282000">
        <ele>79.60</ele>
        <time>2013-05-09T12:07:58Z</time>
      </trkpt>
      <trkpt lat="41.535149000" lon="1.899135000">
        <ele>79.50</ele>
        <time>2013-05-09T12:08:01Z</time>
      </trkpt>
      <trkpt lat="41.535336000" lon="1.898995000">
        <ele>79.80</ele>
        <time>2013-05-09T12:08:04Z</time>
      </trkpt>
      <trkpt lat="41.535521000" lon="1.898845000">
        <ele>80.70</ele>
        <time>2013-05-09T12:08:07Z</time>
      </trkpt>
      <trkpt lat="41.535704000" lon="1.898686000">
        <ele>80.20</ele>
        <time>2013-05-09T12:08:10Z</time>
      </trkpt>
      <trkpt lat="41.535881000" lon="1.898505000">
        <ele>79.80</ele>
        <time>2013-05-09T12:08:13Z</time>
      </trkpt>
      <trkpt lat="41.536043000" lon="1.898308000">
        <ele>80.00</ele>
        <time>2013-05-09T12:08:16Z</time>
      </trkpt>
      <trkpt lat="41.536192000" lon="1.898097000">
        <ele>80.20</ele>
        <time>2013-05-09T12:08:19Z</time>
      </trkpt>
      <trkpt lat="41.536337000" lon="1.897879000">
        <ele>80.40</ele>
        <time>2013-05-09T12:08:22Z</time>
      </trkpt>
      <trkpt lat="41.536464000" lon="1.897643000">
        <ele>80.40</ele>
        <time>2013-05-09T12:08:25Z</time>
      </trkpt>
      <trkpt lat="41.536581000" lon="1.897400000">
        <ele>80.50</ele>
        <time>2013-05-09T12:08:28Z</time>
      </trkpt>
      <trkpt lat="41.536682000" lon="1.897134000">
        <ele>80.90</ele>
        <time>2013-05-09T12:08:31Z</time>
      </trkpt>
      <trkpt lat="41.536767000" lon="1.896871000">
        <ele>80.80</ele>
        <time>2013-05-09T12:08:34Z</time>
      </trkpt>
      <trkpt lat="41.536832000" lon="1.896613000">
        <ele>80.60</ele>
        <time>2013-05-09T12:08:37Z</time>
      </trkpt>
      <trkpt lat="41.536886000" lon="1.896354000">
        <ele>81.10</ele>
        <time>2013-05-09T12:08:40Z</time>
      </trkpt>
      <trkpt lat="41.536933000" lon="1.896100000">
        <ele>81.10</ele>
        <time>2013-05-09T12:08:43Z</time>
      </trkpt>
      <trkpt lat="41.536969000" lon="1.895854000">
        <ele>81.30</ele>
        <time>2013-05-09T12:08:46Z</time>
      </trkpt>
      <trkpt lat="41.537031000" lon="1.895626000">
        <ele>81.70</ele>
        <time>2013-05-09T12:08:49Z</time>
      </trkpt>
      <trkpt lat="41.537174000" lon="1.895409000">
        <ele>82.40</ele>
        <time>2013-05-09T12:08:53Z</time>
      </trkpt>
      <trkpt lat="41.537260000" lon="1.895149000">
        <ele>83.10</ele>
        <time>2013-05-09T12:08:57Z</time>
      </trkpt>
      <trkpt lat="41.537438000" lon="1.894997000">
        <ele>83.80</ele>
        <time>2013-05-09T12:09:01Z</time>
      </trkpt>
      <trkpt lat="41.537660000" lon="1.894911000">
        <ele>84.20</ele>
        <time>2013-05-09T12:09:05Z</time>
      </trkpt>
      <trkpt lat="41.537882000" lon="1.894817000">
        <ele>85.30</ele>
        <time>2013-05-09T12:09:09Z</time>
      </trkpt>
      <trkpt lat="41.538032000" lon="1.894593000">
        <ele>85.90</ele>
        <time>2013-05-09T12:09:13Z</time>
      </trkpt>
      <trkpt lat="41.538118000" lon="1.894328000">
        <ele>87.20</ele>
        <time>2013-05-09T12:09:17Z</time>
      </trkpt>
      <trkpt lat="41.538227000" lon="1.894099000">
        <ele>86.60</ele>
        <time>2013-05-09T12:09:21Z</time>
      </trkpt>
      <trkpt lat="41.538349000" lon="1.893882000">
        <ele>86.60</ele>
        <time>2013-05-09T12:09:25Z</time>
      </trkpt>
      <trkpt lat="41.538430000" lon="1.893631000">
        <ele>86.50</ele>
        <time>2013-05-09T12:09:29Z</time>
      </trkpt>
      <trkpt lat="41.538504000" lon="1.893367000">
        <ele>86.10</ele>
        <time>2013-05-09T12:09:33Z</time>
      </trkpt>
      <trkpt lat="41.538588000" lon="1.893127000">
        <ele>86.70</ele>
        <time>2013-05-09T12:09:37Z</time>
      </trkpt>
      <trkpt lat="41.538659000" lon="1.892897000">
        <ele>87.20</ele>
        <time>2013-05-09T12:09:41Z</time>
      </trkpt>
      <trkpt lat="41.538732000" lon="1.892676000">
        <ele>87.70</ele>
        <time>2013-05-09T12:09:45Z</time>
      </trkpt>
      <trkpt lat="41.538811000" lon="1.892409000">
        <ele>88.50</ele>
        <time>2013-05-09T12:09:50Z</time>
      </trkpt>
      <trkpt lat="41.538889000" lon="1.892152000">
        <ele>89.30</ele>
        <time>2013-05-09T12:09:55Z</time>
      </trkpt>
      <trkpt lat="41.538984000" lon="1.891887000">
        <ele>89.80</ele>
        <time>2013-05-09T12:10:00Z</time>
      </trkpt>
      <trkpt lat="41.539075000" lon="1.891676000">
        <ele>90.10</ele>
        <time>2013-05-09T12:10:04Z</time>
      </trkpt>
      <trkpt lat="41.539168000" lon="1.891467000">
        <ele>90.20</ele>
        <time>2013-05-09T12:10:08Z</time>
      </trkpt>
      <trkpt lat="41.539277000" lon="1.891283000">
        <ele>90.50</ele>
        <time>2013-05-09T12:10:12Z</time>
      </trkpt>
      <trkpt lat="41.539388000" lon="1.891086000">
        <ele>90.70</ele>
        <time>2013-05-09T12:10:16Z</time>
      </trkpt>
      <trkpt lat="41.539510000" lon="1.890889000">
        <ele>90.80</ele>
        <time>2013-05-09T12:10:20Z</time>
      </trkpt>
      <trkpt lat="41.539634000" lon="1.890684000">
        <ele>91.30</ele>
        <time>2013-05-09T12:10:24Z</time>
      </trkpt>
      <trkpt lat="41.539755000" lon="1.890484000">
        <ele>91.50</ele>
        <time>2013-05-09T12:10:28Z</time>
      </trkpt>
      <trkpt lat="41.539867000" lon="1.890288000">
        <ele>91.50</ele>
        <time>2013-05-09T12:10:32Z</time>
      </trkpt>
      <trkpt lat="41.539973000" lon="1.890076000">
        <ele>91.80</ele>
        <time>2013-05-09T12:10:36Z</time>
      </trkpt>
      <trkpt lat="41.540083000" lon="1.889851000">
        <ele>92.10</ele>
        <time>2013-05-09T12:10:40Z</time>
      </trkpt>
      <trkpt lat="41.540197000" lon="1.889609000">
        <ele>92.20</ele>
        <time>2013-05-09T12:10:44Z</time>
      </trkpt>
      <trkpt lat="41.540303000" lon="1.889373000">
        <ele>92.40</ele>
        <time>2013-05-09T12:10:48Z</time>
      </trkpt>
      <trkpt lat="41.540413000" lon="1.889134000">
        <ele>92.40</ele>
        <time>2013-05-09T12:10:52Z</time>
      </trkpt>
      <trkpt lat="41.540530000" lon="1.888918000">
        <ele>92.40</ele>
        <time>2013-05-09T12:10:56Z</time>
      </trkpt>
      <trkpt lat="41.540628000" lon="1.888687000">
        <ele>92.30</ele>
        <time>2013-05-09T12:11:00Z</time>
      </trkpt>
      <trkpt lat="41.540733000" lon="1.888463000">
        <ele>92.40</ele>
        <time>2013-05-09T12:11:04Z</time>
      </trkpt>
      <trkpt lat="41.540863000" lon="1.888239000">
        <ele>92.00</ele>
        <time>2013-05-09T12:11:08Z</time>
      </trkpt>
      <trkpt lat="41.540992000" lon="1.888020000">
        <ele>91.80</ele>
        <time>2013-05-09T12:11:12Z</time>
      </trkpt>
      <trkpt lat="41.541115000" lon="1.887806000">
        <ele>92.30</ele>
        <time>2013-05-09T12:11:16Z</time>
      </trkpt>
      <trkpt lat="41.541256000" lon="1.887612000">
        <ele>91.80</ele>
        <time>2013-05-09T12:11:20Z</time>
      </trkpt>
      <trkpt lat="41.541376000" lon="1.887409000">
        <ele>91.80</ele>
        <time>2013-05-09T12:11:24Z</time>
      </trkpt>
      <trkpt lat="41.541522000" lon="1.887301000">
        <ele>92.40</ele>
        <time>2013-05-09T12:11:28Z</time>
      </trkpt>
      <trkpt lat="41.541641000" lon="1.887370000">
        <ele>92.10</ele>
        <time>2013-05-09T12:11:34Z</time>
      </trkpt>
      <trkpt lat="41.541824000" lon="1.887187000">
        <ele>89.30</ele>
        <time>2013-05-09T12:11:39Z</time>
      </trkpt>
      <trkpt lat="41.541987000" lon="1.887012000">
        <ele>88.30</ele>
        <time>2013-05-09T12:11:43Z</time>
      </trkpt>
      <trkpt lat="41.542191000" lon="1.887505000">
        <ele>91.70</ele>
        <time>2013-05-09T12:12:15Z</time>
      </trkpt>
      <trkpt lat="41.542120000" lon="1.887494000">
        <ele>93.10</ele>
        <time>2013-05-09T12:12:24Z</time>
      </trkpt>
      <trkpt lat="41.542034000" lon="1.887721000">
        <ele>94.50</ele>
        <time>2013-05-09T12:12:32Z</time>
      </trkpt>
      <trkpt lat="41.542013000" lon="1.887502000">
        <ele>94.50</ele>
        <time>2013-05-09T12:12:45Z</time>
      </trkpt>
      <trkpt lat="41.542121000" lon="1.887277000">
        <ele>94.20</ele>
        <time>2013-05-09T12:12:55Z</time>
      </trkpt>
      <trkpt lat="41.542258000" lon="1.887115000">
        <ele>93.60</ele>
        <time>2013-05-09T12:13:01Z</time>
      </trkpt>
      <trkpt lat="41.542397000" lon="1.886970000">
        <ele>93.50</ele>
        <time>2013-05-09T12:13:07Z</time>
      </trkpt>
      <trkpt lat="41.542569000" lon="1.886869000">
        <ele>94.00</ele>
        <time>2013-05-09T12:13:14Z</time>
      </trkpt>
      <trkpt lat="41.542786000" lon="1.886839000">
        <ele>94.40</ele>
        <time>2013-05-09T12:13:21Z</time>
      </trkpt>
      <trkpt lat="41.542987000" lon="1.886827000">
        <ele>94.60</ele>
        <time>2013-05-09T12:13:27Z</time>
      </trkpt>
      <trkpt lat="41.543175000" lon="1.886861000">
        <ele>95.70</ele>
        <time>2013-05-09T12:13:33Z</time>
      </trkpt>
      <trkpt lat="41.543349000" lon="1.886960000">
        <ele>96.60</ele>
        <time>2013-05-09T12:13:39Z</time>
      </trkpt>
      <trkpt lat="41.543454000" lon="1.887166000">
        <ele>97.40</ele>
        <time>2013-05-09T12:13:45Z</time>
      </trkpt>
      <trkpt lat="41.543607000" lon="1.887319000">
        <ele>97.40</ele>
        <time>2013-05-09T12:13:50Z</time>
      </trkpt>
      <trkpt lat="41.543821000" lon="1.887253000">
        <ele>97.30</ele>
        <time>2013-05-09T12:13:54Z</time>
      </trkpt>
      <trkpt lat="41.543901000" lon="1.886956000">
        <ele>97.80</ele>
        <time>2013-05-09T12:13:58Z</time>
      </trkpt>
      <trkpt lat="41.543890000" lon="1.886661000">
        <ele>98.10</ele>
        <time>2013-05-09T12:14:02Z</time>
      </trkpt>
      <trkpt lat="41.544008000" lon="1.886424000">
        <ele>98.90</ele>
        <time>2013-05-09T12:14:06Z</time>
      </trkpt>
      <trkpt lat="41.544149000" lon="1.886188000">
        <ele>98.20</ele>
        <time>2013-05-09T12:14:10Z</time>
      </trkpt>
      <trkpt lat="41.544307000" lon="1.886059000">
        <ele>98.20</ele>
        <time>2013-05-09T12:14:14Z</time>
      </trkpt>
      <trkpt lat="41.544507000" lon="1.886101000">
        <ele>98.60</ele>
        <time>2013-05-09T12:14:19Z</time>
      </trkpt>
    </trkseg>
  </trk>
</gpx>
